Provisional Data: Little Muncy Creek near Moreland, PA


Please select a monitoring station.
Please select start date.
Please select start date.

Toggle Unit: C/F Toggle Unit: C/F
Sample Time Temperature (C) Temperature (F) Specific Conductivity (mS/cm) pH   Turbidity (NTU+) DO (mg/L)
10/22/2021 12:00:00 AM 13.8 56.84 0.105 7.34 3 9.4
10/22/2021 12:15:00 AM 13.79 56.822 0.105 7.34 2.92 9.39
10/22/2021 12:30:00 AM 13.78 56.804 0.105 7.34 2.96 9.38
10/22/2021 12:45:00 AM 13.76 56.768 0.105 7.33 3.1 9.38
10/22/2021 1:00:00 AM 13.74 56.732 0.105 7.33 2.93 9.38
10/22/2021 1:15:00 AM 13.72 56.696 0.105 7.33 2.98 9.38
10/22/2021 1:30:00 AM 13.7 56.66 0.106 7.33 3.01 9.4
10/22/2021 1:45:00 AM 13.67 56.606 0.106 7.32 3.19 9.4
10/22/2021 2:00:00 AM 13.64 56.552 0.106 7.31 2.97 9.39
10/22/2021 2:15:00 AM 13.61 56.498 0.106 7.33 3.15 9.4
10/22/2021 2:30:00 AM 13.58 56.444 0.106 7.33 3.01 9.4
10/22/2021 2:45:00 AM 13.55 56.39 0.106 7.33 3.01 9.4
10/22/2021 3:00:00 AM 13.5 56.3 0.106 7.32 2.98 9.42
10/22/2021 3:15:00 AM 13.46 56.228 0.106 7.32 3.04 9.45
10/22/2021 3:30:00 AM 13.42 56.156 0.106 7.31 3.04 9.45
10/22/2021 3:45:00 AM 13.37 56.066 0.106 7.33 2.93 9.44
10/22/2021 4:00:00 AM 13.33 55.994 0.106 7.33 2.99 9.48
10/22/2021 4:15:00 AM 13.29 55.922 0.106 7.33 3.06 9.49
10/22/2021 4:30:00 AM 13.24 55.832 0.106 7.33 3.09 9.49
10/22/2021 4:45:00 AM 13.2 55.76 0.106 7.33 3.07 9.51
10/22/2021 5:00:00 AM 13.15 55.67 0.106 7.33 3.05 9.53
10/22/2021 5:15:00 AM 13.1 55.58 0.106 7.33 3.06 9.53
10/22/2021 5:30:00 AM 13.06 55.508 0.106 7.32 3.08 9.54
10/22/2021 5:45:00 AM 13.01 55.418 0.106 7.33 3.07 9.53
10/22/2021 6:00:00 AM 12.98 55.364 0.106 7.32 3.09 9.54
10/22/2021 6:15:00 AM 12.95 55.31 0.106 7.32 3.1 9.55
10/22/2021 6:30:00 AM 12.92 55.256 0.106 7.33 3.01 9.59
10/22/2021 6:45:00 AM 12.89 55.202 0.106 7.32 3.06 9.57
10/22/2021 7:00:00 AM 12.87 55.166 0.106 7.32 3.07 9.6
10/22/2021 7:15:00 AM 12.84 55.112 0.106 7.32 3.11 9.61
10/22/2021 7:30:00 AM 12.82 55.076 0.106 7.32 3.02 9.62
10/22/2021 7:45:00 AM 12.81 55.058 0.106 7.33 3.03 9.65
10/22/2021 8:00:00 AM 12.8 55.04 0.106 7.33 3 9.67
10/22/2021 8:15:00 AM 12.8 55.04 0.106 7.34 3 9.72
10/22/2021 8:30:00 AM 12.8 55.04 0.106 7.35 2.97 9.8
10/22/2021 8:45:00 AM 12.81 55.058 0.106 7.37 2.96 9.91
10/22/2021 9:00:00 AM 12.81 55.058 0.106 7.38 2.96 9.95
10/22/2021 9:15:00 AM 12.82 55.076 0.106 7.39 2.97 10.02
10/22/2021 9:30:00 AM 12.83 55.094 0.106 7.41 2.99 10.1
10/22/2021 9:45:00 AM 12.84 55.112 0.106 7.43 2.91 10.16
10/22/2021 10:00:00 AM 12.85 55.13 0.106 7.44 2.95 10.21
10/22/2021 10:15:00 AM 12.88 55.184 0.106 7.46 2.98 10.31
10/22/2021 10:30:00 AM 12.91 55.238 0.106 7.49 2.95 10.46
10/22/2021 10:45:00 AM 12.98 55.364 0.106 7.55 2.86 10.66
10/22/2021 11:00:00 AM 13.05 55.49 0.105 7.61 2.9 10.83
10/22/2021 11:15:00 AM 13.16 55.688 0.105 7.67 2.97 10.99
10/22/2021 11:30:00 AM 13.21 55.778 0.105 7.71 2.93 11.04
10/22/2021 11:45:00 AM 13.25 55.85 0.105 7.77 2.89 11.15
10/22/2021 12:00:00 PM 13.29 55.922 0.105 7.81 2.89 11.17
10/22/2021 12:15:00 PM 13.4 56.12 0.105 7.85 2.86 11.25
10/22/2021 12:30:00 PM 13.46 56.228 0.105 7.89 2.96 11.3
10/22/2021 12:45:00 PM 13.57 56.426 0.105 7.95 2.9 11.34
10/22/2021 1:00:00 PM 13.7 56.66 0.105 8 2.87 11.39
10/22/2021 1:15:00 PM 13.84 56.912 0.105 8.05 2.85 11.43
10/22/2021 1:30:00 PM 13.85 56.93 0.104 8.06 2.89 11.38
10/22/2021 1:45:00 PM 13.88 56.984 0.104 8.1 2.88 11.41
10/22/2021 2:00:00 PM 13.9 57.02 0.104 8.12 2.88 11.41
10/22/2021 2:15:00 PM 13.9 57.02 0.104 8.12 2.85 11.32
10/22/2021 2:30:00 PM 13.9 57.02 0.104 8.09 2.86 11.24
10/22/2021 2:45:00 PM 13.93 57.074 0.104 8.09 2.87 11.21
10/22/2021 3:00:00 PM 13.96 57.128 0.104 8.1 2.96 11.21
10/22/2021 3:15:00 PM 13.98 57.164 0.104 8.1 2.9 11.19
10/22/2021 3:30:00 PM 14.01 57.218 0.104 8.09 2.93 11.14
10/22/2021 3:45:00 PM 14.04 57.272 0.104 8.09 2.86 11.11
10/22/2021 4:00:00 PM 14.07 57.326 0.104 8.06 2.87 11.1
10/22/2021 4:15:00 PM 14.08 57.344 0.104 8.06 2.85 11.05
10/22/2021 4:30:00 PM 14.06 57.308 0.104 8.02 2.89 10.91
10/22/2021 4:45:00 PM 14.05 57.29 0.104 7.96 2.91 10.81
10/22/2021 5:00:00 PM 14.07 57.326 0.104 7.95 2.89 10.82
10/22/2021 5:15:00 PM 14.04 57.272 0.104 7.91 2.98 10.7
10/22/2021 5:30:00 PM 14.02 57.236 0.104 7.84 2.9 10.55
10/22/2021 5:45:00 PM 14.01 57.218 0.104 7.78 2.95 10.43
10/22/2021 6:00:00 PM 13.98 57.164 0.104 7.72 2.95 10.29
10/22/2021 6:15:00 PM 13.96 57.128 0.104 7.67 2.95 10.16
10/22/2021 6:30:00 PM 13.92 57.056 0.104 7.62 2.96 10.04
10/22/2021 6:45:00 PM 13.88 56.984 0.104 7.58 2.98 9.94
10/22/2021 7:00:00 PM 13.83 56.894 0.104 7.55 3.01 9.85
10/22/2021 7:15:00 PM 13.79 56.822 0.104 7.52 3.05 9.82
10/22/2021 7:30:00 PM 13.76 56.768 0.104 7.5 2.99 9.77
10/22/2021 7:45:00 PM 13.74 56.732 0.104 7.44 3.01 9.72
10/22/2021 8:00:00 PM 13.71 56.678 0.104 7.47 3.03 9.69
10/22/2021 8:15:00 PM 13.68 56.624 0.104 7.46 2.99 9.67
10/22/2021 8:30:00 PM 13.66 56.588 0.104 7.44 2.95 9.64
10/22/2021 8:45:00 PM 13.63 56.534 0.104 7.43 3.02 9.58
10/22/2021 9:00:00 PM 13.58 56.444 0.104 7.42 3.05 9.58
10/22/2021 9:15:00 PM 13.54 56.372 0.104 7.41 3.08 9.58
10/22/2021 9:30:00 PM 13.5 56.3 0.104 7.4 3.04 9.58
10/22/2021 9:45:00 PM 13.45 56.21 0.105 7.4 3.13 9.57
10/22/2021 10:00:00 PM 13.41 56.138 0.105 7.39 3.08 9.56
10/22/2021 10:15:00 PM 13.36 56.048 0.105 7.37 3.01 9.57
10/22/2021 10:30:00 PM 13.3 55.94 0.105 7.38 3.04 9.55
10/22/2021 10:45:00 PM 13.25 55.85 0.105 7.38 3.01 9.56
10/22/2021 11:00:00 PM 13.2 55.76 0.105 7.37 3.8 9.56
10/22/2021 11:15:00 PM 13.16 55.688 0.105 7.37 2.84 9.58
10/22/2021 11:30:00 PM 13.12 55.616 0.105 7.36 3 9.58
10/22/2021 11:45:00 PM 13.08 55.544 0.105 7.36 2.96 9.58
10/23/2021 12:00:00 AM 13.04 55.472 0.105 7.36 2.92 9.57
10/23/2021 12:15:00 AM 13 55.4 0.105 7.36 2.83 9.55
10/23/2021 12:30:00 AM 12.96 55.328 0.105 7.35 2.98 9.57
10/23/2021 12:45:00 AM 12.92 55.256 0.105 7.35 2.89 9.6
10/23/2021 1:00:00 AM 12.88 55.184 0.105 7.35 2.93 9.62
10/23/2021 1:15:00 AM 12.84 55.112 0.105 7.35 2.97 9.63
10/23/2021 1:30:00 AM 12.81 55.058 0.105 7.34 2.91 9.64
10/23/2021 1:45:00 AM 12.77 54.986 0.105 7.35 2.97 9.63
10/23/2021 2:00:00 AM 12.74 54.932 0.106 7.35 2.98 9.67
10/23/2021 2:15:00 AM 12.7 54.86 0.106 7.35 2.91 9.66
10/23/2021 2:30:00 AM 12.66 54.788 0.106 7.35 2.91 9.69
10/23/2021 2:45:00 AM 12.63 54.734 0.106 7.34 2.99 9.69
10/23/2021 3:00:00 AM 12.59 54.662 0.106 7.35 2.88 9.69
10/23/2021 3:15:00 AM 12.55 54.59 0.106 7.35 2.91 9.69
10/23/2021 3:30:00 AM 12.51 54.518 0.106 7.35 2.89 9.71
10/23/2021 3:45:00 AM 12.48 54.464 0.106 7.35 2.85 9.73
10/23/2021 4:00:00 AM 12.44 54.392 0.106 7.35 2.9 9.73
10/23/2021 4:15:00 AM 12.4 54.32 0.106 7.35 2.9 9.75
10/23/2021 4:30:00 AM 12.36 54.248 0.106 7.35 2.93 9.76
10/23/2021 4:45:00 AM 12.33 54.194 0.106 7.35 2.88 9.75
10/23/2021 5:00:00 AM 12.29 54.122 0.106 7.35 2.94 9.75
10/23/2021 5:15:00 AM 12.26 54.068 0.106 7.35 2.9 9.76
10/23/2021 5:30:00 AM 12.23 54.014 0.106 7.35 2.93 9.78
10/23/2021 5:45:00 AM 12.19 53.942 0.106 7.35 2.95 9.8
10/23/2021 6:00:00 AM 12.16 53.888 0.106 7.35 2.9 9.81
10/23/2021 6:15:00 AM 12.13 53.834 0.106 7.35 2.91 9.82
10/23/2021 6:30:00 AM 12.1 53.78 0.106 7.35 2.91 9.83
10/23/2021 6:45:00 AM 12.07 53.726 0.106 7.35 2.88 9.82
10/23/2021 7:00:00 AM 12.04 53.672 0.106 7.35 2.9 9.84
10/23/2021 7:15:00 AM 12.01 53.618 0.106 7.35 2.91 9.86
10/23/2021 7:30:00 AM 11.97 53.546 0.106 7.35 2.87 9.87
10/23/2021 7:45:00 AM 11.94 53.492 0.106 7.35 2.86 9.9
10/23/2021 8:00:00 AM 11.91 53.438 0.106 7.36 2.82 9.92
10/23/2021 8:15:00 AM 11.89 53.402 0.106 7.37 2.85 10.03
10/23/2021 8:30:00 AM 11.87 53.366 0.106 7.39 2.82 10.14
10/23/2021 8:45:00 AM 11.86 53.348 0.106 7.42 2.84 10.27
10/23/2021 9:00:00 AM 11.86 53.348 0.106 7.45 2.84 10.45
10/23/2021 9:15:00 AM 11.87 53.366 0.106 7.49 2.85 10.63
10/23/2021 9:30:00 AM 11.87 53.366 0.106 7.51 2.78 10.67
10/23/2021 9:45:00 AM 11.87 53.366 0.106 7.54 2.8 10.76
10/23/2021 10:00:00 AM 11.86 53.348 0.106 7.56 2.79 10.83
10/23/2021 10:15:00 AM 11.86 53.348 0.106 7.58 2.8 10.89
10/23/2021 10:30:00 AM 11.87 53.366 0.105 7.61 2.8 10.98
10/23/2021 10:45:00 AM 11.89 53.402 0.105 7.65 2.83 11.09
10/23/2021 11:00:00 AM 11.92 53.456 0.105 7.7 2.77 11.22
10/23/2021 11:15:00 AM 11.94 53.492 0.105 7.73 2.77 11.25
10/23/2021 11:30:00 AM 11.93 53.474 0.105 7.75 2.81 11.27
10/23/2021 11:45:00 AM 11.93 53.474 0.105 7.74 2.77 11.22
10/23/2021 12:00:00 PM 11.93 53.474 0.105 7.74 2.86 11.19
10/23/2021 12:15:00 PM 11.92 53.456 0.105 7.73 2.82 11.15
10/23/2021 12:30:00 PM 11.94 53.492 0.105 7.75 2.81 11.21
10/23/2021 12:45:00 PM 11.97 53.546 0.105 7.79 2.71 11.3
10/23/2021 1:00:00 PM 11.99 53.582 0.105 7.82 2.73 11.34
10/23/2021 1:15:00 PM 12.01 53.618 0.105 7.85 2.71 11.39
10/23/2021 1:30:00 PM 12.02 53.636 0.104 7.88 2.78 11.42
10/23/2021 1:45:00 PM 12.03 53.654 0.104 7.89 2.76 11.41
10/23/2021 2:00:00 PM 12.03 53.654 0.104 7.88 2.72 11.34
10/23/2021 2:15:00 PM 12.03 53.654 0.104 7.88 2.78 11.34
10/23/2021 2:30:00 PM 12.03 53.654 0.104 7.87 2.78 11.29
10/23/2021 2:45:00 PM 12.03 53.654 0.104 7.85 2.73 11.23
10/23/2021 3:00:00 PM 12.03 53.654 0.104 7.82 2.93 11.15
10/23/2021 3:15:00 PM 12.03 53.654 0.104 7.79 2.8 11.07
10/23/2021 3:30:00 PM 12.04 53.672 0.104 7.8 2.75 11.09
10/23/2021 3:45:00 PM 12.05 53.69 0.104 7.8 2.78 11.1
10/23/2021 4:00:00 PM 12.04 53.672 0.104 7.79 2.8 11.06
10/23/2021 4:15:00 PM 12.04 53.672 0.104 7.77 2.87 11
10/23/2021 4:30:00 PM 12.04 53.672 0.104 7.75 2.84 10.96
10/23/2021 4:45:00 PM 12.05 53.69 0.104 7.76 2.85 10.98
10/23/2021 5:00:00 PM 12.05 53.69 0.104 7.76 2.79 11.02
10/23/2021 5:15:00 PM 12.04 53.672 0.104 7.74 2.84 10.92
10/23/2021 5:30:00 PM 12.02 53.636 0.104 7.69 2.75 10.78
10/23/2021 5:45:00 PM 12.01 53.618 0.104 7.65 2.83 10.66
10/23/2021 6:00:00 PM 11.98 53.564 0.104 7.62 2.81 10.61
10/23/2021 6:15:00 PM 11.94 53.492 0.104 7.59 2.84 10.53
10/23/2021 6:30:00 PM 11.91 53.438 0.104 7.57 2.98 10.45
10/23/2021 6:45:00 PM 11.89 53.402 0.104 7.54 2.89 10.38
10/23/2021 7:00:00 PM 11.87 53.366 0.104 7.51 2.9 10.32
10/23/2021 7:15:00 PM 11.84 53.312 0.104 7.5 2.94 10.27
10/23/2021 7:30:00 PM 11.81 53.258 0.104 7.48 2.88 10.22
10/23/2021 7:45:00 PM 11.77 53.186 0.104 7.47 2.91 10.21
10/23/2021 8:00:00 PM 11.73 53.114 0.104 7.46 2.94 10.15
10/23/2021 8:15:00 PM 11.69 53.042 0.104 7.45 2.91 10.15
10/23/2021 8:30:00 PM 11.67 53.006 0.104 7.44 2.94 10.13
10/23/2021 8:45:00 PM 11.66 52.988 0.104 7.43 2.93 10.12
10/23/2021 9:00:00 PM 11.64 52.952 0.104 7.42 2.92 10.11
10/23/2021 9:15:00 PM 11.6 52.88 0.104 7.41 2.9 10.08
10/23/2021 9:30:00 PM 11.58 52.844 0.104 7.41 2.99 10.09
10/23/2021 9:45:00 PM 11.55 52.79 0.104 7.4 2.93 10.04
10/23/2021 10:00:00 PM 11.5 52.7 0.104 7.39 2.96 10.05
10/23/2021 10:15:00 PM 11.48 52.664 0.105 7.39 3.02 10.06
10/23/2021 10:30:00 PM 11.46 52.628 0.105 7.39 3.02 10.09
10/23/2021 10:45:00 PM 11.42 52.556 0.105 7.38 2.99 10.09
10/23/2021 11:00:00 PM 11.39 52.502 0.105 7.38 3.04 10.09
10/23/2021 11:15:00 PM 11.36 52.448 0.105 7.38 3.09 10.09
10/23/2021 11:30:00 PM 11.33 52.394 0.105 7.37 3.03 10.1
10/23/2021 11:45:00 PM 11.29 52.322 0.105 7.37 2.99 10.12
10/24/2021 12:00:00 AM 11.26 52.268 0.105 7.37 5.02 10.11
10/24/2021 12:15:00 AM 11.23 52.214 0.105 7.37 3.09 10.07
10/24/2021 12:30:00 AM 11.2 52.16 0.105 7.37 3.49 10.11
10/24/2021 12:45:00 AM 11.17 52.106 0.105 7.36 3.6 10.1
10/24/2021 1:00:00 AM 11.13 52.034 0.105 7.36 3.52 10.09
10/24/2021 1:15:00 AM 11.09 51.962 0.105 7.36 3.46 10.13
10/24/2021 1:30:00 AM 11.05 51.89 0.105 7.36 3.24 10.13
10/24/2021 1:45:00 AM 11.01 51.818 0.105 7.36 3.26 10.13
10/24/2021 2:00:00 AM 10.97 51.746 0.105 7.36 3.29 10.16
10/24/2021 2:15:00 AM 10.93 51.674 0.105 7.35 3.34 10.14
10/24/2021 2:30:00 AM 10.89 51.602 0.105 7.36 3.31 10.16
10/24/2021 2:45:00 AM 10.85 51.53 0.105 7.35 3.39 10.2
10/24/2021 3:00:00 AM 10.8 51.44 0.105 7.35 3.24 10.21
10/24/2021 3:15:00 AM 10.76 51.368 0.105 7.35 3.17 10.22
10/24/2021 3:30:00 AM 10.72 51.296 0.105 7.35 3.33 10.22
10/24/2021 3:45:00 AM 10.69 51.242 0.105 7.35 2.95 10.24
10/24/2021 4:00:00 AM 10.66 51.188 0.105 7.35 3.04 10.27
10/24/2021 4:15:00 AM 10.63 51.134 0.106 7.35 2.96 10.26
10/24/2021 4:30:00 AM 10.6 51.08 0.106 7.35 2.9 10.27
10/24/2021 4:45:00 AM 10.57 51.026 0.106 7.35 3.31 10.29
10/24/2021 5:00:00 AM 10.55 50.99 0.106 7.35 2.81 10.3
10/24/2021 5:15:00 AM 10.52 50.936 0.106 7.35 2.77 10.3
10/24/2021 5:30:00 AM 10.5 50.9 0.106 7.35 2.74 10.31
10/24/2021 5:45:00 AM 10.49 50.882 0.106 7.35 2.75 10.33
10/24/2021 6:00:00 AM 10.47 50.846 0.106 7.35 2.77 10.31
10/24/2021 6:15:00 AM 10.45 50.81 0.106 7.35 2.75 10.32
10/24/2021 6:30:00 AM 10.43 50.774 0.106 7.35 2.74 10.32
10/24/2021 6:45:00 AM 10.41 50.738 0.106 7.35 2.9 10.3
10/24/2021 7:00:00 AM 10.4 50.72 0.106 7.35 2.84 10.34
10/24/2021 7:15:00 AM 10.38 50.684 0.106 7.35 2.86 10.35
10/24/2021 7:30:00 AM 10.37 50.666 0.106 7.35 2.87 10.36
10/24/2021 7:45:00 AM 10.35 50.63 0.106 7.36 2.82 10.37
10/24/2021 8:00:00 AM 10.34 50.612 0.106 7.36 2.84 10.41
10/24/2021 8:15:00 AM 10.33 50.594 0.106 7.37 2.78 10.45
10/24/2021 8:30:00 AM 10.32 50.576 0.106 7.38 2.79 10.52
10/24/2021 8:45:00 AM 10.32 50.576 0.106 7.4 2.78 10.62
10/24/2021 9:00:00 AM 10.32 50.576 0.105 7.41 2.82 10.7
10/24/2021 9:15:00 AM 10.33 50.594 0.105 7.44 2.76 10.85
10/24/2021 9:30:00 AM 10.35 50.63 0.105 7.47 2.74 10.98
10/24/2021 9:45:00 AM 10.37 50.666 0.105 7.5 2.71 11.11
10/24/2021 10:00:00 AM 10.39 50.702 0.105 7.54 2.72 11.25
10/24/2021 10:15:00 AM 10.4 50.72 0.105 7.57 2.75 11.33
10/24/2021 10:30:00 AM 10.4 50.72 0.105 7.58 2.7 11.33
10/24/2021 10:45:00 AM 10.43 50.774 0.105 7.61 2.68 11.45
10/24/2021 11:00:00 AM 10.49 50.882 0.105 7.66 2.66 11.56
10/24/2021 11:15:00 AM 10.5 50.9 0.105 7.68 2.69 11.59
10/24/2021 11:30:00 AM 10.54 50.972 0.105 7.72 2.66 11.67
10/24/2021 11:45:00 AM 10.57 51.026 0.105 7.74 2.65 11.73
10/24/2021 12:00:00 PM 10.58 51.044 0.105 7.76 2.57 11.7
10/24/2021 12:15:00 PM 10.61 51.098 0.105 7.77 2.92 11.77
10/24/2021 12:30:00 PM 10.62 51.116 0.105 7.79 2.63 11.74
10/24/2021 12:45:00 PM 10.64 51.152 0.105 7.79 2.62 11.7
10/24/2021 1:00:00 PM 10.66 51.188 0.104 7.81 2.59 11.75
10/24/2021 1:15:00 PM 10.68 51.224 0.104 7.81 3.06 11.69
10/24/2021 1:30:00 PM 10.68 51.224 0.104 7.78 3.4 11.58
10/24/2021 1:45:00 PM 10.7 51.26 0.104 7.77 3.04 11.5
10/24/2021 2:00:00 PM 10.71 51.278 0.104 7.77 2.95 11.54
10/24/2021 2:15:00 PM 10.74 51.332 0.104 7.79 2.76 11.57
10/24/2021 2:30:00 PM 10.77 51.386 0.104 7.81 2.88 11.62
10/24/2021 2:45:00 PM 10.79 51.422 0.104 7.83 2.85 11.67
10/24/2021 3:00:00 PM 10.81 51.458 0.104 7.85 2.85 11.67
10/24/2021 3:15:00 PM 10.82 51.476 0.104 7.84 2.86 11.62
10/24/2021 3:30:00 PM 10.83 51.494 0.104 7.83 650.48 11.57
10/24/2021 3:45:00 PM 10.84 51.512 0.104 7.78 255.53 11.48
10/24/2021 4:00:00 PM 10.84 51.512 0.104 7.76 2.82 11.39
10/24/2021 4:15:00 PM 10.86 51.548 0.104 7.75 2.8 11.36
10/24/2021 4:30:00 PM 10.87 51.566 0.104 7.74 2.77 11.3
10/24/2021 4:45:00 PM 10.87 51.566 0.104 7.71 2.7 11.21
10/24/2021 5:00:00 PM 10.88 51.584 0.104 7.68 2.74 11.14
10/24/2021 5:15:00 PM 10.88 51.584 0.104 7.66 2.75 11.09
10/24/2021 5:30:00 PM 10.88 51.584 0.104 7.64 2.72 11.03
10/24/2021 5:45:00 PM 10.88 51.584 0.104 7.61 2.74 10.94
10/24/2021 6:00:00 PM 10.88 51.584 0.104 7.58 2.85 10.84
10/24/2021 6:15:00 PM 10.88 51.584 0.104 7.56 3.11 10.77
10/24/2021 6:30:00 PM 10.88 51.584 0.104 7.53 2.74 10.69
10/24/2021 6:45:00 PM 10.87 51.566 0.104 7.51 2.75 10.64
10/24/2021 7:00:00 PM 10.87 51.566 0.104 7.5 2.76 10.58
10/24/2021 7:15:00 PM 10.87 51.566 0.104 7.48 2.8 10.55
10/24/2021 7:30:00 PM 10.87 51.566 0.104 7.47 2.82 10.52
10/24/2021 7:45:00 PM 10.87 51.566 0.104 7.46 2.86 10.48
10/24/2021 8:00:00 PM 10.87 51.566 0.104 7.45 2.8 10.44
10/24/2021 8:15:00 PM 10.87 51.566 0.104 7.44 3.17 10.41
10/24/2021 8:30:00 PM 10.87 51.566 0.104 7.43 3.19 10.4
10/24/2021 8:45:00 PM 10.87 51.566 0.104 7.42 3.18 10.37
10/24/2021 9:00:00 PM 10.87 51.566 0.104 7.42 3.25 10.36
10/24/2021 9:15:00 PM 10.87 51.566 0.104 7.41 3.29 10.32
10/24/2021 9:30:00 PM 10.87 51.566 0.104 7.4 3.4 10.3
10/24/2021 9:45:00 PM 10.87 51.566 0.104 7.4 3.31 10.31
10/24/2021 10:00:00 PM 10.87 51.566 0.104 7.39 3.29 10.29
10/24/2021 10:15:00 PM 10.87 51.566 0.104 7.39 3.24 10.28
10/24/2021 10:30:00 PM 10.88 51.584 0.104 7.38 3.28 10.27
10/24/2021 10:45:00 PM 10.88 51.584 0.104 7.38 3.33 10.23
10/24/2021 11:00:00 PM 10.88 51.584 0.105 7.38 3.37 10.22
10/24/2021 11:15:00 PM 10.88 51.584 0.105 7.37 3.32 10.24
10/24/2021 11:30:00 PM 10.89 51.602 0.105 7.37 3.33 10.24
10/24/2021 11:45:00 PM 10.89 51.602 0.105 7.37 3.3 10.22
10/25/2021 12:00:00 AM 10.89 51.602 0.105 7.37 2.97 10.22
10/25/2021 12:15:00 AM 10.9 51.62 0.105 7.37 3.06 10.22
10/25/2021 12:30:00 AM 10.9 51.62 0.105 7.37 3.06 10.23
10/25/2021 12:45:00 AM 10.91 51.638 0.105 7.37 2.94 10.22
10/25/2021 1:00:00 AM 10.91 51.638 0.105 7.36 2.94 10.21
10/25/2021 1:15:00 AM 10.92 51.656 0.105 7.36 2.92 10.21
10/25/2021 1:30:00 AM 10.92 51.656 0.105 7.36 2.94 10.21
10/25/2021 1:45:00 AM 10.93 51.674 0.105 7.36 2.97 10.21
10/25/2021 2:00:00 AM 10.93 51.674 0.105 7.36 3 10.2
10/25/2021 2:15:00 AM 10.94 51.692 0.105 7.36 2.98 10.2
10/25/2021 2:30:00 AM 10.94 51.692 0.105 7.36 2.98 10.2
10/25/2021 2:45:00 AM 10.95 51.71 0.105 7.36 3.01 10.19
10/25/2021 3:00:00 AM 10.95 51.71 0.105 7.36 3.02 10.19
10/25/2021 3:15:00 AM 10.96 51.728 0.106 7.36 3.06 10.19
10/25/2021 3:30:00 AM 10.95 51.71 0.105 7.36 3.02 10.19
10/25/2021 3:45:00 AM 10.94 51.692 0.105 7.36 2.97 10.2
10/25/2021 4:00:00 AM 10.92 51.656 0.106 7.35 3 10.19
10/25/2021 4:15:00 AM 10.91 51.638 0.105 7.35 2.91 10.2
10/25/2021 4:30:00 AM 10.9 51.62 0.105 7.35 3.04 10.2
10/25/2021 4:45:00 AM 10.89 51.602 0.105 7.35 3.05 10.19
10/25/2021 5:00:00 AM 10.88 51.584 0.105 7.35 2.96 10.2
10/25/2021 5:15:00 AM 10.86 51.548 0.105 7.35 2.92 10.21
10/25/2021 5:30:00 AM 10.84 51.512 0.105 7.35 3.08 10.21
10/25/2021 5:45:00 AM 10.83 51.494 0.105 7.35 3.12 10.21
10/25/2021 6:00:00 AM 10.81 51.458 0.105 7.35 3.13 10.21
10/25/2021 6:15:00 AM 10.79 51.422 0.105 7.35 3.16 10.21
10/25/2021 6:30:00 AM 10.77 51.386 0.105 7.34 3.14 10.22
10/25/2021 6:45:00 AM 10.75 51.35 0.105 7.35 3.14 10.23
10/25/2021 7:00:00 AM 10.73 51.314 0.105 7.34 3.12 10.23
10/25/2021 7:15:00 AM 10.71 51.278 0.105 7.34 3.17 10.23
10/25/2021 7:30:00 AM 10.69 51.242 0.105 7.34 3.15 10.25
10/25/2021 7:45:00 AM 10.66 51.188 0.105 7.34 3.15 10.27
10/25/2021 8:00:00 AM 10.65 51.17 0.105 7.35 3.17 10.29
10/25/2021 8:15:00 AM 10.63 51.134 0.105 7.35 3.14 10.33
10/25/2021 8:30:00 AM 10.61 51.098 0.105 7.36 3.1 10.38
10/25/2021 8:45:00 AM 10.61 51.098 0.105 7.38 3.06 10.48
10/25/2021 9:00:00 AM 10.6 51.08 0.105 7.4 3.1 10.59
10/25/2021 9:15:00 AM 10.62 51.116 0.105 7.42 3.1 10.75
10/25/2021 9:30:00 AM 10.66 51.188 0.104 7.46 3.09 10.93
10/25/2021 9:45:00 AM 10.69 51.242 0.104 7.49 3.16 11.01
10/25/2021 10:00:00 AM 10.72 51.296 0.104 7.51 3.11 11.11
10/25/2021 10:15:00 AM 10.77 51.386 0.104 7.54 3.14 11.17
10/25/2021 10:30:00 AM 10.83 51.494 0.104 7.56 3.07 11.23
10/25/2021 10:45:00 AM 10.91 51.638 0.104 7.6 3.08 11.29
10/25/2021 11:00:00 AM 11.02 51.836 0.104 7.63 3.05 11.42
10/25/2021 11:15:00 AM 11.14 52.052 0.104 7.67 3.07 11.49
10/25/2021 11:30:00 AM 11.25 52.25 0.104 7.71 3.04 11.56
10/25/2021 11:45:00 AM 11.38 52.484 0.104 7.75 3.05 11.62
10/25/2021 12:00:00 PM 11.52 52.736 0.104 7.79 3.09 11.67
10/25/2021 12:15:00 PM 11.68 53.024 0.104 7.83 3.07 11.7
10/25/2021 12:30:00 PM 11.85 53.33 0.103 7.88 2.99 11.77
10/25/2021 12:45:00 PM 12.04 53.672 0.103 7.91 3.07 11.77
10/25/2021 1:00:00 PM 12.17 53.906 0.103 7.96 3.02 11.79
10/25/2021 1:15:00 PM 12.29 54.122 0.103 7.99 3 11.78
10/25/2021 1:30:00 PM 12.44 54.392 0.103 8.03 3.03 11.79
10/25/2021 1:45:00 PM 12.54 54.572 0.103 8.05 2.99 11.77
10/25/2021 2:00:00 PM 12.66 54.788 0.103 8.08 3.06 11.79
10/25/2021 2:15:00 PM 12.75 54.95 0.103 8.1 3.04 11.75
10/25/2021 2:30:00 PM 12.78 55.004 0.103 8.12 3.02 11.72
10/25/2021 2:45:00 PM 12.82 55.076 0.103 8.14 3.09 11.7
10/25/2021 3:00:00 PM 12.79 55.022 0.103 8.13 3.04 11.62
10/25/2021 3:15:00 PM 12.76 54.968 0.103 8.12 3.02 11.56
10/25/2021 3:30:00 PM 12.86 55.148 0.103 8.14 3.02 11.6
10/25/2021 3:45:00 PM 12.95 55.31 0.103 8.17 3.06 11.58
10/25/2021 4:00:00 PM 12.96 55.328 0.103 8.17 2.77 11.5
10/25/2021 4:15:00 PM 13 55.4 0.103 8.13 2.78 11.38
10/25/2021 4:30:00 PM 13.06 55.508 0.103 8.1 2.9 11.34
10/25/2021 4:45:00 PM 13.1 55.58 0.103 8.07 2.99 11.23
10/25/2021 5:00:00 PM 13.12 55.616 0.103 8 3 11.08
10/25/2021 5:15:00 PM 13.16 55.688 0.103 7.95 2.97 10.97
10/25/2021 5:30:00 PM 13.2 55.76 0.103 7.89 2.98 10.82
10/25/2021 5:45:00 PM 13.22 55.796 0.103 7.82 2.96 10.67
10/25/2021 6:00:00 PM 13.24 55.832 0.103 7.76 2.99 10.52
10/25/2021 6:15:00 PM 13.26 55.868 0.103 7.7 3.01 10.36
10/25/2021 6:30:00 PM 13.27 55.886 0.103 7.64 2.98 10.22
10/25/2021 6:45:00 PM 13.29 55.922 0.103 7.59 2.99 10.11
10/25/2021 7:00:00 PM 13.3 55.94 0.103 7.56 3.03 10.02
10/25/2021 7:15:00 PM 13.31 55.958 0.103 7.53 3.02 9.94
10/25/2021 7:30:00 PM 13.31 55.958 0.103 7.5 2.97 9.88
10/25/2021 7:45:00 PM 13.32 55.976 0.103 7.47 3.16 9.81
10/25/2021 8:00:00 PM 13.32 55.976 0.104 7.45 3.07 9.78
10/25/2021 8:15:00 PM 13.33 55.994 0.104 7.44 3.1 9.72
10/25/2021 8:30:00 PM 13.33 55.994 0.104 7.42 3.01 9.69
10/25/2021 8:45:00 PM 13.33 55.994 0.104 7.41 3.08 9.65
10/25/2021 9:00:00 PM 13.34 56.012 0.104 7.39 3.24 9.62
10/25/2021 9:15:00 PM 13.34 56.012 0.104 7.39 3.76 9.61
10/25/2021 9:30:00 PM 13.34 56.012 0.103 7.38 3.08 9.59
10/25/2021 9:45:00 PM 13.35 56.03 0.103 7.37 3.61 9.57
10/25/2021 10:00:00 PM 13.35 56.03 0.102 7.36 3.44 9.56
10/25/2021 10:15:00 PM 13.36 56.048 0.103 7.36 3.48 9.54
10/25/2021 10:30:00 PM 13.36 56.048 0.103 7.35 3.46 9.52
10/25/2021 10:45:00 PM 13.37 56.066 0.103 7.35 3.52 9.52
10/25/2021 11:00:00 PM 13.38 56.084 0.103 7.34 3.46 9.52
10/25/2021 11:15:00 PM 13.38 56.084 0.103 7.35 3.24 9.49
10/25/2021 11:30:00 PM 13.38 56.084 0.102 7.35 3.28 9.49
10/25/2021 11:45:00 PM 13.37 56.066 0.102 7.35 3.19 9.48
10/26/2021 12:00:00 AM 13.36 56.048 0.103 7.35 3.21 9.48
10/26/2021 12:15:00 AM 13.34 56.012 0.103 7.35 3.14 9.46
10/26/2021 12:30:00 AM 13.32 55.976 0.103 7.35 3.19 9.45
10/26/2021 12:45:00 AM 13.3 55.94 0.103 7.35 3.13 9.48
10/26/2021 1:00:00 AM 13.28 55.904 0.103 7.35 3.03 9.48
10/26/2021 1:15:00 AM 13.26 55.868 0.103 7.35 3.12 9.48
10/26/2021 1:30:00 AM 13.23 55.814 0.103 7.35 3.13 9.47
10/26/2021 1:45:00 AM 13.22 55.796 0.103 7.35 3.17 9.47
10/26/2021 2:00:00 AM 13.2 55.76 0.103 7.35 3.17 9.48
10/26/2021 2:15:00 AM 13.2 55.76 0.103 7.35 3.26 9.48
10/26/2021 2:30:00 AM 13.2 55.76 0.103 7.35 3.28 9.46
10/26/2021 2:45:00 AM 13.2 55.76 0.103 7.35 3.29 9.45
10/26/2021 3:00:00 AM 13.2 55.76 0.103 7.35 3.21 9.36
10/26/2021 3:15:00 AM 13.21 55.778 0.103 7.35 3.3 9.43
10/26/2021 3:30:00 AM 13.22 55.796 0.103 7.34 3.44 9.4
10/26/2021 3:45:00 AM 13.23 55.814 0.103 7.35 3.31 9.44
10/26/2021 4:00:00 AM 13.23 55.814 0.103 7.35 3.3 9.42
10/26/2021 4:15:00 AM 13.24 55.832 0.103 7.34 3.52 9.43
10/26/2021 4:30:00 AM 13.25 55.85 0.103 7.34 3.39 9.43
10/26/2021 4:45:00 AM 13.25 55.85 0.103 7.34 3.3 9.42
10/26/2021 5:00:00 AM 13.26 55.868 0.103 7.34 3.45 9.41
10/26/2021 5:15:00 AM 13.26 55.868 0.103 7.34 3.42 9.42
10/26/2021 5:30:00 AM 13.26 55.868 0.103 7.34 3.72 9.4
10/26/2021 5:45:00 AM 13.26 55.868 0.103 7.33 3.51 9.4
10/26/2021 6:00:00 AM 13.25 55.85 0.102 7.33 3.36 9.41
10/26/2021 6:15:00 AM 13.25 55.85 0.102 7.33 3.36 9.41
10/26/2021 6:30:00 AM 13.24 55.832 0.102 7.33 3.43 9.4
10/26/2021 6:45:00 AM 13.23 55.814 0.102 7.33 3.44 9.41
10/26/2021 7:00:00 AM 13.23 55.814 0.102 7.33 3.42 9.4
10/26/2021 7:15:00 AM 13.22 55.796 0.102 7.32 3.28 9.41
10/26/2021 7:30:00 AM 13.21 55.778 0.102 7.32 3.27 9.38
10/26/2021 7:45:00 AM 13.2 55.76 0.102 7.32 3.2 9.4
10/26/2021 8:00:00 AM 13.2 55.76 0.102 7.32 3.24 9.41
10/26/2021 8:15:00 AM 13.19 55.742 0.102 7.33 3.2 9.45
10/26/2021 8:30:00 AM 13.18 55.724 0.102 7.33 3.24 9.49
10/26/2021 8:45:00 AM 13.18 55.724 0.102 7.34 3.32 9.53
10/26/2021 9:00:00 AM 13.19 55.742 0.102 7.35 3.21 9.6
10/26/2021 9:15:00 AM 13.18 55.724 0.102 7.36 3.18 9.6
10/26/2021 9:30:00 AM 13.18 55.724 0.102 7.37 3.23 9.66
10/26/2021 9:45:00 AM 13.19 55.742 0.101 7.38 3.24 9.73
10/26/2021 10:00:00 AM 13.2 55.76 0.102 7.4 3.16 9.83
10/26/2021 10:15:00 AM 13.21 55.778 0.101 7.42 3.16 9.88
10/26/2021 10:30:00 AM 13.21 55.778 0.102 7.43 3.37 9.9
10/26/2021 10:45:00 AM 13.22 55.796 0.102 7.44 3.24 9.93
10/26/2021 11:00:00 AM 13.22 55.796 0.102 7.45 3.22 9.94
10/26/2021 11:15:00 AM 13.23 55.814 0.101 7.45 3.14 9.97
10/26/2021 11:30:00 AM 13.24 55.832 0.101 7.47 3.18 10
10/26/2021 11:45:00 AM 13.24 55.832 0.101 7.48 3.23 10.02
10/26/2021 12:00:00 PM 13.24 55.832 0.102 7.49 4.69 10.04
10/26/2021 12:15:00 PM 13.24 55.832 0.102 7.49 3.23 10.03
10/26/2021 12:30:00 PM 13.24 55.832 0.102 7.5 3.23 10.09
10/26/2021 12:45:00 PM 13.23 55.814 0.102 7.53 3.29 10.16
10/26/2021 1:00:00 PM 13.21 55.778 0.102 7.54 3.26 10.21
10/26/2021 1:15:00 PM 13.2 55.76 0.102 7.56 3.22 10.27
10/26/2021 1:30:00 PM 13.19 55.742 0.102 7.59 3.23 10.31
10/26/2021 1:45:00 PM 13.17 55.706 0.103 7.6 3.27 10.34
10/26/2021 2:00:00 PM 13.15 55.67 0.103 7.61 3.4 10.33
10/26/2021 2:15:00 PM 13.11 55.598 0.103 7.61 3.53 10.28
10/26/2021 2:30:00 PM 13.08 55.544 0.103 7.6 3.5 10.26
10/26/2021 2:45:00 PM 13.05 55.49 0.103 7.61 3.53 10.26
10/26/2021 3:00:00 PM 13.01 55.418 0.103 7.61 3.63 10.26
10/26/2021 3:15:00 PM 12.97 55.346 0.104 7.61 5.25 10.24
10/26/2021 3:30:00 PM 12.95 55.31 0.104 7.62 4.67 10.22
10/26/2021 3:45:00 PM 12.92 55.256 0.104 7.62 3.63 10.28
10/26/2021 4:00:00 PM 12.89 55.202 0.104 7.64 3.66 10.32
10/26/2021 4:15:00 PM 12.87 55.166 0.104 7.65 3.82 10.3
10/26/2021 4:30:00 PM 12.84 55.112 0.104 7.65 4.03 10.3
10/26/2021 4:45:00 PM 12.8 55.04 0.105 7.64 4.33 10.28
10/26/2021 5:00:00 PM 12.77 54.986 0.106 7.63 4.69 10.22
10/26/2021 5:15:00 PM 12.72 54.896 0.108 7.61 5.57 10.17
10/26/2021 5:30:00 PM 12.67 54.806 0.11 7.59 7.24 10.09
10/26/2021 5:45:00 PM 12.63 54.734 0.11 7.57 8.33 10.03
10/26/2021 6:00:00 PM 12.59 54.662 0.11 7.55 8.49 9.97
10/26/2021 6:15:00 PM 12.55 54.59 0.11 7.54 9.77 9.91
10/26/2021 6:30:00 PM 12.52 54.536 0.11 7.52 10.27 9.89
10/26/2021 6:45:00 PM 12.48 54.464 0.11 7.5 11.18 9.87
10/26/2021 7:00:00 PM 12.44 54.392 0.109 7.48 12.01 9.86
10/26/2021 7:15:00 PM 12.4 54.32 0.109 7.47 11.86 9.84
10/26/2021 7:30:00 PM 12.35 54.23 0.109 7.46 11.91 9.81
10/26/2021 7:45:00 PM 12.31 54.158 0.108 7.46 11.47 9.8
10/26/2021 8:00:00 PM 12.26 54.068 0.108 7.45 11.31 9.8
10/26/2021 8:15:00 PM 12.22 53.996 0.107 7.44 10.25 9.81
10/26/2021 8:30:00 PM 12.19 53.942 0.107 7.43 9.99 9.81
10/26/2021 8:45:00 PM 12.15 53.87 0.107 7.43 10.36 9.82
10/26/2021 9:00:00 PM 12.12 53.816 0.106 7.42 9.55 9.82
10/26/2021 9:15:00 PM 12.09 53.762 0.106 7.42 10.4 9.83
10/26/2021 9:30:00 PM 12.06 53.708 0.106 7.41 9.04 9.83
10/26/2021 9:45:00 PM 12.03 53.654 0.106 7.41 9.05 9.84
10/26/2021 10:00:00 PM 12 53.6 0.105 7.41 8.72 9.85
10/26/2021 10:15:00 PM 11.97 53.546 0.105 7.4 8.05 9.86
10/26/2021 10:30:00 PM 11.95 53.51 0.105 7.4 7.9 9.86
10/26/2021 10:45:00 PM 11.92 53.456 0.105 7.4 8.02 9.87
10/26/2021 11:00:00 PM 11.89 53.402 0.105 7.39 7.85 9.89
10/26/2021 11:15:00 PM 11.87 53.366 0.104 7.39 7.81 9.89
10/26/2021 11:30:00 PM 11.85 53.33 0.105 7.39 7.87 9.89
10/26/2021 11:45:00 PM 11.82 53.276 0.105 7.39 7.39 9.89
10/27/2021 12:00:00 AM 11.8 53.24 0.105 7.39 7.29 9.9
10/27/2021 12:15:00 AM 11.79 53.222 0.105 7.39 7.64 9.9
10/27/2021 12:30:00 AM 11.77 53.186 0.105 7.38 7.65 9.91
10/27/2021 12:45:00 AM 11.76 53.168 0.105 7.38 7.18 9.92
10/27/2021 1:00:00 AM 11.75 53.15 0.106 7.38 7.25 9.92
10/27/2021 1:15:00 AM 11.73 53.114 0.106 7.38 7.88 9.93
10/27/2021 1:30:00 AM 11.71 53.078 0.106 7.38 7.21 9.94
10/27/2021 1:45:00 AM 11.69 53.042 0.106 7.38 7.48 9.94
10/27/2021 2:00:00 AM 11.69 53.042 0.106 7.38 7.26 9.94
10/27/2021 2:15:00 AM 11.68 53.024 0.106 7.38 7.13 9.94
10/27/2021 2:30:00 AM 11.66 52.988 0.106 7.38 7.02 9.94
10/27/2021 2:45:00 AM 11.64 52.952 0.106 7.38 7.04 9.96
10/27/2021 3:00:00 AM 11.62 52.916 0.106 7.39 7.07 9.96
10/27/2021 3:15:00 AM 11.61 52.898 0.106 7.38 6.94 9.96
10/27/2021 3:30:00 AM 11.6 52.88 0.106 7.38 7.18 9.97
10/27/2021 3:45:00 AM 11.6 52.88 0.106 7.38 7.21 9.97
10/27/2021 4:00:00 AM 11.59 52.862 0.106 7.38 7.08 9.96
10/27/2021 4:15:00 AM 11.59 52.862 0.106 7.38 7.01 9.97
10/27/2021 4:30:00 AM 11.59 52.862 0.106 7.38 6.84 9.98
10/27/2021 4:45:00 AM 11.58 52.844 0.106 7.38 6.61 9.97
10/27/2021 5:00:00 AM 11.57 52.826 0.106 7.38 6.86 9.97
10/27/2021 5:15:00 AM 11.57 52.826 0.106 7.38 7.05 9.98
10/27/2021 5:30:00 AM 11.57 52.826 0.106 7.38 7.04 9.98
10/27/2021 5:45:00 AM 11.57 52.826 0.106 7.38 6.81 9.97
10/27/2021 6:00:00 AM 11.57 52.826 0.106 7.38 6.98 9.99
10/27/2021 6:15:00 AM 11.57 52.826 0.106 7.38 6.82 9.99
10/27/2021 6:30:00 AM 11.58 52.844 0.106 7.37 7.72 9.98
10/27/2021 6:45:00 AM 11.59 52.862 0.106 7.38 7.07 9.98
10/27/2021 7:00:00 AM 11.6 52.88 0.106 7.38 6.77 9.97
10/27/2021 7:15:00 AM 11.6 52.88 0.106 7.37 6.91 9.98
10/27/2021 7:30:00 AM 11.62 52.916 0.106 7.37 6.77 9.97
10/27/2021 7:45:00 AM 11.63 52.934 0.106 7.37 6.43 9.98
10/27/2021 8:00:00 AM 11.64 52.952 0.106 7.37 6.58 9.98
10/27/2021 8:15:00 AM 11.65 52.97 0.106 7.38 6.33 10
10/27/2021 8:30:00 AM 11.67 53.006 0.106 7.38 6.2 10.04
10/27/2021 8:45:00 AM 11.68 53.024 0.106 7.39 6.53 10.07
10/27/2021 9:00:00 AM 11.7 53.06 0.106 7.39 6.16 10.08
10/27/2021 9:15:00 AM 11.71 53.078 0.106 7.4 5.71 10.12
10/27/2021 9:30:00 AM 11.74 53.132 0.106 7.41 5.88 10.2
10/27/2021 9:45:00 AM 11.76 53.168 0.106 7.43 5.89 10.27
10/27/2021 10:00:00 AM 11.79 53.222 0.106 7.45 5.96 10.41
10/27/2021 10:15:00 AM 11.83 53.294 0.106 7.48 5.81 10.49
10/27/2021 10:30:00 AM 11.89 53.402 0.106 7.51 6.08 10.63
10/27/2021 10:45:00 AM 11.96 53.528 0.106 7.54 6.04 10.73
10/27/2021 11:00:00 AM 12.02 53.636 0.106 7.56 5.61 10.79
10/27/2021 11:15:00 AM 12.1 53.78 0.106 7.58 6.09 10.83
10/27/2021 11:30:00 AM 12.18 53.924 0.106 7.62 5.95 10.89
10/27/2021 11:45:00 AM 12.29 54.122 0.106 7.64 5.61 10.96
10/27/2021 12:00:00 PM 12.41 54.338 0.106 7.67 5.46 11.02
10/27/2021 12:15:00 PM 12.53 54.554 0.106 7.7 5.94 11.08
10/27/2021 12:30:00 PM 12.66 54.788 0.106 7.73 6.04 11.12
10/27/2021 12:45:00 PM 12.79 55.022 0.105 7.76 5.49 11.16
10/27/2021 1:00:00 PM 12.9 55.22 0.105 7.78 5.5 11.13
10/27/2021 1:15:00 PM 12.99 55.382 0.105 7.81 5.31 11.18
10/27/2021 1:30:00 PM 13.05 55.49 0.105 7.83 5.8 11.19
10/27/2021 1:45:00 PM 13.11 55.598 0.105 7.84 5.66 11.18
10/27/2021 2:00:00 PM 13.19 55.742 0.105 7.86 5.63 11.17
10/27/2021 2:15:00 PM 13.25 55.85 0.105 7.87 5.17 11.15
10/27/2021 2:30:00 PM 13.29 55.922 0.105 7.88 5.75 11.13
10/27/2021 2:45:00 PM 13.35 56.03 0.105 7.88 5.5 11.1
10/27/2021 3:00:00 PM 13.4 56.12 0.105 7.88 5.36 11.03
10/27/2021 3:15:00 PM 13.42 56.156 0.105 7.87 4.91 10.98
10/27/2021 3:30:00 PM 13.46 56.228 0.105 7.85 5.54 10.9
10/27/2021 3:45:00 PM 13.49 56.282 0.105 7.83 5.18 10.84
10/27/2021 4:00:00 PM 13.48 56.264 0.105 7.81 5.62 10.73
10/27/2021 4:15:00 PM 13.48 56.264 0.105 7.78 5.92 10.66
10/27/2021 4:30:00 PM 13.49 56.282 0.105 7.75 5.06 10.57
10/27/2021 4:45:00 PM 13.48 56.264 0.105 7.72 5.7 10.47
10/27/2021 5:00:00 PM 13.47 56.246 0.105 7.68 5.52 10.36
10/27/2021 5:15:00 PM 13.46 56.228 0.105 7.64 5.88 10.26
10/27/2021 5:30:00 PM 13.46 56.228 0.105 7.61 5.73 10.16
10/27/2021 5:45:00 PM 13.46 56.228 0.105 7.59 5.83 10.1
10/27/2021 6:00:00 PM 13.46 56.228 0.105 7.57 5.93 10.03
10/27/2021 6:15:00 PM 13.44 56.192 0.105 7.54 5.56 9.98
10/27/2021 6:30:00 PM 13.42 56.156 0.105 7.52 6.06 9.9
10/27/2021 6:45:00 PM 13.39 56.102 0.105 7.5 5.87 9.86
10/27/2021 7:00:00 PM 13.36 56.048 0.106 7.49 7.34 9.81
10/27/2021 7:15:00 PM 13.32 55.976 0.106 7.47 4.44 9.78
10/27/2021 7:30:00 PM 13.27 55.886 0.106 7.46 4.45 9.74
10/27/2021 7:45:00 PM 13.22 55.796 0.106 7.45 4.32 9.71
10/27/2021 8:00:00 PM 13.17 55.706 0.106 7.44 4.44 9.71
10/27/2021 8:15:00 PM 13.12 55.616 0.106 7.43 4.57 9.7
10/27/2021 8:30:00 PM 13.06 55.508 0.106 7.42 4.47 9.71
10/27/2021 8:45:00 PM 13.01 55.418 0.106 7.42 4.48 9.7
10/27/2021 9:00:00 PM 12.95 55.31 0.106 7.41 4.43 9.6
10/27/2021 9:15:00 PM 12.89 55.202 0.107 7.4 4.37 9.68
10/27/2021 9:30:00 PM 12.83 55.094 0.107 7.4 4.44 9.7
10/27/2021 9:45:00 PM 12.77 54.986 0.107 7.4 4.4 9.7
10/27/2021 10:00:00 PM 12.7 54.86 0.107 7.39 4.48 9.72
10/27/2021 10:15:00 PM 12.62 54.716 0.107 7.39 4.4 9.72
10/27/2021 10:30:00 PM 12.56 54.608 0.107 7.38 4.35 9.73
10/27/2021 10:45:00 PM 12.49 54.482 0.107 7.38 4.37 9.75
10/27/2021 11:00:00 PM 12.41 54.338 0.107 7.38 4.45 9.76
10/27/2021 11:15:00 PM 12.34 54.212 0.107 7.38 4.38 9.77
10/27/2021 11:30:00 PM 12.27 54.086 0.107 7.38 4.34 9.79
10/27/2021 11:45:00 PM 12.21 53.978 0.107 7.37 4.37 9.8
10/28/2021 12:00:00 AM 12.15 53.87 0.107 7.37 4.52 9.78
10/28/2021 12:15:00 AM 12.08 53.744 0.108 7.37 4.44 9.84
10/28/2021 12:30:00 AM 12.02 53.636 0.108 7.37 4.44 9.8
10/28/2021 12:45:00 AM 11.97 53.546 0.108 7.37 4.48 9.85
10/28/2021 1:00:00 AM 11.9 53.42 0.108 7.37 4.54 9.87
10/28/2021 1:15:00 AM 11.84 53.312 0.108 7.37 4.38 9.87
10/28/2021 1:30:00 AM 11.78 53.204 0.108 7.37 4.44 9.92
10/28/2021 1:45:00 AM 11.73 53.114 0.108 7.36 4.35 9.93
10/28/2021 2:00:00 AM 11.67 53.006 0.108 7.36 4.4 9.93
10/28/2021 2:15:00 AM 11.62 52.916 0.108 7.36 4.33 9.95
10/28/2021 2:30:00 AM 11.56 52.808 0.108 7.36 4.36 9.97
10/28/2021 2:45:00 AM 11.51 52.718 0.108 7.36 4.49 9.95
10/28/2021 3:00:00 AM 11.45 52.61 0.108 7.36 4.34 10
10/28/2021 3:15:00 AM 11.39 52.502 0.108 7.36 4.33 10.03
10/28/2021 3:30:00 AM 11.33 52.394 0.108 7.36 4.45 9.99
10/28/2021 3:45:00 AM 11.28 52.304 0.108 7.36 4.27 10.06
10/28/2021 4:00:00 AM 11.22 52.196 0.108 7.36 4.29 10.05
10/28/2021 4:15:00 AM 11.17 52.106 0.108 7.36 4.35 10.06
10/28/2021 4:30:00 AM 11.11 51.998 0.108 7.36 4.4 10.07
10/28/2021 4:45:00 AM 11.05 51.89 0.108 7.35 4.25 10.1
10/28/2021 5:00:00 AM 10.99 51.782 0.108 7.35 4.23 10.1
10/28/2021 5:15:00 AM 10.94 51.692 0.108 7.35 4.27 10.1
10/28/2021 5:30:00 AM 10.87 51.566 0.108 7.35 4.24 10.16
10/28/2021 5:45:00 AM 10.82 51.476 0.108 7.35 4.32 10.18
10/28/2021 6:00:00 AM 10.76 51.368 0.108 7.35 4.88 10.19
10/28/2021 6:15:00 AM 10.7 51.26 0.108 7.35 4.32 10.17
10/28/2021 6:30:00 AM 10.65 51.17 0.108 7.35 4.38 10.22
10/28/2021 6:45:00 AM 10.59 51.062 0.108 7.35 4.35 10.24
10/28/2021 7:00:00 AM 10.53 50.954 0.108 7.35 4.34 10.25
10/28/2021 7:15:00 AM 10.48 50.864 0.096 7.35 4.17 10.22
10/28/2021 7:30:00 AM 10.43 50.774 0.109 7.35 4.19 10.28
10/28/2021 7:45:00 AM 10.38 50.684 0.109 7.35 4.27 10.27
10/28/2021 8:00:00 AM 10.33 50.594 0.109 7.35 4.12 10.32
10/28/2021 8:15:00 AM 10.29 50.522 0.109 7.36 4.21 10.4
10/28/2021 8:30:00 AM 10.25 50.45 0.109 7.37 4.17 10.44
10/28/2021 8:45:00 AM 10.22 50.396 0.108 7.39 4.03 10.58
10/28/2021 9:00:00 AM 10.2 50.36 0.108 7.4 4.1 10.68
10/28/2021 9:15:00 AM 10.2 50.36 0.108 7.42 4.24 10.78
10/28/2021 9:30:00 AM 10.2 50.36 0.108 7.44 4.09 10.85
10/28/2021 9:45:00 AM 10.21 50.378 0.108 7.46 4.03 10.91
10/28/2021 10:00:00 AM 10.22 50.396 0.108 7.48 4.06 10.93
10/28/2021 10:15:00 AM 10.25 50.45 0.108 7.5 3.94 11.1
10/28/2021 10:30:00 AM 10.28 50.504 0.108 7.53 4 11.16
10/28/2021 10:45:00 AM 10.32 50.576 0.108 7.55 4.16 11.23
10/28/2021 11:00:00 AM 10.39 50.702 0.108 7.58 3.8 11.32
10/28/2021 11:15:00 AM 10.47 50.846 0.108 7.61 4 11.41
10/28/2021 11:30:00 AM 10.56 51.008 0.108 7.63 3.92 11.47
10/28/2021 11:45:00 AM 10.66 51.188 0.108 7.67 4.04 11.53
10/28/2021 12:00:00 PM 10.78 51.404 0.107 7.7 3.95 11.61
10/28/2021 12:15:00 PM 10.9 51.62 0.107 7.73 3.95 11.64
10/28/2021 12:30:00 PM 11.01 51.818 0.107 7.76 3.97 11.66
10/28/2021 12:45:00 PM 11.11 51.998 0.107 7.79 4.28 11.68
10/28/2021 1:00:00 PM 11.24 52.232 0.107 7.82 3.85 11.73
10/28/2021 1:15:00 PM 11.34 52.412 0.107 7.85 4.01 11.76
10/28/2021 1:30:00 PM 11.4 52.52 0.107 7.88 3.89 11.78
10/28/2021 1:45:00 PM 11.48 52.664 0.107 7.91 3.95 11.75
10/28/2021 2:00:00 PM 11.56 52.808 0.107 7.93 3.93 11.77
10/28/2021 2:15:00 PM 11.63 52.934 0.107 7.95 4.65 11.72
10/28/2021 2:30:00 PM 11.7 53.06 0.107 7.97 4.19 11.67
10/28/2021 2:45:00 PM 11.79 53.222 0.107 7.99 3.94 11.72
10/28/2021 3:00:00 PM 11.86 53.348 0.107 8 3.92 11.67
10/28/2021 3:15:00 PM 11.9 53.42 0.106 8 3.98 11.62
10/28/2021 3:30:00 PM 11.94 53.492 0.106 7.98 4.43 11.57
10/28/2021 3:45:00 PM 11.96 53.528 0.106 7.96 3.99 11.48
10/28/2021 4:00:00 PM 11.98 53.564 0.104 7.93 5.75 11.37
10/28/2021 4:15:00 PM 12 53.6 0.106 7.9 4.8 11.25
10/28/2021 4:30:00 PM 12.04 53.672 0.106 7.87 4.29 11.22
10/28/2021 4:45:00 PM 12.1 53.78 0.106 7.88 4.12 11.25
10/28/2021 5:00:00 PM 12.13 53.834 0.105 7.85 4.25 11.12
10/28/2021 5:15:00 PM 12.13 53.834 0.105 7.8 4.3 10.96
10/28/2021 5:30:00 PM 12.13 53.834 0.106 7.73 4.2 10.77
10/28/2021 5:45:00 PM 12.12 53.816 0.106 7.68 4.19 10.66
10/28/2021 6:00:00 PM 12.12 53.816 0.106 7.64 4.36 10.59
10/28/2021 6:15:00 PM 12.11 53.798 0.106 7.6 3.9 10.47
10/28/2021 6:30:00 PM 12.09 53.762 0.106 7.56 3.95 10.38
10/28/2021 6:45:00 PM 12.08 53.744 0.106 7.54 3.92 10.31
10/28/2021 7:00:00 PM 12.06 53.708 0.106 7.51 3.61 10.24
10/28/2021 7:15:00 PM 12.05 53.69 0.106 7.49 3.66 10.19
10/28/2021 7:30:00 PM 12.02 53.636 0.106 7.47 3.64 10.15
10/28/2021 7:45:00 PM 11.99 53.582 0.106 7.45 3.62 10.11
10/28/2021 8:00:00 PM 11.95 53.51 0.106 7.44 3.71 10.08
10/28/2021 8:15:00 PM 11.92 53.456 0.106 7.43 3.92 10.05
10/28/2021 8:30:00 PM 11.88 53.384 0.107 7.42 3.77 10.04
10/28/2021 8:45:00 PM 11.85 53.33 0.107 7.4 3.65 10.02
10/28/2021 9:00:00 PM 11.81 53.258 0.107 7.4 3.67 10.01
10/28/2021 9:15:00 PM 11.77 53.186 0.107 7.39 3.65 9.97
10/28/2021 9:30:00 PM 11.73 53.114 0.107 7.38 3.66 9.98
10/28/2021 9:45:00 PM 11.69 53.042 0.107 7.38 3.56 9.96
10/28/2021 10:00:00 PM 11.65 52.97 0.107 7.37 3.68 9.89
10/28/2021 10:15:00 PM 11.6 52.88 0.107 7.37 3.76 10
10/28/2021 10:30:00 PM 11.56 52.808 0.107 7.36 3.9 9.98
10/28/2021 10:45:00 PM 11.53 52.754 0.107 7.36 3.57 10
10/28/2021 11:00:00 PM 11.5 52.7 0.107 7.35 3.8 10.01
10/28/2021 11:15:00 PM 11.47 52.646 0.107 7.35 3.66 10.01
10/28/2021 11:30:00 PM 11.45 52.61 0.106 7.35 6.4 9.99
10/28/2021 11:45:00 PM 11.42 52.556 0.107 7.35 3.66 10.01
10/29/2021 12:00:00 AM 11.41 52.538 0.107 7.34 3.41 9.97
10/29/2021 12:15:00 AM 11.39 52.502 0.107 7.34 3.72 10.03
10/29/2021 12:30:00 AM 11.38 52.484 0.108 7.34 3.71 10.02
10/29/2021 12:45:00 AM 11.37 52.466 0.108 7.35 3.58 10.04
10/29/2021 1:00:00 AM 11.36 52.448 0.108 7.35 3.63 10.03
10/29/2021 1:15:00 AM 11.35 52.43 0.107 7.35 3.66 10.01
10/29/2021 1:30:00 AM 11.35 52.43 0.105 7.35 3.47 10.06
10/29/2021 1:45:00 AM 11.34 52.412 0.104 7.35 3.48 10.05
10/29/2021 2:00:00 AM 11.33 52.394 0.104 7.35 3.45 10.04
10/29/2021 2:15:00 AM 11.33 52.394 0.103 7.35 3.47 10.07
10/29/2021 2:30:00 AM 11.32 52.376 0.104 7.35 3.41 10.05
10/29/2021 2:45:00 AM 11.32 52.376 0.107 7.35 3.56 10.01
10/29/2021 3:00:00 AM 11.31 52.358 0.108 7.35 3.48 10.06
10/29/2021 3:15:00 AM 11.3 52.34 0.108 7.35 3.54 10.08
10/29/2021 3:30:00 AM 11.3 52.34 0.108 7.35 3.56 10.05
10/29/2021 3:45:00 AM 11.29 52.322 0.108 7.35 3.63 10.07
10/29/2021 4:00:00 AM 11.28 52.304 0.108 7.35 3.49 10.06
10/29/2021 4:15:00 AM 11.28 52.304 0.108 7.35 3.55 10.06
10/29/2021 4:30:00 AM 11.27 52.286 0.108 7.35 3.63 10.04
10/29/2021 4:45:00 AM 11.26 52.268 0.108 7.35 3.62 10.06
10/29/2021 5:00:00 AM 11.25 52.25 0.108 7.35 3.5 10.07
10/29/2021 5:15:00 AM 11.24 52.232 0.108 7.35 3.67 10.08
10/29/2021 5:30:00 AM 11.23 52.214 0.108 7.35 3.63 10.02
10/29/2021 5:45:00 AM 11.22 52.196 0.108 7.35 6.18 10.06
10/29/2021 6:00:00 AM 11.22 52.196 0.108 7.35 3.61 9.96
10/29/2021 6:15:00 AM 11.21 52.178 0.108 7.35 3.55 10.06
10/29/2021 6:30:00 AM 11.2 52.16 0.108 7.34 3.58 10.06
10/29/2021 6:45:00 AM 11.19 52.142 0.108 7.35 3.56 10.08
10/29/2021 7:00:00 AM 11.18 52.124 0.108 7.35 3.68 10.08
10/29/2021 7:15:00 AM 11.17 52.106 0.108 7.34 3.67 10.07
10/29/2021 7:30:00 AM 11.16 52.088 0.108 7.35 3.53 10.08
10/29/2021 7:45:00 AM 11.15 52.07 0.108 7.35 3.55 9.99
10/29/2021 8:00:00 AM 11.14 52.052 0.108 7.35 3.69 10.1
10/29/2021 8:15:00 AM 11.13 52.034 0.108 7.36 3.51 10.11
10/29/2021 8:30:00 AM 11.12 52.016 0.108 7.36 3.59 10.12
10/29/2021 8:45:00 AM 11.11 51.998 0.108 7.37 3.68 10.21
10/29/2021 9:00:00 AM 11.1 51.98 0.108 7.38 3.56 10.23
10/29/2021 9:15:00 AM 11.11 51.998 0.108 7.4 3.6 10.34
10/29/2021 9:30:00 AM 11.13 52.034 0.108 7.44 3.65 10.54
10/29/2021 9:45:00 AM 11.16 52.088 0.108 7.48 3.52 10.75
10/29/2021 10:00:00 AM 11.18 52.124 0.107 7.52 3.48 10.88
10/29/2021 10:15:00 AM 11.19 52.142 0.107 7.56 3.59 10.97
10/29/2021 10:30:00 AM 11.25 52.25 0.107 7.6 3.58 11.09
10/29/2021 10:45:00 AM 11.28 52.304 0.107 7.65 3.58 11.25
10/29/2021 11:00:00 AM 11.28 52.304 0.107 7.68 3.65 11.27
10/29/2021 11:15:00 AM 11.3 52.34 0.107 7.7 3.58 11.28
10/29/2021 11:30:00 AM 11.32 52.376 0.107 7.72 3.63 11.22
10/29/2021 11:45:00 AM 11.33 52.394 0.107 7.73 3.64 11.3
10/29/2021 12:00:00 PM 11.36 52.448 0.107 7.76 3.43 11.35
10/29/2021 12:15:00 PM 11.4 52.52 0.106 7.8 3.41 11.43
10/29/2021 12:30:00 PM 11.4 52.52 0.106 7.82 3.66 11.43
10/29/2021 12:45:00 PM 11.44 52.592 0.106 7.86 3.58 11.49
10/29/2021 1:00:00 PM 11.46 52.628 0.106 7.88 3.61 11.49
10/29/2021 1:15:00 PM 11.45 52.61 0.106 7.86 3.55 11.37
10/29/2021 1:30:00 PM 11.44 52.592 0.106 7.83 3.61 11.28
10/29/2021 1:45:00 PM 11.44 52.592 0.106 7.79 3.45 11.16
10/29/2021 2:00:00 PM 11.44 52.592 0.106 7.76 3.62 11.1
10/29/2021 2:15:00 PM 11.45 52.61 0.106 7.75 3.5 11.09
10/29/2021 2:30:00 PM 11.46 52.628 0.106 7.75 3.57 11.09
10/29/2021 2:45:00 PM 11.47 52.646 0.106 7.74 3.52 10.99
10/29/2021 3:00:00 PM 11.47 52.646 0.106 7.74 3.66 11.03
10/29/2021 3:15:00 PM 11.47 52.646 0.106 7.73 3.66 11.01
10/29/2021 3:30:00 PM 11.46 52.628 0.106 7.71 3.61 10.91
10/29/2021 3:45:00 PM 11.45 52.61 0.106 7.68 3.47 10.85
10/29/2021 4:00:00 PM 11.44 52.592 0.105 7.68 4.04 10.85
10/29/2021 4:15:00 PM 11.42 52.556 0.105 7.65 3.68 10.77
10/29/2021 4:30:00 PM 11.41 52.538 0.105 7.63 3.87 10.69
10/29/2021 4:45:00 PM 11.4 52.52 0.105 7.62 3.7 10.68
10/29/2021 5:00:00 PM 11.37 52.466 0.105 7.59 3.94 10.59
10/29/2021 5:15:00 PM 11.35 52.43 0.104 7.56 3.79 10.49
10/29/2021 5:30:00 PM 11.32 52.376 0.104 7.53 4 10.43
10/29/2021 5:45:00 PM 11.3 52.34 0.104 7.51 3.82 10.35
10/29/2021 6:00:00 PM 11.27 52.286 0.103 7.49 4.2 10.3
10/29/2021 6:15:00 PM 11.25 52.25 0.103 7.46 4.32 10.26
10/29/2021 6:30:00 PM 11.24 52.232 0.104 7.44 5.12 10.19
10/29/2021 6:45:00 PM 11.22 52.196 0.105 7.42 5.36 10.18
10/29/2021 7:00:00 PM 11.18 52.124 0.106 7.41 7.93 10.17
10/29/2021 7:15:00 PM 11.14 52.052 0.108 7.41 15.13 10.12
10/29/2021 7:30:00 PM 11.11 51.998 0.109 7.42 25.49 10.15
10/29/2021 7:45:00 PM 11.09 51.962 0.108 7.42 48.88 10.17
10/29/2021 8:00:00 PM 11.05 51.89 0.108 7.42 83.49 10.19
10/29/2021 8:15:00 PM 11.02 51.836 0.109 7.43 118.69 10.24
10/29/2021 8:30:00 PM 10.99 51.782 0.106 7.41 145.85 10.24
10/29/2021 8:45:00 PM 10.97 51.746 0.106 7.39 165.56 10.22
10/29/2021 9:00:00 PM 10.96 51.728 0.104 7.34 180.72 10.21
10/29/2021 9:15:00 PM 10.96 51.728 0.099 7.33 195.77 10.23
10/29/2021 9:30:00 PM 10.96 51.728 0.098 7.32 199 10.22
10/29/2021 9:45:00 PM 10.96 51.728 0.102 7.3 166.25 10.22
10/29/2021 10:00:00 PM 10.95 51.71 0.099 7.26 139.4 10.22
10/29/2021 10:15:00 PM 10.95 51.71 0.101 7.26 108.76 10.18
10/29/2021 10:30:00 PM 10.95 51.71 0.1 7.24 99.31 10.18
10/29/2021 10:45:00 PM 10.94 51.692 0.093 7.2 103.07 10.2
10/29/2021 11:00:00 PM 10.93 51.674 0.082 7.13 99.16 10.18
10/29/2021 11:15:00 PM 10.91 51.638 0.077 7.12 96.48 10.17
10/29/2021 11:30:00 PM 10.88 51.584 0.088 7.15 98.52 10.19
10/29/2021 11:45:00 PM 10.86 51.548 0.087 7.18 102.54 10.25
10/30/2021 12:00:00 AM 10.85 51.53 0.086 7.22 98.77 10.3
10/30/2021 12:15:00 AM 10.85 51.53 0.086 7.23 103.07 10.31
10/30/2021 12:30:00 AM 10.84 51.512 0.086 7.23 94.28 10.3
10/30/2021 12:45:00 AM 10.84 51.512 0.086 7.23 97.55 10.31
10/30/2021 1:00:00 AM 10.85 51.53 0.086 7.22 96.84 10.31
10/30/2021 1:15:00 AM 10.85 51.53 0.085 7.21 94.33 10.31
10/30/2021 1:30:00 AM 10.86 51.548 0.084 7.19 90.57 10.3
10/30/2021 1:45:00 AM 10.87 51.566 0.084 7.2 86.71 10.29
10/30/2021 2:00:00 AM 10.88 51.584 0.084 7.2 77.57 10.28
10/30/2021 2:15:00 AM 10.89 51.602 0.083 7.19 70.11 10.28
10/30/2021 2:30:00 AM 10.9 51.62 0.083 7.18 67.09 10.29
10/30/2021 2:45:00 AM 10.92 51.656 0.083 7.17 61.86 10.28
10/30/2021 3:00:00 AM 10.93 51.674 0.083 7.16 57.46 10.27
10/30/2021 3:15:00 AM 10.94 51.692 0.084 7.16 54.24 10.27
10/30/2021 3:30:00 AM 10.95 51.71 0.084 7.16 51.81 10.27
10/30/2021 3:45:00 AM 10.97 51.746 0.084 7.15 48.83 10.27
10/30/2021 4:00:00 AM 10.98 51.764 0.084 7.15 45.58 10.26
10/30/2021 4:15:00 AM 11 51.8 0.084 7.14 43.66 10.25
10/30/2021 4:30:00 AM 11.02 51.836 0.085 7.14 41.34 10.25
10/30/2021 4:45:00 AM 11.03 51.854 0.085 7.14 39.97 10.25
10/30/2021 5:00:00 AM 11.04 51.872 0.085 7.14 38.52 10.25
10/30/2021 5:15:00 AM 11.06 51.908 0.085 7.14 38.34 10.25
10/30/2021 5:30:00 AM 11.07 51.926 0.086 7.14 34.92 10.24
10/30/2021 5:45:00 AM 11.08 51.944 0.086 7.15 33.96 10.25
10/30/2021 6:00:00 AM 11.1 51.98 0.086 7.15 33.54 10.25
10/30/2021 6:15:00 AM 11.11 51.998 0.086 7.15 32.47 10.24
10/30/2021 6:30:00 AM 11.12 52.016 0.087 7.15 32.26 10.24
10/30/2021 6:45:00 AM 11.14 52.052 0.087 7.16 31.14 10.24
10/30/2021 7:00:00 AM 11.15 52.07 0.087 7.16 31.66 10.24
10/30/2021 7:15:00 AM 11.17 52.106 0.087 7.15 30.56 10.25
10/30/2021 7:30:00 AM 11.18 52.124 0.087 7.15 30.87 10.26
10/30/2021 7:45:00 AM 11.2 52.16 0.087 7.15 30.06 10.24
10/30/2021 8:00:00 AM 11.21 52.178 0.088 7.14 30.31 10.24
10/30/2021 8:15:00 AM 11.22 52.196 0.088 7.13 30.09 10.25
10/30/2021 8:30:00 AM 11.24 52.232 0.088 7.13 43.01 10.23
10/30/2021 8:45:00 AM 11.26 52.268 0.078 7.13 29.82 10.24
10/30/2021 9:00:00 AM 11.28 52.304 0.088 7.13 27.02 10.25
10/30/2021 9:15:00 AM 11.3 52.34 0.088 7.13 27.57 10.24
10/30/2021 9:30:00 AM 11.32 52.376 0.088 7.12 26.83 10.25
10/30/2021 9:45:00 AM 11.35 52.43 0.088 7.13 27.41 10.24
10/30/2021 10:00:00 AM 11.37 52.466 0.062 7.13 27.75 10.25
10/30/2021 10:15:00 AM 11.4 52.52 0.088 7.13 27 10.26
10/30/2021 10:30:00 AM 11.42 52.556 0.088 7.13 26.78 10.26
10/30/2021 10:45:00 AM 11.45 52.61 0.088 7.14 26.8 10.26
10/30/2021 11:00:00 AM 11.49 52.682 0.088 7.14 23.96 10.27
10/30/2021 11:15:00 AM 11.52 52.736 0.088 7.14 26.9 10.27
10/30/2021 11:30:00 AM 11.55 52.79 0.088 7.15 27.36 10.26
10/30/2021 11:45:00 AM 11.58 52.844 0.088 7.15 28.38 10.27
10/30/2021 12:00:00 PM 11.61 52.898 0.088 7.15 26.43 10.26
10/30/2021 12:15:00 PM 11.65 52.97 0.088 7.15 28.17 10.27
10/30/2021 12:30:00 PM 11.68 53.024 0.088 7.15 29.57 10.26
10/30/2021 12:45:00 PM 11.71 53.078 0.088 7.15 28.6 10.25
10/30/2021 1:00:00 PM 11.74 53.132 0.088 7.15 28.11 10.25
10/30/2021 1:15:00 PM 11.77 53.186 0.088 7.16 30.05 10.25
10/30/2021 1:30:00 PM 11.8 53.24 0.088 7.16 31.17 10.23
10/30/2021 1:45:00 PM 11.83 53.294 0.088 7.16 28.99 10.23
10/30/2021 2:00:00 PM 11.87 53.366 0.088 7.16 31.84 10.22
10/30/2021 2:15:00 PM 11.92 53.456 0.088 7.16 34.19 10.21
10/30/2021 2:30:00 PM 11.97 53.546 0.089 7.16 37.3 10.18
10/30/2021 2:45:00 PM 12.01 53.618 0.089 7.15 39.07 10.17
10/30/2021 3:00:00 PM 12.04 53.672 0.089 7.15 45.55 10.15
10/30/2021 3:15:00 PM 12.06 53.708 0.086 7.15 43.13 10.14
10/30/2021 3:30:00 PM 12.09 53.762 0.087 7.15 133.8 10.12
10/30/2021 3:45:00 PM 12.12 53.816 0.088 7.15 41.14 10.12
10/30/2021 4:00:00 PM 12.15 53.87 0.088 7.15 39.79 10.11
10/30/2021 4:15:00 PM 12.16 53.888 0.088 7.15 40.13 10.11
10/30/2021 4:30:00 PM 12.18 53.924 0.087 7.14 40.68 10.09
10/30/2021 4:45:00 PM 12.2 53.96 0.087 7.13 71.66 10.07
10/30/2021 5:00:00 PM 12.23 54.014 0.087 7.14 39.26 10.06
10/30/2021 5:15:00 PM 12.25 54.05 0.087 7.13 38.63 10.03
10/30/2021 5:30:00 PM 12.26 54.068 0.088 7.12 38.74 10.01
10/30/2021 5:45:00 PM 12.27 54.086 0.088 7.12 39.85 9.99
10/30/2021 6:00:00 PM 12.27 54.086 0.084 7.12 42.53 9.97
10/30/2021 6:15:00 PM 12.27 54.086 0.087 7.1 39.68 9.97
10/30/2021 6:30:00 PM 12.26 54.068 0.087 7.09 42.45 9.97
10/30/2021 6:45:00 PM 12.25 54.05 0.088 7.09 38.11 9.96
10/30/2021 7:00:00 PM 12.25 54.05 0.088 7.09 38.2 9.97
10/30/2021 7:15:00 PM 12.23 54.014 0.088 7.1 35.78 9.96
10/30/2021 7:30:00 PM 12.22 53.996 0.088 7.09 37.52 9.97
10/30/2021 7:45:00 PM 12.21 53.978 0.088 7.08 35.4 9.97
10/30/2021 8:00:00 PM 12.19 53.942 0.088 7.09 35.78 9.98
10/30/2021 8:15:00 PM 12.18 53.924 0.087 7.09 35.69 9.99
10/30/2021 8:30:00 PM 12.15 53.87 0.087 7.09 35.5 9.99
10/30/2021 8:45:00 PM 12.13 53.834 0.087 7.1 35.29 9.99
10/30/2021 9:00:00 PM 12.11 53.798 0.087 7.1 35.02 10.01
10/30/2021 9:15:00 PM 12.09 53.762 0.087 7.1 36.3 10.01
10/30/2021 9:30:00 PM 12.07 53.726 0.087 7.1 35.57 10.01
10/30/2021 9:45:00 PM 12.06 53.708 0.087 7.1 34.75 10.02
10/30/2021 10:00:00 PM 12.04 53.672 0.087 7.1 35.12 10.03
10/30/2021 10:15:00 PM 12.02 53.636 0.087 7.1 33.85 10.04
10/30/2021 10:30:00 PM 12 53.6 0.087 7.1 34.66 10.04
10/30/2021 10:45:00 PM 11.97 53.546 0.087 7.1 34.87 10.06
10/30/2021 11:00:00 PM 11.95 53.51 0.087 7.1 35.01 10.07
10/30/2021 11:15:00 PM 11.93 53.474 0.087 7.1 36.72 10.08
10/30/2021 11:30:00 PM 11.91 53.438 0.087 7.1 35.69 10.08
10/30/2021 11:45:00 PM 11.89 53.402 0.087 7.1 31.03 10.09
10/31/2021 12:00:00 AM 11.87 53.366 0.087 7.1 31.31 10.08
10/31/2021 12:15:00 AM 11.86 53.348 0.087 7.1 31.81 10.09
10/31/2021 12:30:00 AM 11.84 53.312 0.087 7.1 29.74 10.1
10/31/2021 12:45:00 AM 11.83 53.294 0.087 7.1 31.56 10.1
10/31/2021 1:00:00 AM 11.81 53.258 0.087 7.1 30.6 10.11
10/31/2021 1:15:00 AM 11.79 53.222 0.087 7.1 32.11 10.09
10/31/2021 1:30:00 AM 11.77 53.186 0.087 7.1 33.2 10.1
10/31/2021 1:45:00 AM 11.75 53.15 0.087 7.1 34.15 10.1
10/31/2021 2:00:00 AM 11.73 53.114 0.087 7.1 34.34 10.11
10/31/2021 2:15:00 AM 11.71 53.078 0.088 7.11 33.89 10.11
10/31/2021 2:30:00 AM 11.68 53.024 0.088 7.1 34.22 10.12
10/31/2021 2:45:00 AM 11.66 52.988 0.088 7.1 34.81 10.13
10/31/2021 3:00:00 AM 11.64 52.952 0.088 7.1 35.2 10.14
10/31/2021 3:15:00 AM 11.62 52.916 0.088 7.11 34.04 10.13
10/31/2021 3:30:00 AM 11.59 52.862 0.088 7.11 34.54 10.14
10/31/2021 3:45:00 AM 11.57 52.826 0.088 7.11 35.64 10.14
10/31/2021 4:00:00 AM 11.55 52.79 0.088 7.11 37.28 10.15
10/31/2021 4:15:00 AM 11.53 52.754 0.088 7.11 34.69 10.16
10/31/2021 4:30:00 AM 11.5 52.7 0.088 7.11 35.84 10.17
10/31/2021 4:45:00 AM 11.48 52.664 0.088 7.12 32.27 10.16
10/31/2021 5:00:00 AM 11.46 52.628 0.088 7.12 32.34 10.17
10/31/2021 5:15:00 AM 11.45 52.61 0.088 7.11 32.29 10.18
10/31/2021 5:30:00 AM 11.43 52.574 0.088 7.11 33.83 10.19
10/31/2021 5:45:00 AM 11.41 52.538 0.088 7.11 32.43 10.2
10/31/2021 6:00:00 AM 11.39 52.502 0.088 7.11 32.11 10.21
10/31/2021 6:15:00 AM 11.38 52.484 0.088 7.11 32.77 10.2
10/31/2021 6:30:00 AM 11.36 52.448 0.088 7.1 33.1 10.21
10/31/2021 6:45:00 AM 11.35 52.43 0.088 7.11 33.86 10.22
10/31/2021 7:00:00 AM 11.34 52.412 0.088 7.11 33.31 10.21
10/31/2021 7:15:00 AM 11.32 52.376 0.088 7.11 34.06 10.23
10/31/2021 7:30:00 AM 11.31 52.358 0.088 7.11 34.92 10.24
10/31/2021 7:45:00 AM 11.3 52.34 0.088 7.11 33.97 10.24
10/31/2021 8:00:00 AM 11.3 52.34 0.088 7.11 34.39 10.24
10/31/2021 8:15:00 AM 11.29 52.322 0.088 7.11 35.41 10.25
10/31/2021 8:30:00 AM 11.29 52.322 0.088 7.11 36.16 10.26
10/31/2021 8:45:00 AM 11.29 52.322 0.087 7.11 33.96 10.26
10/31/2021 9:00:00 AM 11.29 52.322 0.087 7.11 36 10.28
10/31/2021 9:15:00 AM 11.3 52.34 0.087 7.11 34.24 10.29
10/31/2021 9:30:00 AM 11.3 52.34 0.087 7.12 37.99 10.3
10/31/2021 9:45:00 AM 11.32 52.376 0.087 7.12 37.07 10.32
10/31/2021 10:00:00 AM 11.34 52.412 0.087 7.13 39.62 10.32
10/31/2021 10:15:00 AM 11.36 52.448 0.087 7.13 38.17 10.34
10/31/2021 10:30:00 AM 11.39 52.502 0.087 7.14 39.02 10.36
10/31/2021 10:45:00 AM 11.42 52.556 0.088 7.14 39.11 10.35
10/31/2021 11:00:00 AM 11.45 52.61 0.088 7.14 39.48 10.36
10/31/2021 11:15:00 AM 11.49 52.682 0.088 7.15 40.27 10.37
10/31/2021 11:30:00 AM 11.54 52.772 0.088 7.15 42.41 10.41
10/31/2021 11:45:00 AM 11.6 52.88 0.088 7.16 40.24 10.43
10/31/2021 12:00:00 PM 11.65 52.97 0.088 7.17 41.01 10.42
10/31/2021 12:15:00 PM 11.73 53.114 0.088 7.18 42.28 10.44
10/31/2021 12:30:00 PM 11.8 53.24 0.087 7.19 36.71 10.46
10/31/2021 12:45:00 PM 11.83 53.294 0.087 7.2 39.61 10.44
10/31/2021 1:00:00 PM 11.87 53.366 0.087 7.2 42.96 10.41
10/31/2021 1:15:00 PM 11.89 53.402 0.087 7.2 42.64 10.42
10/31/2021 1:30:00 PM 11.96 53.528 0.087 7.21 42.66 10.45
10/31/2021 1:45:00 PM 12 53.6 0.087 7.21 43.51 10.45
10/31/2021 2:00:00 PM 12.05 53.69 0.087 7.22 44.75 10.43
10/31/2021 2:15:00 PM 12.09 53.762 0.087 7.22 43.2 10.41
10/31/2021 2:30:00 PM 12.11 53.798 0.086 7.22 42.37 10.38
10/31/2021 2:45:00 PM 12.15 53.87 0.086 7.22 41.61 10.4
10/31/2021 3:00:00 PM 12.2 53.96 0.086 7.22 44.75 10.38
10/31/2021 3:15:00 PM 12.25 54.05 0.086 7.22 45.25 10.36
10/31/2021 3:30:00 PM 12.29 54.122 0.086 7.22 45.13 10.34
10/31/2021 3:45:00 PM 12.33 54.194 0.086 7.23 44.22 10.33
10/31/2021 4:00:00 PM 12.35 54.23 0.086 7.23 44.01 10.33
10/31/2021 4:15:00 PM 12.37 54.266 0.086 7.23 56.03 10.31
10/31/2021 4:30:00 PM 12.38 54.284 0.086 7.23 50.51 10.28
10/31/2021 4:45:00 PM 12.39 54.302 0.086 7.23 64.91 10.25
10/31/2021 5:00:00 PM 12.39 54.302 0.086 7.23 76.41 10.23
10/31/2021 5:15:00 PM 12.39 54.302 0.086 7.22 83.05 10.22
10/31/2021 5:30:00 PM 12.39 54.302 0.086 7.22 56.03 10.2
10/31/2021 5:45:00 PM 12.39 54.302 0.086 7.21 47.69 10.16
10/31/2021 6:00:00 PM 12.38 54.284 0.086 7.2 46.86 10.13
10/31/2021 6:15:00 PM 12.37 54.266 0.086 7.19 48.56 10.11
10/31/2021 6:30:00 PM 12.36 54.248 0.086 7.19 47.5 10.09
10/31/2021 6:45:00 PM 12.34 54.212 0.086 7.18 48.61 10.07
10/31/2021 7:00:00 PM 12.33 54.194 0.086 7.18 48.76 10.07
10/31/2021 7:15:00 PM 12.3 54.14 0.086 7.17 47.88 10.06
10/31/2021 7:30:00 PM 12.28 54.104 0.086 7.17 48.13 10.06
10/31/2021 7:45:00 PM 12.25 54.05 0.086 7.16 50.07 10.06
10/31/2021 8:00:00 PM 12.22 53.996 0.086 7.16 49.46 10.07
10/31/2021 8:15:00 PM 12.18 53.924 0.086 7.15 50.2 10.07
10/31/2021 8:30:00 PM 12.15 53.87 0.086 7.15 54.24 10.08
10/31/2021 8:45:00 PM 12.11 53.798 0.086 7.15 52.37 10.09
10/31/2021 9:00:00 PM 12.08 53.744 0.086 7.15 51.67 10.09
10/31/2021 9:15:00 PM 12.05 53.69 0.086 7.14 49.29 10.11
10/31/2021 9:30:00 PM 12.02 53.636 0.086 7.14 51.01 10.11
10/31/2021 9:45:00 PM 11.99 53.582 0.086 7.14 49.24 10.11
10/31/2021 10:00:00 PM 11.95 53.51 0.086 7.14 50.8 10.12
10/31/2021 10:15:00 PM 11.91 53.438 0.086 7.14 52.04 10.13
10/31/2021 10:30:00 PM 11.87 53.366 0.086 7.14 51.26 10.14
10/31/2021 10:45:00 PM 11.83 53.294 0.086 7.13 51.1 10.15
10/31/2021 11:00:00 PM 11.79 53.222 0.086 7.13 52.48 10.16
10/31/2021 11:15:00 PM 11.74 53.132 0.086 7.13 52.43 10.18
10/31/2021 11:30:00 PM 11.7 53.06 0.086 7.13 51.36 10.19
10/31/2021 11:45:00 PM 11.65 52.97 0.086 7.13 51.64 10.19
11/1/2021 12:00:00 AM 11.61 52.898 0.086 7.13 52.99 10.21
11/1/2021 12:15:00 AM 11.56 52.808 0.086 7.13 52.53 10.22
11/1/2021 12:30:00 AM 11.52 52.736 0.086 7.13 52.65 10.23
11/1/2021 12:45:00 AM 11.48 52.664 0.086 7.13 51.53 10.24
11/1/2021 1:00:00 AM 11.43 52.574 0.086 7.13 56.31 10.25
11/1/2021 1:15:00 AM 11.38 52.484 0.086 7.13 54.33 10.27
11/1/2021 1:30:00 AM 11.33 52.394 0.086 7.13 53.91 10.29
11/1/2021 1:45:00 AM 11.28 52.304 0.086 7.13 55.92 10.3
11/1/2021 2:00:00 AM 11.24 52.232 0.086 7.14 55.4 10.31
11/1/2021 2:15:00 AM 11.19 52.142 0.086 7.13 57.82 10.32
11/1/2021 2:30:00 AM 11.14 52.052 0.086 7.14 55.91 10.32
11/1/2021 2:45:00 AM 11.1 51.98 0.086 7.13 55.76 10.33
11/1/2021 3:00:00 AM 11.05 51.89 0.086 7.13 54.97 10.35
11/1/2021 3:15:00 AM 11.01 51.818 0.087 7.13 54.25 10.36
11/1/2021 3:30:00 AM 10.97 51.746 0.086 7.13 55.17 10.38
11/1/2021 3:45:00 AM 10.93 51.674 0.087 7.13 55.72 10.39
11/1/2021 4:00:00 AM 10.9 51.62 0.087 7.13 54.1 10.4
11/1/2021 4:15:00 AM 10.86 51.548 0.087 7.13 54.8 10.41
11/1/2021 4:30:00 AM 10.84 51.512 0.087 7.13 55.62 10.42
11/1/2021 4:45:00 AM 10.81 51.458 0.087 7.13 58.63 10.43
11/1/2021 5:00:00 AM 10.79 51.422 0.086 7.13 52.54 10.42
11/1/2021 5:15:00 AM 10.77 51.386 0.086 7.13 54.03 10.46
11/1/2021 5:30:00 AM 10.76 51.368 0.087 7.13 51.14 10.46
11/1/2021 5:45:00 AM 10.74 51.332 0.087 7.13 46.4 10.48
11/1/2021 6:00:00 AM 10.73 51.314 0.086 7.14 52.11 10.48
11/1/2021 6:15:00 AM 10.72 51.296 0.085 7.14 45.48 10.49
11/1/2021 6:30:00 AM 10.7 51.26 0.085 7.14 47.23 10.49
11/1/2021 6:45:00 AM 10.68 51.224 0.085 7.15 45.53 10.5
11/1/2021 7:00:00 AM 10.66 51.188 0.085 7.15 47.53 10.5
11/1/2021 7:15:00 AM 10.66 51.188 0.086 7.15 45.39 10.52
11/1/2021 7:30:00 AM 10.64 51.152 0.086 7.15 46 10.52
11/1/2021 7:45:00 AM 10.63 51.134 0.086 7.15 46.15 10.53
11/1/2021 8:00:00 AM 10.61 51.098 0.086 7.15 46.45 10.54
11/1/2021 8:15:00 AM 10.59 51.062 0.086 7.16 46.82 10.56
11/1/2021 8:30:00 AM 10.58 51.044 0.086 7.17 48.59 10.57
11/1/2021 8:45:00 AM 10.56 51.008 0.086 7.17 47.27 10.6
11/1/2021 9:00:00 AM 10.55 50.99 0.086 7.18 48.72 10.64
11/1/2021 9:15:00 AM 10.55 50.99 0.087 7.18 47.82 10.67
11/1/2021 9:30:00 AM 10.55 50.99 0.087 7.19 48.29 10.69
11/1/2021 9:45:00 AM 10.55 50.99 0.086 7.2 49.11 10.73
11/1/2021 10:00:00 AM 10.56 51.008 0.086 7.2 46.62 10.75
11/1/2021 10:15:00 AM 10.57 51.026 0.086 7.21 47 10.79
11/1/2021 10:30:00 AM 10.58 51.044 0.086 7.22 52.67 10.82
11/1/2021 10:45:00 AM 10.61 51.098 0.086 7.23 48.64 10.85
11/1/2021 11:00:00 AM 10.6 51.08 0.086 7.24 47.78 10.87
11/1/2021 11:15:00 AM 10.65 51.17 0.086 7.25 47.63 10.91
11/1/2021 11:30:00 AM 10.71 51.278 0.086 7.26 48.94 10.95
11/1/2021 11:45:00 AM 10.83 51.494 0.086 7.27 48.69 10.98
11/1/2021 12:00:00 PM 10.89 51.602 0.086 7.28 49.39 10.99
11/1/2021 12:15:00 PM 10.94 51.692 0.086 7.29 45.97 11
11/1/2021 12:30:00 PM 10.97 51.746 0.086 7.3 46.23 10.99
11/1/2021 12:45:00 PM 11.01 51.818 0.086 7.31 48.35 11
11/1/2021 1:00:00 PM 11.07 51.926 0.086 7.31 46.36 11.01
11/1/2021 1:15:00 PM 11.13 52.034 0.086 7.31 47.97 11.01
11/1/2021 1:30:00 PM 11.2 52.16 0.086 7.31 46.77 11.02
11/1/2021 1:45:00 PM 11.26 52.268 0.086 7.33 46.34 10.99
11/1/2021 2:00:00 PM 11.34 52.412 0.086 7.33 48.4 10.97
11/1/2021 2:15:00 PM 11.43 52.574 0.086 7.33 50.02 10.97
11/1/2021 2:30:00 PM 11.47 52.646 0.086 7.34 49.87 10.96
11/1/2021 2:45:00 PM 11.48 52.664 0.086 7.34 47.27 10.95
11/1/2021 3:00:00 PM 11.52 52.736 0.086 7.35 48.85 10.95
11/1/2021 3:15:00 PM 11.57 52.826 0.086 7.35 50.53 10.91
11/1/2021 3:30:00 PM 11.59 52.862 0.086 7.34 52.49 10.88
11/1/2021 3:45:00 PM 11.59 52.862 0.086 7.35 49.85 10.86
11/1/2021 4:00:00 PM 11.61 52.898 0.086 7.34 52.57 10.82
11/1/2021 4:15:00 PM 11.6 52.88 0.086 7.34 48.49 10.77
11/1/2021 4:30:00 PM 11.6 52.88 0.086 7.33 49.85 10.74
11/1/2021 4:45:00 PM 11.58 52.844 0.086 7.33 54.74 10.73
11/1/2021 5:00:00 PM 11.55 52.79 0.086 7.32 50.86 10.71
11/1/2021 5:15:00 PM 11.5 52.7 0.086 7.31 51.03 10.68
11/1/2021 5:30:00 PM 11.46 52.628 0.087 7.3 49.23 10.66
11/1/2021 5:45:00 PM 11.42 52.556 0.087 7.29 51.75 10.64
11/1/2021 6:00:00 PM 11.37 52.466 0.087 7.29 54.26 10.6
11/1/2021 6:15:00 PM 11.32 52.376 0.087 7.28 49.26 10.57
11/1/2021 6:30:00 PM 11.28 52.304 0.087 7.27 52.83 10.55
11/1/2021 6:45:00 PM 11.23 52.214 0.087 7.25 50.15 10.52
11/1/2021 7:00:00 PM 11.19 52.142 0.087 7.25 49.76 10.5
11/1/2021 7:15:00 PM 11.13 52.034 0.084 7.24 48.7 10.49
11/1/2021 7:30:00 PM 11.08 51.944 0.087 7.23 52.96 10.47
11/1/2021 7:45:00 PM 11.03 51.854 0.087 7.22 52.4 10.47
11/1/2021 8:00:00 PM 10.98 51.764 0.087 7.22 52.3 10.48
11/1/2021 8:15:00 PM 10.93 51.674 0.087 7.21 51.33 10.48
11/1/2021 8:30:00 PM 10.89 51.602 0.087 7.21 51.94 10.49
11/1/2021 8:45:00 PM 10.84 51.512 0.087 7.21 51.87 10.51
11/1/2021 9:00:00 PM 10.79 51.422 0.087 7.2 51.66 10.5
11/1/2021 9:15:00 PM 10.75 51.35 0.087 7.2 52.29 10.52
11/1/2021 9:30:00 PM 10.71 51.278 0.087 7.2 52.65 10.53
11/1/2021 9:45:00 PM 10.66 51.188 0.087 7.2 55.71 10.55
11/1/2021 10:00:00 PM 10.61 51.098 0.087 7.19 49.97 10.56
11/1/2021 10:15:00 PM 10.57 51.026 0.087 7.19 52.55 10.57
11/1/2021 10:30:00 PM 10.52 50.936 0.087 7.19 52.45 10.58
11/1/2021 10:45:00 PM 10.47 50.846 0.087 7.19 55.97 10.59
11/1/2021 11:00:00 PM 10.43 50.774 0.087 7.19 51.9 10.59
11/1/2021 11:15:00 PM 10.38 50.684 0.087 7.19 57.29 10.6
11/1/2021 11:30:00 PM 10.34 50.612 0.087 7.19 53.43 10.61
11/1/2021 11:45:00 PM 10.28 50.504 0.087 7.19 53.19 10.64
11/2/2021 12:00:00 AM 10.24 50.432 0.087 7.19 50.94 10.64
11/2/2021 12:15:00 AM 10.19 50.342 0.087 7.19 54.25 10.65
11/2/2021 12:30:00 AM 10.15 50.27 0.088 7.19 57.41 10.67
11/2/2021 12:45:00 AM 10.11 50.198 0.088 7.19 56.01 10.68
11/2/2021 1:00:00 AM 10.07 50.126 0.088 7.19 53.49 10.7
11/2/2021 1:15:00 AM 10.04 50.072 0.088 7.19 56.13 10.71
11/2/2021 1:30:00 AM 10 50 0.088 7.19 57.63 10.71
11/2/2021 1:45:00 AM 9.97 49.946 0.088 7.19 53.47 10.72
11/2/2021 2:00:00 AM 9.94 49.892 0.088 7.19 54.98 10.73
11/2/2021 2:15:00 AM 9.91 49.838 0.088 7.19 54.99 10.74
11/2/2021 2:30:00 AM 9.87 49.766 0.088 7.19 55.33 10.75
11/2/2021 2:45:00 AM 9.85 49.73 0.088 7.19 55.52 10.75
11/2/2021 3:00:00 AM 9.82 49.676 0.088 7.19 55.33 10.76
11/2/2021 3:15:00 AM 9.79 49.622 0.088 7.19 56.58 10.77
11/2/2021 3:30:00 AM 9.76 49.568 0.088 7.19 55.05 10.78
11/2/2021 3:45:00 AM 9.74 49.532 0.088 7.19 52.88 10.79
11/2/2021 4:00:00 AM 9.71 49.478 0.088 7.19 53.53 10.8
11/2/2021 4:15:00 AM 9.69 49.442 0.088 7.19 58.27 10.8
11/2/2021 4:30:00 AM 9.67 49.406 0.088 7.19 57.17 10.81
11/2/2021 4:45:00 AM 9.64 49.352 0.088 7.19 55.33 10.81
11/2/2021 5:00:00 AM 9.61 49.298 0.088 7.2 57.73 10.82
11/2/2021 5:15:00 AM 9.59 49.262 0.088 7.19 57.86 10.83
11/2/2021 5:30:00 AM 9.57 49.226 0.088 7.19 55.62 10.83
11/2/2021 5:45:00 AM 9.55 49.19 0.088 7.19 53.57 10.84
11/2/2021 6:00:00 AM 9.53 49.154 0.088 7.2 54.5 10.85
11/2/2021 6:15:00 AM 9.51 49.118 0.088 7.2 58.17 10.85
11/2/2021 6:30:00 AM 9.49 49.082 0.088 7.19 56.98 10.86
11/2/2021 6:45:00 AM 9.47 49.046 0.088 7.2 55.32 10.87
11/2/2021 7:00:00 AM 9.46 49.028 0.088 7.19 60.44 10.87
11/2/2021 7:15:00 AM 9.44 48.992 0.088 7.19 62.61 10.88
11/2/2021 7:30:00 AM 9.43 48.974 0.088 7.19 56.81 10.89
11/2/2021 7:45:00 AM 9.41 48.938 0.088 7.19 56.23 10.89
11/2/2021 8:00:00 AM 9.4 48.92 0.088 7.19 55.16 10.9
11/2/2021 8:15:00 AM 9.39 48.902 0.088 7.19 57.84 10.92
11/2/2021 8:30:00 AM 9.38 48.884 0.088 7.2 56.25 10.93
11/2/2021 8:45:00 AM 9.37 48.866 0.088 7.2 55.79 10.96
11/2/2021 9:00:00 AM 9.37 48.866 0.088 7.2 65.48 10.99
11/2/2021 9:15:00 AM 9.37 48.866 0.088 7.21 55.96 11.03
11/2/2021 9:30:00 AM 9.37 48.866 0.088 7.22 55.55 11.08
11/2/2021 9:45:00 AM 9.39 48.902 0.088 7.23 53.8 11.14
11/2/2021 10:00:00 AM 9.4 48.92 0.088 7.24 57.37 11.2
11/2/2021 10:15:00 AM 9.43 48.974 0.088 7.25 57.09 11.25
11/2/2021 10:30:00 AM 9.46 49.028 0.088 7.27 55.86 11.3
11/2/2021 10:45:00 AM 9.5 49.1 0.088 7.28 55.41 11.35
11/2/2021 11:00:00 AM 9.54 49.172 0.088 7.3 54.99 11.39
11/2/2021 11:15:00 AM 9.6 49.28 0.087 7.32 57.6 11.44
11/2/2021 11:30:00 AM 9.66 49.388 0.087 7.33 55.34 11.46
11/2/2021 11:45:00 AM 9.7 49.46 0.087 7.34 54.73 11.48
11/2/2021 12:00:00 PM 9.75 49.55 0.087 7.36 56.21 11.5
11/2/2021 12:15:00 PM 9.79 49.622 0.087 7.37 54.7 11.5
11/2/2021 12:30:00 PM 9.83 49.694 0.087 7.38 56.77 11.51
11/2/2021 12:45:00 PM 9.9 49.82 0.087 7.39 56.08 11.53
11/2/2021 1:00:00 PM 9.92 49.856 0.087 7.4 55.96 11.52
11/2/2021 1:15:00 PM 9.97 49.946 0.087 7.41 56.23 11.51
11/2/2021 1:30:00 PM 10.03 50.054 0.088 7.57 2.78 11.75
11/2/2021 1:45:00 PM 10.05 50.09 0.088 7.54 2.53 11.71
11/2/2021 2:00:00 PM 10.07 50.126 0.088 7.53 2.47 11.7
11/2/2021 2:15:00 PM 10.09 50.162 0.088 7.52 2.64 11.69
11/2/2021 2:30:00 PM 10.12 50.216 0.088 7.53 2.43 11.69
11/2/2021 2:45:00 PM 10.17 50.306 0.088 7.54 2.59 11.72
11/2/2021 3:00:00 PM 10.21 50.378 0.088 7.54 2.39 11.72
11/2/2021 3:15:00 PM 10.21 50.378 0.088 7.53 2.61 11.69
11/2/2021 3:30:00 PM 10.25 50.45 0.088 7.53 2.59 11.69
11/2/2021 3:45:00 PM 10.29 50.522 0.088 7.54 2.58 11.67
11/2/2021 4:00:00 PM 10.29 50.522 0.088 7.52 2.62 11.62
11/2/2021 4:15:00 PM 10.3 50.54 0.088 7.51 2.52 11.59
11/2/2021 4:30:00 PM 10.3 50.54 0.088 7.5 2.61 11.54
11/2/2021 4:45:00 PM 10.32 50.576 0.088 7.48 2.77 11.51
11/2/2021 5:00:00 PM 10.32 50.576 0.088 7.49 2.83 11.48
11/2/2021 5:15:00 PM 10.29 50.522 0.088 7.47 2.81 11.43
11/2/2021 5:30:00 PM 10.27 50.486 0.088 7.44 2.85 11.37
11/2/2021 5:45:00 PM 10.25 50.45 0.088 7.43 2.81 11.32
11/2/2021 6:00:00 PM 10.22 50.396 0.088 7.4 2.81 11.27
11/2/2021 6:15:00 PM 10.2 50.36 0.088 7.38 2.72 11.22
11/2/2021 6:30:00 PM 10.16 50.288 0.089 7.37 2.82 11.18
11/2/2021 6:45:00 PM 10.12 50.216 0.089 7.37 2.9 11.15
11/2/2021 7:00:00 PM 10.08 50.144 0.089 7.34 2.82 11.12
11/2/2021 7:15:00 PM 10.04 50.072 0.089 7.33 2.91 11.1
11/2/2021 7:30:00 PM 10.01 50.018 0.089 7.32 2.84 11.08
11/2/2021 7:45:00 PM 9.97 49.946 0.089 7.31 3.04 11.06
11/2/2021 8:00:00 PM 9.94 49.892 0.089 7.3 2.95 11.05
11/2/2021 8:15:00 PM 9.9 49.82 0.089 7.29 3.01 11.04
11/2/2021 8:30:00 PM 9.87 49.766 0.089 7.29 3.16 11.04
11/2/2021 8:45:00 PM 9.84 49.712 0.089 7.27 3.12 11.03
11/2/2021 9:00:00 PM 9.8 49.64 0.089 7.26 3.11 11.04
11/2/2021 9:15:00 PM 9.78 49.604 0.089 7.26 3.06 11.04
11/2/2021 9:30:00 PM 9.74 49.532 0.089 7.26 3.04 11.04
11/2/2021 9:45:00 PM 9.69 49.442 0.089 7.25 3.04 11.06
11/2/2021 10:00:00 PM 9.64 49.352 0.089 7.25 3.13 11.07
11/2/2021 10:15:00 PM 9.6 49.28 0.09 7.25 3.03 11.08
11/2/2021 10:30:00 PM 9.55 49.19 0.09 7.24 3.09 11.09
11/2/2021 10:45:00 PM 9.5 49.1 0.09 7.23 3.09 11.1
11/2/2021 11:00:00 PM 9.44 48.992 0.09 7.24 3.16 11.12
11/2/2021 11:15:00 PM 9.39 48.902 0.09 7.23 3.23 11.13
11/2/2021 11:30:00 PM 9.33 48.794 0.09 7.23 3.15 11.15
11/2/2021 11:45:00 PM 9.28 48.704 0.09 7.22 3.16 11.15
11/3/2021 12:00:00 AM 9.22 48.596 0.09 7.21 3.2 11.17
11/3/2021 12:15:00 AM 9.16 48.488 0.09 7.22 3.04 11.18
11/3/2021 12:30:00 AM 9.1 48.38 0.09 7.21 3.15 11.19
11/3/2021 12:45:00 AM 9.05 48.29 0.09 7.21 3.01 11.21
11/3/2021 1:00:00 AM 8.99 48.182 0.09 7.2 2.86 11.23
11/3/2021 1:15:00 AM 8.93 48.074 0.09 7.2 3.13 11.25
11/3/2021 1:30:00 AM 8.87 47.966 0.09 7.2 3.01 11.26
11/3/2021 1:45:00 AM 8.81 47.858 0.09 7.19 2.97 11.28
11/3/2021 2:00:00 AM 8.74 47.732 0.09 7.18 2.96 11.3
11/3/2021 2:15:00 AM 8.68 47.624 0.09 7.16 3 11.32
11/3/2021 2:30:00 AM 8.62 47.516 0.09 7.15 3.1 11.33
11/3/2021 2:45:00 AM 8.56 47.408 0.09 7.14 3.11 11.34
11/3/2021 3:00:00 AM 8.5 47.3 0.09 7.16 2.94 11.36
11/3/2021 3:15:00 AM 8.44 47.192 0.09 7.14 3.08 11.39
11/3/2021 3:30:00 AM 8.38 47.084 0.09 7.13 2.99 11.41
11/3/2021 3:45:00 AM 8.32 46.976 0.09 7.12 3.02 11.43
11/3/2021 4:00:00 AM 8.26 46.868 0.09 7.12 3 11.44
11/3/2021 4:15:00 AM 8.21 46.778 0.09 7.11 2.93 11.46
11/3/2021 4:30:00 AM 8.16 46.688 0.09 7.12 2.95 11.48
11/3/2021 4:45:00 AM 8.11 46.598 0.09 7.12 2.86 11.5
11/3/2021 5:00:00 AM 8.05 46.49 0.09 7.12 2.98 11.51
11/3/2021 5:15:00 AM 8 46.4 0.09 7.12 2.81 11.52
11/3/2021 5:30:00 AM 7.95 46.31 0.09 7.12 2.97 11.53
11/3/2021 5:45:00 AM 7.9 46.22 0.09 7.13 3.01 11.55
11/3/2021 6:00:00 AM 7.85 46.13 0.09 7.13 3.04 11.56
11/3/2021 6:15:00 AM 7.8 46.04 0.09 7.13 2.9 11.59
11/3/2021 6:30:00 AM 7.75 45.95 0.09 7.13 2.88 11.6
11/3/2021 6:45:00 AM 7.7 45.86 0.09 7.12 3.42 11.62
11/3/2021 7:00:00 AM 7.65 45.77 0.09 7.12 2.86 11.63
11/3/2021 7:15:00 AM 7.6 45.68 0.09 7.12 2.84 11.65
11/3/2021 7:30:00 AM 7.55 45.59 0.09 7.12 3.02 11.66
11/3/2021 7:45:00 AM 7.51 45.518 0.09 7.12 2.96 11.68
11/3/2021 8:00:00 AM 7.46 45.428 0.09 7.13 2.81 11.71
11/3/2021 8:15:00 AM 7.43 45.374 0.09 7.13 2.67 11.75
11/3/2021 8:30:00 AM 7.39 45.302 0.09 7.16 2.68 11.79
11/3/2021 8:45:00 AM 7.36 45.248 0.09 7.17 2.54 11.85
11/3/2021 9:00:00 AM 7.36 45.248 0.09 7.18 2.56 11.92
11/3/2021 9:15:00 AM 7.34 45.212 0.09 7.2 2.75 11.94
11/3/2021 9:30:00 AM 7.34 45.212 0.09 7.21 2.41 12.02
11/3/2021 9:45:00 AM 7.34 45.212 0.09 7.24 2.49 12.07
11/3/2021 10:00:00 AM 7.34 45.212 0.09 7.25 2.47 12.11
11/3/2021 10:15:00 AM 7.36 45.248 0.09 7.26 2.51 12.17
11/3/2021 10:30:00 AM 7.4 45.32 0.09 7.29 2.43 12.22
11/3/2021 10:45:00 AM 7.44 45.392 0.09 7.31 2.44 12.28
11/3/2021 11:00:00 AM 7.5 45.5 0.09 7.33 2.48 12.32
11/3/2021 11:15:00 AM 7.52 45.536 0.09 7.35 2.47 12.34
11/3/2021 11:30:00 AM 7.57 45.626 0.09 7.35 2.42 12.39
11/3/2021 11:45:00 AM 7.6 45.68 0.09 7.37 2.35 12.42
11/3/2021 12:00:00 PM 7.63 45.734 0.09 7.38 2.39 12.45
11/3/2021 12:15:00 PM 7.67 45.806 0.09 7.4 2.41 12.48
11/3/2021 12:30:00 PM 7.74 45.932 0.089 7.42 2.38 12.5
11/3/2021 12:45:00 PM 7.87 46.166 0.089 7.44 2.5 12.51
11/3/2021 1:00:00 PM 7.93 46.274 0.089 7.46 2.36 12.49
11/3/2021 1:15:00 PM 8.01 46.418 0.089 7.51 2.45 12.5
11/3/2021 1:30:00 PM 8.13 46.634 0.089 7.53 2.46 12.51
11/3/2021 1:45:00 PM 8.21 46.778 0.089 7.53 2.59 12.49
11/3/2021 2:00:00 PM 8.3 46.94 0.089 7.55 2.48 12.47
11/3/2021 2:15:00 PM 8.42 47.156 0.089 7.55 2.53 12.44
11/3/2021 2:30:00 PM 8.45 47.21 0.089 7.56 2.47 12.43
11/3/2021 2:45:00 PM 8.41 47.138 0.089 7.55 2.44 12.38
11/3/2021 3:00:00 PM 8.43 47.174 0.089 7.55 2.35 12.37
11/3/2021 3:15:00 PM 8.49 47.282 0.089 7.55 2.37 12.34
11/3/2021 3:30:00 PM 8.49 47.282 0.089 7.54 2.49 12.29
11/3/2021 3:45:00 PM 8.5 47.3 0.089 7.53 2.51 12.26
11/3/2021 4:00:00 PM 8.52 47.336 0.089 7.53 2.6 12.22
11/3/2021 4:15:00 PM 8.62 47.516 0.089 7.53 2.43 12.23
11/3/2021 4:30:00 PM 8.65 47.57 0.089 7.53 2.4 12.19
11/3/2021 4:45:00 PM 8.7 47.66 0.089 7.52 2.4 12.16
11/3/2021 5:00:00 PM 8.73 47.714 0.089 7.52 2.41 12.1
11/3/2021 5:15:00 PM 8.77 47.786 0.089 7.5 2.44 12.05
11/3/2021 5:30:00 PM 8.79 47.822 0.089 7.49 2.38 11.99
11/3/2021 5:45:00 PM 8.78 47.804 0.089 7.47 2.72 11.91
11/3/2021 6:00:00 PM 8.77 47.786 0.089 7.45 2.42 11.84
11/3/2021 6:15:00 PM 8.75 47.75 0.089 7.42 2.51 11.77
11/3/2021 6:30:00 PM 8.73 47.714 0.089 7.4 2.47 11.71
11/3/2021 6:45:00 PM 8.71 47.678 0.089 7.38 2.55 11.66
11/3/2021 7:00:00 PM 8.69 47.642 0.089 7.36 2.71 11.62
11/3/2021 7:15:00 PM 8.67 47.606 0.09 7.35 2.54 11.58
11/3/2021 7:30:00 PM 8.64 47.552 0.09 7.34 2.74 11.55
11/3/2021 7:45:00 PM 8.62 47.516 0.09 7.32 2.82 11.53
11/3/2021 8:00:00 PM 8.59 47.462 0.09 7.31 2.76 11.5
11/3/2021 8:15:00 PM 8.56 47.408 0.09 7.3 2.95 11.49
11/3/2021 8:30:00 PM 8.53 47.354 0.09 7.29 2.85 11.48
11/3/2021 8:45:00 PM 8.49 47.282 0.09 7.28 2.81 11.47
11/3/2021 9:00:00 PM 8.46 47.228 0.09 7.28 2.75 11.48
11/3/2021 9:15:00 PM 8.44 47.192 0.09 7.27 2.85 11.48
11/3/2021 9:30:00 PM 8.41 47.138 0.09 7.27 2.87 11.48
11/3/2021 9:45:00 PM 8.37 47.066 0.09 7.26 2.74 11.49
11/3/2021 10:00:00 PM 8.34 47.012 0.09 7.25 2.85 11.49
11/3/2021 10:15:00 PM 8.3 46.94 0.09 7.24 2.88 11.49
11/3/2021 10:30:00 PM 8.26 46.868 0.09 7.24 2.78 11.5
11/3/2021 10:45:00 PM 8.22 46.796 0.091 7.23 2.72 11.5
11/3/2021 11:00:00 PM 8.19 46.742 0.091 7.23 2.83 11.52
11/3/2021 11:15:00 PM 8.15 46.67 0.091 7.22 2.8 11.52
11/3/2021 11:30:00 PM 8.11 46.598 0.091 7.22 2.74 11.53
11/3/2021 11:45:00 PM 8.07 46.526 0.091 7.21 2.65 11.54
11/4/2021 12:00:00 AM 8.03 46.454 0.091 7.2 2.87 11.55
11/4/2021 12:15:00 AM 7.99 46.382 0.091 7.2 2.67 11.55
11/4/2021 12:30:00 AM 7.95 46.31 0.091 7.19 2.85 11.56
11/4/2021 12:45:00 AM 7.91 46.238 0.091 7.19 2.77 11.57
11/4/2021 1:00:00 AM 7.86 46.148 0.091 7.18 2.89 11.59
11/4/2021 1:15:00 AM 7.82 46.076 0.091 7.18 2.87 11.6
11/4/2021 1:30:00 AM 7.78 46.004 0.091 7.18 2.91 11.62
11/4/2021 1:45:00 AM 7.74 45.932 0.091 7.18 2.95 11.63
11/4/2021 2:00:00 AM 7.69 45.842 0.091 7.17 2.82 11.65
11/4/2021 2:15:00 AM 7.65 45.77 0.091 7.18 2.75 11.66
11/4/2021 2:30:00 AM 7.6 45.68 0.091 7.18 2.72 11.67
11/4/2021 2:45:00 AM 7.56 45.608 0.091 7.18 2.9 11.68
11/4/2021 3:00:00 AM 7.52 45.536 0.091 7.18 2.69 11.7
11/4/2021 3:15:00 AM 7.47 45.446 0.091 7.18 2.88 11.71
11/4/2021 3:30:00 AM 7.42 45.356 0.091 7.18 2.84 11.72
11/4/2021 3:45:00 AM 7.37 45.266 0.091 7.19 2.84 11.73
11/4/2021 4:00:00 AM 7.32 45.176 0.091 7.18 2.68 11.74
11/4/2021 4:15:00 AM 7.28 45.104 0.091 7.19 2.84 11.76
11/4/2021 4:30:00 AM 7.23 45.014 0.091 7.18 2.79 11.78
11/4/2021 4:45:00 AM 7.19 44.942 0.091 7.18 2.73 11.8
11/4/2021 5:00:00 AM 7.14 44.852 0.091 7.18 2.81 11.82
11/4/2021 5:15:00 AM 7.09 44.762 0.091 7.19 2.75 11.83
11/4/2021 5:30:00 AM 7.04 44.672 0.091 7.19 2.78 11.85
11/4/2021 5:45:00 AM 7 44.6 0.091 7.18 2.78 11.86
11/4/2021 6:00:00 AM 6.95 44.51 0.091 7.18 2.64 11.88
11/4/2021 6:15:00 AM 6.9 44.42 0.091 7.19 2.74 11.9
11/4/2021 6:30:00 AM 6.85 44.33 0.091 7.19 2.69 11.91
11/4/2021 6:45:00 AM 6.8 44.24 0.091 7.18 2.84 11.92
11/4/2021 7:00:00 AM 6.75 44.15 0.091 7.17 2.71 11.93
11/4/2021 7:15:00 AM 6.7 44.06 0.091 7.18 2.74 11.94
11/4/2021 7:30:00 AM 6.65 43.97 0.091 7.18 2.69 11.96
11/4/2021 7:45:00 AM 6.6 43.88 0.091 7.19 2.55 11.98
11/4/2021 8:00:00 AM 6.56 43.808 0.091 7.19 2.74 12.02
11/4/2021 8:15:00 AM 6.51 43.718 0.091 7.19 2.56 12.06
11/4/2021 8:30:00 AM 6.47 43.646 0.091 7.2 2.51 12.11
11/4/2021 8:45:00 AM 6.44 43.592 0.091 7.21 2.85 12.18
11/4/2021 9:00:00 AM 6.42 43.556 0.091 7.22 2.51 12.25
11/4/2021 9:15:00 AM 6.41 43.538 0.091 7.24 2.54 12.31
11/4/2021 9:30:00 AM 6.41 43.538 0.091 7.26 2.4 12.37
11/4/2021 9:45:00 AM 6.41 43.538 0.091 7.27 2.5 12.43
11/4/2021 10:00:00 AM 6.42 43.556 0.091 7.3 2.32 12.5
11/4/2021 10:15:00 AM 6.44 43.592 0.091 7.32 2.38 12.55
11/4/2021 10:30:00 AM 6.46 43.628 0.091 7.34 2.45 12.62
11/4/2021 10:45:00 AM 6.5 43.7 0.091 7.36 2.48 12.67
11/4/2021 11:00:00 AM 6.56 43.808 0.091 7.38 2.44 12.72
11/4/2021 11:15:00 AM 6.63 43.934 0.091 7.4 2.26 12.76
11/4/2021 11:30:00 AM 6.7 44.06 0.091 7.43 2.36 12.79
11/4/2021 11:45:00 AM 6.78 44.204 0.091 7.45 2.41 12.83
11/4/2021 12:00:00 PM 6.87 44.366 0.091 7.47 2.43 12.86
11/4/2021 12:15:00 PM 6.95 44.51 0.091 7.48 2.34 12.87
11/4/2021 12:30:00 PM 7.05 44.69 0.091 7.5 2.35 12.88
11/4/2021 12:45:00 PM 7.13 44.834 0.091 7.51 2.37 12.89
11/4/2021 1:00:00 PM 7.17 44.906 0.091 7.53 2.42 12.91
11/4/2021 1:15:00 PM 7.25 45.05 0.091 7.55 2.36 12.9
11/4/2021 1:30:00 PM 7.31 45.158 0.091 7.56 2.35 12.9
11/4/2021 1:45:00 PM 7.36 45.248 0.09 7.59 2.33 12.9
11/4/2021 2:00:00 PM 7.43 45.374 0.09 7.6 2.28 12.9
11/4/2021 2:15:00 PM 7.5 45.5 0.09 7.61 2.36 12.9
11/4/2021 2:30:00 PM 7.58 45.644 0.09 7.63 2.4 12.89
11/4/2021 2:45:00 PM 7.66 45.788 0.09 7.65 2.22 12.87
11/4/2021 3:00:00 PM 7.73 45.914 0.09 7.66 2.36 12.85
11/4/2021 3:15:00 PM 7.82 46.076 0.09 7.67 2.36 12.84
11/4/2021 3:30:00 PM 7.88 46.184 0.09 7.68 2.45 12.8
11/4/2021 3:45:00 PM 7.93 46.274 0.09 7.69 2.66 12.77
11/4/2021 4:00:00 PM 7.97 46.346 0.09 7.68 2.31 12.73
11/4/2021 4:15:00 PM 8.01 46.418 0.09 7.68 2.32 12.7
11/4/2021 4:30:00 PM 8.04 46.472 0.09 7.67 2.35 12.66
11/4/2021 4:45:00 PM 8.08 46.544 0.09 7.66 2.39 12.6
11/4/2021 5:00:00 PM 8.09 46.562 0.09 7.63 2.42 12.53
11/4/2021 5:15:00 PM 8.11 46.598 0.09 7.6 2.41 12.44
11/4/2021 5:30:00 PM 8.13 46.634 0.09 7.56 2.49 12.34
11/4/2021 5:45:00 PM 8.14 46.652 0.09 7.54 2.46 12.26
11/4/2021 6:00:00 PM 8.14 46.652 0.09 7.51 2.51 12.16
11/4/2021 6:15:00 PM 8.12 46.616 0.09 7.48 2.43 12.08
11/4/2021 6:30:00 PM 8.1 46.58 0.09 7.45 2.55 12
11/4/2021 6:45:00 PM 8.07 46.526 0.09 7.43 2.9 11.95
11/4/2021 7:00:00 PM 8.03 46.454 0.09 7.41 2.74 11.88
11/4/2021 7:15:00 PM 7.99 46.382 0.091 7.39 2.63 11.84
11/4/2021 7:30:00 PM 7.94 46.292 0.091 7.37 2.68 11.8
11/4/2021 7:45:00 PM 7.89 46.202 0.091 7.35 2.75 11.78
11/4/2021 8:00:00 PM 7.83 46.094 0.091 7.34 2.98 11.76
11/4/2021 8:15:00 PM 7.77 45.986 0.091 7.33 2.7 11.75
11/4/2021 8:30:00 PM 7.71 45.878 0.091 7.32 2.87 11.74
11/4/2021 8:45:00 PM 7.66 45.788 0.091 7.31 2.9 11.74
11/4/2021 9:00:00 PM 7.6 45.68 0.091 7.3 3.25 11.73
11/4/2021 9:15:00 PM 7.54 45.572 0.091 7.29 3.07 11.74
11/4/2021 9:30:00 PM 7.49 45.482 0.091 7.28 3.36 11.74
11/4/2021 9:45:00 PM 7.44 45.392 0.091 7.27 2.84 11.74
11/4/2021 10:00:00 PM 7.38 45.284 0.091 7.26 2.82 11.74
11/4/2021 10:15:00 PM 7.33 45.194 0.091 7.26 2.8 11.74
11/4/2021 10:30:00 PM 7.28 45.104 0.091 7.25 2.88 11.75
11/4/2021 10:45:00 PM 7.23 45.014 0.092 7.24 2.91 11.77
11/4/2021 11:00:00 PM 7.18 44.924 0.092 7.24 2.86 11.78
11/4/2021 11:15:00 PM 7.13 44.834 0.092 7.22 2.93 11.79
11/4/2021 11:30:00 PM 7.08 44.744 0.092 7.22 2.77 11.81
11/4/2021 11:45:00 PM 7.03 44.654 0.092 7.21 2.79 11.82
11/5/2021 12:00:00 AM 6.98 44.564 0.092 7.21 2.82 11.84
11/5/2021 12:15:00 AM 6.93 44.474 0.092 7.21 2.88 11.85
11/5/2021 12:30:00 AM 6.87 44.366 0.092 7.21 2.68 11.88
11/5/2021 12:45:00 AM 6.82 44.276 0.092 7.21 2.82 11.88
11/5/2021 1:00:00 AM 6.77 44.186 0.092 7.21 2.89 11.89
11/5/2021 1:15:00 AM 6.72 44.096 0.092 7.2 2.71 11.91
11/5/2021 1:30:00 AM 6.67 44.006 0.092 7.2 2.81 11.92
11/5/2021 1:45:00 AM 6.62 43.916 0.092 7.2 2.85 11.94
11/5/2021 2:00:00 AM 6.57 43.826 0.092 7.2 2.81 11.96
11/5/2021 2:15:00 AM 6.51 43.718 0.092 7.2 2.81 11.98
11/5/2021 2:30:00 AM 6.46 43.628 0.092 7.2 2.94 12
11/5/2021 2:45:00 AM 6.41 43.538 0.092 7.19 2.7 12.01
11/5/2021 3:00:00 AM 6.36 43.448 0.092 7.19 2.79 12.03
11/5/2021 3:15:00 AM 6.31 43.358 0.092 7.19 2.65 12.05
11/5/2021 3:30:00 AM 6.26 43.268 0.092 7.2 2.66 12.06
11/5/2021 3:45:00 AM 6.21 43.178 0.092 7.2 2.91 12.08
11/5/2021 4:00:00 AM 6.16 43.088 0.092 7.2 2.7 12.1
11/5/2021 4:15:00 AM 6.11 42.998 0.092 7.2 2.66 12.1
11/5/2021 4:30:00 AM 6.06 42.908 0.092 7.2 2.7 12.12
11/5/2021 4:45:00 AM 6.01 42.818 0.092 7.2 2.75 12.14
11/5/2021 5:00:00 AM 5.96 42.728 0.092 7.2 2.79 12.16
11/5/2021 5:15:00 AM 5.91 42.638 0.092 7.2 2.72 12.18
11/5/2021 5:30:00 AM 5.86 42.548 0.092 7.2 2.69 12.19
11/5/2021 5:45:00 AM 5.81 42.458 0.092 7.2 2.8 12.22
11/5/2021 6:00:00 AM 5.77 42.386 0.093 7.2 2.78 12.23
11/5/2021 6:15:00 AM 5.72 42.296 0.093 7.2 2.7 12.24
11/5/2021 6:30:00 AM 5.67 42.206 0.093 7.2 2.68 12.26
11/5/2021 6:45:00 AM 5.62 42.116 0.093 7.2 2.72 12.28
11/5/2021 7:00:00 AM 5.58 42.044 0.093 7.2 2.66 12.3
11/5/2021 7:15:00 AM 5.53 41.954 0.093 7.2 2.77 12.31
11/5/2021 7:30:00 AM 5.49 41.882 0.093 7.21 2.61 12.33
11/5/2021 7:45:00 AM 5.44 41.792 0.093 7.21 2.68 12.34
11/5/2021 8:00:00 AM 5.4 41.72 0.093 7.21 2.76 12.39
11/5/2021 8:15:00 AM 5.35 41.63 0.093 7.22 2.67 12.44
11/5/2021 8:30:00 AM 5.32 41.576 0.093 7.23 2.75 12.49
11/5/2021 8:45:00 AM 5.29 41.522 0.093 7.24 2.66 12.58
11/5/2021 9:00:00 AM 5.27 41.486 0.093 7.26 2.71 12.65
11/5/2021 9:15:00 AM 5.26 41.468 0.093 7.27 2.76 12.73
11/5/2021 9:30:00 AM 5.26 41.468 0.093 7.3 2.62 12.81
11/5/2021 9:45:00 AM 5.27 41.486 0.092 7.32 2.72 12.88
11/5/2021 10:00:00 AM 5.29 41.522 0.092 7.34 2.62 12.95
11/5/2021 10:15:00 AM 5.31 41.558 0.092 7.36 2.66 13
11/5/2021 10:30:00 AM 5.36 41.648 0.092 7.38 2.71 13.08
11/5/2021 10:45:00 AM 5.4 41.72 0.092 7.4 2.62 13.13
11/5/2021 11:00:00 AM 5.47 41.846 0.092 7.43 2.65 13.18
11/5/2021 11:15:00 AM 5.55 41.99 0.092 7.45 2.63 13.23
11/5/2021 11:30:00 AM 5.65 42.17 0.092 7.47 2.62 13.29
11/5/2021 11:45:00 AM 5.74 42.332 0.092 7.49 2.61 13.3
11/5/2021 12:00:00 PM 5.86 42.548 0.092 7.51 2.59 13.34
11/5/2021 12:15:00 PM 5.96 42.728 0.092 7.53 2.53 13.35
11/5/2021 12:30:00 PM 6.09 42.962 0.092 7.54 2.6 13.35
11/5/2021 12:45:00 PM 6.18 43.124 0.092 7.56 2.78 13.36
11/5/2021 1:00:00 PM 6.29 43.322 0.092 7.58 2.65 13.35
11/5/2021 1:15:00 PM 6.4 43.52 0.092 7.58 6.93 13.34
11/5/2021 1:30:00 PM 6.5 43.7 0.092 7.6 6.97 13.33
11/5/2021 1:45:00 PM 6.56 43.808 0.091 7.61 4.68 13.3
11/5/2021 2:00:00 PM 6.66 43.988 0.091 7.61 3.97 13.27
11/5/2021 2:15:00 PM 6.75 44.15 0.091 7.62 3.64 13.24
11/5/2021 2:30:00 PM 6.82 44.276 0.091 7.63 3.66 13.21
11/5/2021 2:45:00 PM 6.9 44.42 0.091 7.64 3.71 13.17
11/5/2021 3:00:00 PM 6.99 44.582 0.091 7.64 3.61 13.13
11/5/2021 3:15:00 PM 7.04 44.672 0.091 7.64 5.11 13.05
11/5/2021 3:30:00 PM 7.1 44.78 0.091 7.63 4.23 13.01
11/5/2021 3:45:00 PM 7.16 44.888 0.091 7.64 4.94 12.98
11/5/2021 4:00:00 PM 7.2 44.96 0.091 7.63 5.07 12.91
11/5/2021 4:15:00 PM 7.24 45.032 0.091 7.62 5.38 12.85
11/5/2021 4:30:00 PM 7.29 45.122 0.091 7.59 5.03 12.76
11/5/2021 4:45:00 PM 7.3 45.14 0.092 7.58 5.02 12.69
11/5/2021 5:00:00 PM 7.32 45.176 0.092 7.56 4.99 12.62
11/5/2021 5:15:00 PM 7.33 45.194 0.091 7.55 4.98 12.55
11/5/2021 5:30:00 PM 7.36 45.248 0.091 7.53 5.03 12.49
11/5/2021 5:45:00 PM 7.37 45.266 0.091 7.51 5.08 12.42
11/5/2021 6:00:00 PM 7.37 45.266 0.091 7.49 4.76 12.35
11/5/2021 6:15:00 PM 7.37 45.266 0.091 7.47 4.75 12.27
11/5/2021 6:30:00 PM 7.35 45.23 0.091 7.45 4.71 12.21
11/5/2021 6:45:00 PM 7.33 45.194 0.091 7.44 4.71 12.16
11/5/2021 7:00:00 PM 7.3 45.14 0.091 7.42 4.37 12.12
11/5/2021 7:15:00 PM 7.27 45.086 0.092 7.4 4.08 12.07
11/5/2021 7:30:00 PM 7.22 44.996 0.092 7.39 4 12.05
11/5/2021 7:45:00 PM 7.18 44.924 0.092 7.37 3.95 12.03
11/5/2021 8:00:00 PM 7.13 44.834 0.092 7.36 4.06 12.02
11/5/2021 8:15:00 PM 7.08 44.744 0.092 7.35 4.09 12
11/5/2021 8:30:00 PM 7.02 44.636 0.092 7.34 4.26 11.99
11/5/2021 8:45:00 PM 6.96 44.528 0.092 7.33 4.26 11.99
11/5/2021 9:00:00 PM 6.9 44.42 0.092 7.32 4.23 12
11/5/2021 9:15:00 PM 6.84 44.312 0.092 7.32 4.35 11.99
11/5/2021 9:30:00 PM 6.77 44.186 0.092 7.31 4.21 12
11/5/2021 9:45:00 PM 6.71 44.078 0.092 7.3 4.22 12
11/5/2021 10:00:00 PM 6.65 43.97 0.092 7.29 4.36 12.01
11/5/2021 10:15:00 PM 6.59 43.862 0.092 7.29 4.21 12.03
11/5/2021 10:30:00 PM 6.52 43.736 0.092 7.28 4.16 12.05
11/5/2021 10:45:00 PM 6.47 43.646 0.092 7.28 4.23 12.06
11/5/2021 11:00:00 PM 6.41 43.538 0.093 7.27 4.15 12.07
11/5/2021 11:15:00 PM 6.35 43.43 0.093 7.26 4.11 12.09
11/5/2021 11:30:00 PM 6.3 43.34 0.093 7.25 4.24 12.1
11/5/2021 11:45:00 PM 6.24 43.232 0.093 7.24 4.14 12.12
11/6/2021 12:00:00 AM 6.19 43.142 0.093 7.23 4.03 12.13
11/6/2021 12:15:00 AM 6.14 43.052 0.093 7.22 4.06 12.14
11/6/2021 12:30:00 AM 6.09 42.962 0.093 7.22 4.08 12.15
11/6/2021 12:45:00 AM 6.04 42.872 0.093 7.22 4.01 12.16
11/6/2021 1:00:00 AM 6 42.8 0.093 7.22 3.91 12.18
11/6/2021 1:15:00 AM 5.95 42.71 0.093 7.22 4.18 12.2
11/6/2021 1:30:00 AM 5.9 42.62 0.093 7.22 4.22 12.22
11/6/2021 1:45:00 AM 5.85 42.53 0.093 7.22 4.29 12.23
11/6/2021 2:00:00 AM 5.81 42.458 0.093 7.22 4.2 12.24
11/6/2021 2:15:00 AM 5.76 42.368 0.093 7.22 4.61 12.26
11/6/2021 2:30:00 AM 5.72 42.296 0.093 7.22 4.05 12.28
11/6/2021 2:45:00 AM 5.67 42.206 0.093 7.22 4.05 12.29
11/6/2021 3:00:00 AM 5.62 42.116 0.093 7.22 4.1 12.3
11/6/2021 3:15:00 AM 5.57 42.026 0.093 7.22 3.97 12.32
11/6/2021 3:30:00 AM 5.53 41.954 0.093 7.22 4.15 12.33
11/6/2021 3:45:00 AM 5.48 41.864 0.094 7.22 4.02 12.34
11/6/2021 4:00:00 AM 5.43 41.774 0.094 7.22 3.98 12.36
11/6/2021 4:15:00 AM 5.39 41.702 0.094 7.22 4.07 12.38
11/6/2021 4:30:00 AM 5.34 41.612 0.093 7.22 4.03 12.4
11/6/2021 4:45:00 AM 5.29 41.522 0.093 7.22 4.1 12.42
11/6/2021 5:00:00 AM 5.25 41.45 0.094 7.22 3.94 12.43
11/6/2021 5:15:00 AM 5.2 41.36 0.094 7.22 4.28 12.45
11/6/2021 5:30:00 AM 5.15 41.27 0.094 7.22 4.27 12.47
11/6/2021 5:45:00 AM 5.1 41.18 0.094 7.22 4.26 12.48
11/6/2021 6:00:00 AM 5.06 41.108 0.094 7.22 3.99 12.5
11/6/2021 6:15:00 AM 5.02 41.036 0.094 7.22 4.13 12.51
11/6/2021 6:30:00 AM 4.97 40.946 0.094 7.22 4.02 12.52
11/6/2021 6:45:00 AM 4.93 40.874 0.094 7.22 4.04 12.53
11/6/2021 7:00:00 AM 4.88 40.784 0.094 7.22 4.13 12.55
11/6/2021 7:15:00 AM 4.83 40.694 0.094 7.22 4.19 12.57
11/6/2021 7:30:00 AM 4.79 40.622 0.094 7.22 3.94 12.58
11/6/2021 7:45:00 AM 4.74 40.532 0.094 7.22 4.04 12.61
11/6/2021 8:00:00 AM 4.7 40.46 0.094 7.22 3.97 12.65
11/6/2021 8:15:00 AM 4.66 40.388 0.094 7.23 3.95 12.7
11/6/2021 8:30:00 AM 4.63 40.334 0.094 7.24 4.02 12.76
11/6/2021 8:45:00 AM 4.6 40.28 0.094 7.25 4.41 12.85
11/6/2021 9:00:00 AM 4.59 40.262 0.093 7.27 4.32 12.93
11/6/2021 9:15:00 AM 4.59 40.262 0.093 7.29 4.44 13.02
11/6/2021 9:30:00 AM 4.58 40.244 0.093 7.31 4.34 13.1
11/6/2021 9:45:00 AM 4.59 40.262 0.093 7.33 4.32 13.17
11/6/2021 10:00:00 AM 4.62 40.316 0.093 7.35 4.57 13.24
11/6/2021 10:15:00 AM 4.64 40.352 0.093 7.38 4.49 13.31
11/6/2021 10:30:00 AM 4.68 40.424 0.093 7.4 4.36 13.38
11/6/2021 10:45:00 AM 4.73 40.514 0.093 7.42 4.25 13.44
11/6/2021 11:00:00 AM 4.82 40.676 0.093 7.45 4.5 13.5
11/6/2021 11:15:00 AM 4.92 40.856 0.093 7.47 4.43 13.55
11/6/2021 11:30:00 AM 5.01 41.018 0.093 7.5 4.36 13.59
11/6/2021 11:45:00 AM 5.15 41.27 0.093 7.52 4.41 13.63
11/6/2021 12:00:00 PM 5.25 41.45 0.093 7.54 4.48 13.64
11/6/2021 12:15:00 PM 5.37 41.666 0.093 7.56 4.45 13.65
11/6/2021 12:30:00 PM 5.51 41.918 0.093 7.57 4.49 13.65
11/6/2021 12:45:00 PM 5.61 42.098 0.093 7.59 4.46 13.66
11/6/2021 1:00:00 PM 5.77 42.386 0.093 7.61 4.39 13.66
11/6/2021 1:15:00 PM 5.85 42.53 0.093 7.62 4.4 13.66
11/6/2021 1:30:00 PM 5.92 42.656 0.092 7.63 4.41 13.64
11/6/2021 1:45:00 PM 6 42.8 0.092 7.65 4.48 13.61
11/6/2021 2:00:00 PM 6.06 42.908 0.092 7.66 4.41 13.58
11/6/2021 2:15:00 PM 6.15 43.07 0.092 7.67 4.4 13.55
11/6/2021 2:30:00 PM 6.22 43.196 0.092 7.67 4.33 13.52
11/6/2021 2:45:00 PM 6.31 43.358 0.092 7.69 4.35 13.49
11/6/2021 3:00:00 PM 6.39 43.502 0.092 7.69 4.36 13.44
11/6/2021 3:15:00 PM 6.41 43.538 0.092 7.68 4.33 13.36
11/6/2021 3:30:00 PM 6.48 43.664 0.092 7.68 4.37 13.32
11/6/2021 3:45:00 PM 6.56 43.808 0.092 7.69 4.45 13.29
11/6/2021 4:00:00 PM 6.6 43.88 0.092 7.68 4.43 13.22
11/6/2021 4:15:00 PM 6.63 43.934 0.092 7.67 4.53 13.14
11/6/2021 4:30:00 PM 6.65 43.97 0.092 7.65 4.42 13.07
11/6/2021 4:45:00 PM 6.67 44.006 0.092 7.64 4.4 12.99
11/6/2021 5:00:00 PM 6.69 44.042 0.092 7.61 4.41 12.9
11/6/2021 5:15:00 PM 6.71 44.078 0.092 7.59 4.29 12.82
11/6/2021 5:30:00 PM 6.73 44.114 0.092 7.56 4.31 12.73
11/6/2021 5:45:00 PM 6.74 44.132 0.092 7.54 4.34 12.66
11/6/2021 6:00:00 PM 6.75 44.15 0.092 7.52 4.33 12.58
11/6/2021 6:15:00 PM 6.75 44.15 0.092 7.5 4.34 12.49
11/6/2021 6:30:00 PM 6.75 44.15 0.092 7.47 4.38 12.42
11/6/2021 6:45:00 PM 6.73 44.114 0.092 7.46 4.31 12.37
11/6/2021 7:00:00 PM 6.71 44.078 0.092 7.44 4.41 12.3
11/6/2021 7:15:00 PM 6.69 44.042 0.092 7.42 4.44 12.26
11/6/2021 7:30:00 PM 6.65 43.97 0.092 7.41 4.51 12.23
11/6/2021 7:45:00 PM 6.61 43.898 0.092 7.39 4.45 12.2
11/6/2021 8:00:00 PM 6.57 43.826 0.093 7.38 4.44 12.18
11/6/2021 8:15:00 PM 6.52 43.736 0.093 7.37 4.51 12.16
11/6/2021 8:30:00 PM 6.48 43.664 0.093 7.36 4.46 12.14
11/6/2021 8:45:00 PM 6.43 43.574 0.093 7.35 4.51 12.14
11/6/2021 9:00:00 PM 6.38 43.484 0.093 7.34 4.54 12.13
11/6/2021 9:15:00 PM 6.32 43.376 0.093 7.33 4.57 12.13
11/6/2021 9:30:00 PM 6.26 43.268 0.093 7.32 4.59 12.14
11/6/2021 9:45:00 PM 6.21 43.178 0.093 7.32 4.6 12.13
11/6/2021 10:00:00 PM 6.15 43.07 0.093 7.31 4.61 12.14
11/6/2021 10:15:00 PM 6.09 42.962 0.093 7.3 4.63 12.15
11/6/2021 10:30:00 PM 6.02 42.836 0.093 7.3 4.65 12.16
11/6/2021 10:45:00 PM 5.96 42.728 0.093 7.29 4.58 12.18
11/6/2021 11:00:00 PM 5.91 42.638 0.094 7.29 4.55 12.2
11/6/2021 11:15:00 PM 5.85 42.53 0.094 7.28 4.6 12.21
11/6/2021 11:30:00 PM 5.79 42.422 0.094 7.28 4.55 12.22
11/6/2021 11:45:00 PM 5.73 42.314 0.094 7.27 4.54 12.24
11/7/2021 12:00:00 AM 5.67 42.206 0.094 7.27 4.59 12.26
11/7/2021 12:15:00 AM 5.61 42.098 0.094 7.26 4.57 12.27
11/7/2021 12:30:00 AM 5.57 42.026 0.094 7.25 4.6 12.28
11/7/2021 12:45:00 AM 5.52 41.936 0.094 7.25 4.59 12.29
11/7/2021 1:00:00 AM 5.47 41.846 0.094 7.24 4.56 12.31
11/7/2021 1:15:00 AM 5.41 41.738 0.094 7.24 4.6 12.32
11/7/2021 1:30:00 AM 5.37 41.666 0.094 7.23 4.72 12.34
11/7/2021 1:45:00 AM 5.32 41.576 0.094 7.23 4.59 12.36
11/7/2021 2:00:00 AM 5.28 41.504 0.094 7.23 4.61 12.37
11/7/2021 2:15:00 AM 5.23 41.414 0.094 7.23 4.61 12.38
11/7/2021 2:30:00 AM 5.19 41.342 0.094 7.23 4.59 12.4
11/7/2021 2:45:00 AM 5.14 41.252 0.094 7.23 4.68 12.41
11/7/2021 3:00:00 AM 5.1 41.18 0.094 7.23 4.68 12.43
11/7/2021 3:15:00 AM 5.06 41.108 0.094 7.23 4.66 12.44
11/7/2021 3:30:00 AM 5.02 41.036 0.094 7.23 4.59 12.45
11/7/2021 3:45:00 AM 4.97 40.946 0.094 7.23 4.67 12.46
11/7/2021 4:00:00 AM 4.93 40.874 0.094 7.23 4.63 12.47
11/7/2021 4:15:00 AM 4.88 40.784 0.095 7.23 4.69 12.48
11/7/2021 4:30:00 AM 4.84 40.712 0.095 7.23 4.63 12.49
11/7/2021 4:45:00 AM 4.8 40.64 0.094 7.23 4.57 12.5
11/7/2021 5:00:00 AM 4.76 40.568 0.095 7.23 4.66 12.53
11/7/2021 5:15:00 AM 4.72 40.496 0.095 7.23 4.64 12.54
11/7/2021 5:30:00 AM 4.67 40.406 0.095 7.23 4.66 12.56
11/7/2021 5:45:00 AM 4.63 40.334 0.095 7.23 4.6 12.57
11/7/2021 6:00:00 AM 4.59 40.262 0.095 7.23 4.58 12.58
11/7/2021 6:15:00 AM 4.55 40.19 0.095 7.23 4.62 12.61
11/7/2021 6:30:00 AM 4.51 40.118 0.095 7.23 4.66 12.62
11/7/2021 6:45:00 AM 4.47 40.046 0.095 7.23 4.62 12.63
11/7/2021 7:00:00 AM 4.43 39.974 0.095 7.23 4.55 12.64
11/7/2021 7:15:00 AM 4.39 39.902 0.095 7.23 4.5 12.66
11/7/2021 7:30:00 AM 4.34 39.812 0.095 7.23 4.31 12.67
11/7/2021 7:45:00 AM 4.3 39.74 0.095 7.23 4.39 12.68
11/7/2021 8:00:00 AM 4.26 39.668 0.095 7.24 4.63 12.71
11/7/2021 8:15:00 AM 4.23 39.614 0.095 7.24 4.43 12.76
11/7/2021 8:30:00 AM 4.2 39.56 0.095 7.25 4.46 12.83
11/7/2021 8:45:00 AM 4.18 39.524 0.095 7.27 4.35 12.93
11/7/2021 9:00:00 AM 4.17 39.506 0.095 7.29 4.37 13.03
11/7/2021 9:15:00 AM 4.17 39.506 0.095 7.31 4.49 13.12
11/7/2021 9:30:00 AM 4.18 39.524 0.095 7.33 4.35 13.21
11/7/2021 9:45:00 AM 4.2 39.56 0.094 7.35 4.45 13.28
11/7/2021 10:00:00 AM 4.22 39.596 0.094 7.38 4.41 13.36
11/7/2021 10:15:00 AM 4.25 39.65 0.094 7.4 4.49 13.42
11/7/2021 10:30:00 AM 4.29 39.722 0.094 7.43 4.31 13.5
11/7/2021 10:45:00 AM 4.35 39.83 0.094 7.45 4.27 13.58
11/7/2021 11:00:00 AM 4.43 39.974 0.094 7.48 4.42 13.64
11/7/2021 11:15:00 AM 4.53 40.154 0.094 7.51 4.27 13.71
11/7/2021 11:30:00 AM 4.63 40.334 0.094 7.53 4.32 13.74
11/7/2021 11:45:00 AM 4.75 40.55 0.094 7.56 4.36 13.78
11/7/2021 12:00:00 PM 4.85 40.73 0.094 7.58 4.28 13.8
11/7/2021 12:15:00 PM 4.98 40.964 0.094 7.6 4.43 13.83
11/7/2021 12:30:00 PM 5.13 41.234 0.094 7.62 4.24 13.83
11/7/2021 12:45:00 PM 5.26 41.468 0.094 7.64 4.23 13.84
11/7/2021 1:00:00 PM 5.39 41.702 0.093 7.67 4.25 13.83
11/7/2021 1:15:00 PM 5.5 41.9 0.093 7.68 4.39 13.81
11/7/2021 1:30:00 PM 5.57 42.026 0.093 7.69 4.58 13.8
11/7/2021 1:45:00 PM 5.64 42.152 0.093 7.7 4.76 13.79
11/7/2021 2:00:00 PM 5.72 42.296 0.093 7.71 4.31 13.77
11/7/2021 2:15:00 PM 5.8 42.44 0.093 7.73 4.31 13.74
11/7/2021 2:30:00 PM 5.88 42.584 0.093 7.74 4.46 13.71
11/7/2021 2:45:00 PM 5.95 42.71 0.093 7.75 4.31 13.69
11/7/2021 3:00:00 PM 6.03 42.854 0.093 7.75 4.45 13.61
11/7/2021 3:15:00 PM 6.09 42.962 0.093 7.74 4.34 13.52
11/7/2021 3:30:00 PM 6.15 43.07 0.093 7.74 4.36 13.48
11/7/2021 3:45:00 PM 6.26 43.268 0.093 7.74 4.38 13.46
11/7/2021 4:00:00 PM 6.3 43.34 0.093 7.74 4.38 13.39
11/7/2021 4:15:00 PM 6.34 43.412 0.093 7.72 4.36 13.3
11/7/2021 4:30:00 PM 6.38 43.484 0.093 7.7 4.41 13.21
11/7/2021 4:45:00 PM 6.41 43.538 0.093 7.68 4.38 13.13
11/7/2021 5:00:00 PM 6.43 43.574 0.093 7.65 4.29 13.03
11/7/2021 5:15:00 PM 6.45 43.61 0.093 7.63 4.32 12.94
11/7/2021 5:30:00 PM 6.48 43.664 0.093 7.6 4.35 12.85
11/7/2021 5:45:00 PM 6.51 43.718 0.093 7.58 4.33 12.76
11/7/2021 6:00:00 PM 6.53 43.754 0.093 7.55 4.39 12.66
11/7/2021 6:15:00 PM 6.55 43.79 0.093 7.52 4.33 12.57
11/7/2021 6:30:00 PM 6.56 43.808 0.093 7.5 4.41 12.49
11/7/2021 6:45:00 PM 6.56 43.808 0.093 7.48 4.35 12.41
11/7/2021 7:00:00 PM 6.56 43.808 0.093 7.46 4.41 12.35
11/7/2021 7:15:00 PM 6.55 43.79 0.093 7.44 4.36 12.3
11/7/2021 7:30:00 PM 6.54 43.772 0.093 7.43 4.52 12.26
11/7/2021 7:45:00 PM 6.52 43.736 0.093 7.41 4.43 12.21
11/7/2021 8:00:00 PM 6.49 43.682 0.093 7.4 4.47 12.18
11/7/2021 8:15:00 PM 6.46 43.628 0.093 7.38 4.64 12.15
11/7/2021 8:30:00 PM 6.43 43.574 0.093 7.37 5.18 12.13
11/7/2021 8:45:00 PM 6.4 43.52 0.094 7.36 4.52 12.12
11/7/2021 9:00:00 PM 6.37 43.466 0.094 7.35 5.14 12.1
11/7/2021 9:15:00 PM 6.33 43.394 0.094 7.34 4.47 12.09
11/7/2021 9:30:00 PM 6.29 43.322 0.094 7.34 4.49 12.08
11/7/2021 9:45:00 PM 6.25 43.25 0.094 7.33 4.49 12.09
11/7/2021 10:00:00 PM 6.21 43.178 0.094 7.32 4.75 12.09
11/7/2021 10:15:00 PM 6.16 43.088 0.094 7.32 4.68 12.09
11/7/2021 10:30:00 PM 6.11 42.998 0.094 7.31 4.52 12.09
11/7/2021 10:45:00 PM 6.06 42.908 0.094 7.31 4.84 12.09
11/7/2021 11:00:00 PM 6.01 42.818 0.094 7.3 4.56 12.11
11/7/2021 11:15:00 PM 5.96 42.728 0.094 7.3 4.57 12.13
11/7/2021 11:30:00 PM 5.91 42.638 0.094 7.3 4.56 12.14
11/7/2021 11:45:00 PM 5.86 42.548 0.094 7.29 4.55 12.15
11/8/2021 12:00:00 AM 5.81 42.458 0.095 7.29 4.59 12.16
11/8/2021 12:15:00 AM 5.76 42.368 0.095 7.29 4.57 12.18
11/8/2021 12:30:00 AM 5.72 42.296 0.095 7.28 4.77 12.19
11/8/2021 12:45:00 AM 5.67 42.206 0.095 7.28 4.65 12.21
11/8/2021 1:00:00 AM 5.63 42.134 0.095 7.28 4.49 12.22
11/8/2021 1:15:00 AM 5.58 42.044 0.095 7.27 4.52 12.23
11/8/2021 1:30:00 AM 5.54 41.972 0.095 7.27 4.51 12.23
11/8/2021 1:45:00 AM 5.5 41.9 0.095 7.26 4.48 12.25
11/8/2021 2:00:00 AM 5.46 41.828 0.095 7.26 4.53 12.25
11/8/2021 2:15:00 AM 5.43 41.774 0.095 7.25 4.57 12.27
11/8/2021 2:30:00 AM 5.39 41.702 0.095 7.25 4.54 12.28
11/8/2021 2:45:00 AM 5.36 41.648 0.095 7.25 4.31 12.29
11/8/2021 3:00:00 AM 5.32 41.576 0.095 7.24 4.4 12.31
11/8/2021 3:15:00 AM 5.29 41.522 0.095 7.24 4.27 12.32
11/8/2021 3:30:00 AM 5.25 41.45 0.095 7.24 4.33 12.33
11/8/2021 3:45:00 AM 5.22 41.396 0.095 7.24 4.3 12.34
11/8/2021 4:00:00 AM 5.19 41.342 0.095 7.23 4.3 12.35
11/8/2021 4:15:00 AM 5.16 41.288 0.095 7.23 4.32 12.37
11/8/2021 4:30:00 AM 5.12 41.216 0.095 7.23 4.28 12.37
11/8/2021 4:45:00 AM 5.09 41.162 0.095 7.23 4.34 12.39
11/8/2021 5:00:00 AM 5.06 41.108 0.095 7.24 4.32 12.4
11/8/2021 5:15:00 AM 4.9 40.82 0.095 7.24 4.44 12.44
11/8/2021 5:30:00 AM 4.87 40.766 0.095 7.24 4.31 12.45
11/8/2021 5:45:00 AM 4.84 40.712 0.095 7.24 4.45 12.46
11/8/2021 6:00:00 AM 4.81 40.658 0.095 7.24 4.31 12.48
11/8/2021 6:15:00 AM 4.78 40.604 0.095 7.24 4.36 12.49
11/8/2021 6:30:00 AM 4.74 40.532 0.095 7.24 4.39 12.5
11/8/2021 6:45:00 AM 4.72 40.496 0.096 7.24 4.47 12.52
11/8/2021 7:00:00 AM 4.69 40.442 0.095 7.24 4.39 12.56
11/8/2021 7:15:00 AM 4.66 40.388 0.095 7.25 4.33 12.62
11/8/2021 7:30:00 AM 4.64 40.352 0.095 7.26 4.32 12.7
11/8/2021 7:45:00 AM 4.63 40.334 0.095 7.28 4.35 12.8
11/8/2021 8:00:00 AM 4.64 40.352 0.095 7.3 4.24 12.92
11/8/2021 8:15:00 AM 4.65 40.37 0.095 7.32 4.19 13.02
11/8/2021 8:30:00 AM 4.66 40.388 0.095 7.35 4.2 13.1
11/8/2021 8:45:00 AM 4.69 40.442 0.095 7.37 4.22 13.19
11/8/2021 9:00:00 AM 4.73 40.514 0.095 7.39 4.28 13.27
11/8/2021 9:15:00 AM 4.77 40.586 0.095 7.42 4.21 13.36
11/8/2021 9:30:00 AM 4.84 40.712 0.095 7.45 4.23 13.42
11/8/2021 9:45:00 AM 4.91 40.838 0.095 7.48 4.2 13.5
11/8/2021 10:00:00 AM 5.01 41.018 0.095 7.52 4.26 13.6
11/8/2021 10:15:00 AM 5.13 41.234 0.095 7.55 4.53 13.65
11/8/2021 10:30:00 AM 5.25 41.45 0.095 7.58 4.25 13.69
11/8/2021 10:45:00 AM 5.4 41.72 0.094 7.62 4.44 13.74
11/8/2021 11:00:00 AM 5.55 41.99 0.094 7.65 4.26 13.76
11/8/2021 11:15:00 AM 5.68 42.224 0.094 7.68 4.23 13.79
11/8/2021 11:30:00 AM 5.84 42.512 0.094 7.71 4.23 13.8
11/8/2021 11:45:00 AM 6.01 42.818 0.094 7.74 4.27 13.79
11/8/2021 12:00:00 PM 6.15 43.07 0.094 7.77 4.17 13.79
11/8/2021 12:15:00 PM 6.28 43.304 0.094 7.79 4.27 13.8
11/8/2021 12:30:00 PM 6.34 43.412 0.094 7.82 4.18 13.78
11/8/2021 12:45:00 PM 6.44 43.592 0.094 7.83 4.17 13.74
11/8/2021 1:00:00 PM 6.54 43.772 0.094 7.86 4.19 13.73
11/8/2021 1:15:00 PM 6.62 43.916 0.094 7.86 4.14 13.7
11/8/2021 1:30:00 PM 6.72 44.096 0.094 7.88 4.2 13.65
11/8/2021 1:45:00 PM 6.81 44.258 0.094 7.89 4.34 13.61
11/8/2021 2:00:00 PM 6.89 44.402 0.094 7.9 4.22 13.57
11/8/2021 2:15:00 PM 6.94 44.492 0.093 7.87 4.2 13.47
11/8/2021 2:30:00 PM 7.02 44.636 0.093 7.87 4.13 13.41
11/8/2021 2:45:00 PM 7.12 44.816 0.093 7.88 4.2 13.37
11/8/2021 3:00:00 PM 7.17 44.906 0.093 7.87 4.24 13.29
11/8/2021 3:15:00 PM 7.22 44.996 0.093 7.83 4.21 13.17
11/8/2021 3:30:00 PM 7.26 45.068 0.093 7.81 4.18 13.07
11/8/2021 3:45:00 PM 7.31 45.158 0.093 7.77 4.4 12.97
11/8/2021 4:00:00 PM 7.34 45.212 0.093 7.73 4.19 12.85
11/8/2021 4:15:00 PM 7.37 45.266 0.093 7.7 4.17 12.75
11/8/2021 4:30:00 PM 7.41 45.338 0.093 7.66 4.16 12.64
11/8/2021 4:45:00 PM 7.45 45.41 0.093 7.63 4.29 12.54
11/8/2021 5:00:00 PM 7.49 45.482 0.093 7.59 4.27 12.43
11/8/2021 5:15:00 PM 7.52 45.536 0.093 7.55 4.23 12.32
11/8/2021 5:30:00 PM 7.54 45.572 0.093 7.53 4.2 12.24
11/8/2021 5:45:00 PM 7.56 45.608 0.093 7.5 4.36 12.15
11/8/2021 6:00:00 PM 7.57 45.626 0.093 7.48 4.49 12.09
11/8/2021 6:15:00 PM 7.58 45.644 0.093 7.46 4.27 12.02
11/8/2021 6:30:00 PM 7.57 45.626 0.093 7.44 4.31 11.96
11/8/2021 6:45:00 PM 7.57 45.626 0.094 7.42 4.35 11.92
11/8/2021 7:00:00 PM 7.55 45.59 0.094 7.41 4.39 11.88
11/8/2021 7:15:00 PM 7.54 45.572 0.094 7.4 4.38 11.84
11/8/2021 7:30:00 PM 7.52 45.536 0.094 7.38 4.35 11.82
11/8/2021 7:45:00 PM 7.5 45.5 0.094 7.37 4.41 11.79
11/8/2021 8:00:00 PM 7.47 45.446 0.094 7.36 4.35 11.77
11/8/2021 8:15:00 PM 7.45 45.41 0.094 7.35 4.49 11.75
11/8/2021 8:30:00 PM 7.42 45.356 0.094 7.34 4.56 11.74
11/8/2021 8:45:00 PM 7.39 45.302 0.094 7.34 4.55 11.73
11/8/2021 9:00:00 PM 7.36 45.248 0.094 7.33 4.56 11.72
11/8/2021 9:15:00 PM 7.33 45.194 0.094 7.33 4.44 11.72
11/8/2021 9:30:00 PM 7.29 45.122 0.094 7.32 4.51 11.72
11/8/2021 9:45:00 PM 7.25 45.05 0.095 7.31 4.52 11.72
11/8/2021 10:00:00 PM 7.21 44.978 0.095 7.31 4.59 11.73
11/8/2021 10:15:00 PM 7.17 44.906 0.095 7.3 4.56 11.74
11/8/2021 10:30:00 PM 7.12 44.816 0.095 7.3 4.39 11.75
11/8/2021 10:45:00 PM 7.07 44.726 0.095 7.3 4.86 11.76
11/8/2021 11:00:00 PM 7.02 44.636 0.095 7.29 4.63 11.77
11/8/2021 11:15:00 PM 6.98 44.564 0.095 7.29 4.41 11.78
11/8/2021 11:30:00 PM 6.93 44.474 0.095 7.29 4.48 11.8
11/8/2021 11:45:00 PM 6.88 44.384 0.095 7.29 4.43 11.81
11/9/2021 12:00:00 AM 6.83 44.294 0.095 7.29 4.59 11.82
11/9/2021 12:15:00 AM 6.79 44.222 0.095 7.28 4.39 11.83
11/9/2021 12:30:00 AM 6.74 44.132 0.095 7.28 4.44 11.83
11/9/2021 12:45:00 AM 6.71 44.078 0.095 7.28 4.43 11.84
11/9/2021 1:00:00 AM 6.67 44.006 0.096 7.27 4.58 11.85
11/9/2021 1:15:00 AM 6.63 43.934 0.096 7.27 4.43 11.87
11/9/2021 1:30:00 AM 6.59 43.862 0.096 7.27 4.44 11.89
11/9/2021 1:45:00 AM 6.55 43.79 0.096 7.27 4.46 11.9
11/9/2021 2:00:00 AM 6.51 43.718 0.096 7.27 4.41 11.91
11/9/2021 2:15:00 AM 6.48 43.664 0.096 7.27 4.57 11.91
11/9/2021 2:30:00 AM 6.45 43.61 0.096 7.27 4.48 11.93
11/9/2021 2:45:00 AM 6.42 43.556 0.096 7.26 4.52 11.94
11/9/2021 3:00:00 AM 6.38 43.484 0.096 7.26 4.55 11.95
11/9/2021 3:15:00 AM 6.35 43.43 0.096 7.26 4.48 11.95
11/9/2021 3:30:00 AM 6.32 43.376 0.096 7.26 4.52 11.97
11/9/2021 3:45:00 AM 6.29 43.322 0.096 7.26 4.55 11.97
11/9/2021 4:00:00 AM 6.26 43.268 0.096 7.26 4.49 11.98
11/9/2021 4:15:00 AM 6.23 43.214 0.096 7.25 4.51 11.99
11/9/2021 4:30:00 AM 6.2 43.16 0.096 7.25 4.5 12
11/9/2021 4:45:00 AM 6.17 43.106 0.096 7.25 4.48 12
11/9/2021 5:00:00 AM 6.14 43.052 0.096 7.25 4.48 12.01
11/9/2021 5:15:00 AM 6.11 42.998 0.096 7.25 4.6 12.02
11/9/2021 5:30:00 AM 6.08 42.944 0.096 7.25 4.52 12.02
11/9/2021 5:45:00 AM 6.05 42.89 0.096 7.25 4.62 12.03
11/9/2021 6:00:00 AM 6.02 42.836 0.096 7.24 4.52 12.04
11/9/2021 6:15:00 AM 5.99 42.782 0.096 7.24 4.57 12.04
11/9/2021 6:30:00 AM 5.96 42.728 0.096 7.24 4.56 12.07
11/9/2021 6:45:00 AM 5.93 42.674 0.096 7.24 4.54 12.09
11/9/2021 7:00:00 AM 5.9 42.62 0.096 7.24 4.58 12.12
11/9/2021 7:15:00 AM 5.88 42.584 0.096 7.25 4.57 12.2
11/9/2021 7:30:00 AM 5.86 42.548 0.096 7.26 4.59 12.29
11/9/2021 7:45:00 AM 5.85 42.53 0.096 7.28 4.49 12.39
11/9/2021 8:00:00 AM 5.85 42.53 0.096 7.3 4.55 12.52
11/9/2021 8:15:00 AM 5.86 42.548 0.096 7.33 4.51 12.66
11/9/2021 8:30:00 AM 5.87 42.566 0.096 7.35 4.58 12.76
11/9/2021 8:45:00 AM 5.89 42.602 0.096 7.38 4.56 12.86
11/9/2021 9:00:00 AM 5.93 42.674 0.096 7.42 4.55 12.96
11/9/2021 9:15:00 AM 5.98 42.764 0.096 7.44 4.53 13.05
11/9/2021 9:30:00 AM 6.04 42.872 0.096 7.48 4.53 13.15
11/9/2021 9:45:00 AM 6.11 42.998 0.096 7.53 4.51 13.25
11/9/2021 10:00:00 AM 6.21 43.178 0.096 7.57 4.5 13.34
11/9/2021 10:15:00 AM 6.31 43.358 0.095 7.62 4.53 13.44
11/9/2021 10:30:00 AM 6.42 43.556 0.095 7.67 4.46 13.51
11/9/2021 10:45:00 AM 6.54 43.772 0.095 7.71 4.46 13.56
11/9/2021 11:00:00 AM 6.68 44.024 0.095 7.76 4.53 13.61
11/9/2021 11:15:00 AM 6.82 44.276 0.095 7.82 5.75 13.65
11/9/2021 11:30:00 AM 6.96 44.528 0.095 7.87 4.44 13.67
11/9/2021 11:45:00 AM 7.1 44.78 0.095 7.92 4.53 13.7
11/9/2021 12:00:00 PM 7.24 45.032 0.095 7.97 4.48 13.7
11/9/2021 12:15:00 PM 7.33 45.194 0.095 8.01 4.47 13.68
11/9/2021 12:30:00 PM 7.43 45.374 0.095 8.03 4.43 13.68
11/9/2021 12:45:00 PM 7.5 45.5 0.095 8.06 4.5 13.68
11/9/2021 1:00:00 PM 7.59 45.662 0.094 8.1 4.58 13.67
11/9/2021 1:15:00 PM 7.67 45.806 0.094 8.12 4.43 13.64
11/9/2021 1:30:00 PM 7.75 45.95 0.094 8.14 4.63 13.63
11/9/2021 1:45:00 PM 7.8 46.04 0.094 8.17 4.52 13.59
11/9/2021 2:00:00 PM 7.91 46.238 0.094 8.19 4.55 13.54
11/9/2021 2:15:00 PM 7.95 46.31 0.094 8.2 4.52 13.5
11/9/2021 2:30:00 PM 8.01 46.418 0.094 8.21 4.53 13.46
11/9/2021 2:45:00 PM 8.11 46.598 0.094 8.23 4.49 13.42
11/9/2021 3:00:00 PM 8.14 46.652 0.094 8.22 4.51 13.34
11/9/2021 3:15:00 PM 8.19 46.742 0.094 8.16 4.51 13.21
11/9/2021 3:30:00 PM 8.2 46.76 0.094 8.11 4.58 13.11
11/9/2021 3:45:00 PM 8.25 46.85 0.094 8.07 4.48 13
11/9/2021 4:00:00 PM 8.29 46.922 0.094 8.01 4.54 12.89
11/9/2021 4:15:00 PM 8.33 46.994 0.094 7.96 4.55 12.79
11/9/2021 4:30:00 PM 8.38 47.084 0.094 7.9 4.62 12.65
11/9/2021 4:45:00 PM 8.41 47.138 0.094 7.82 4.56 12.48
11/9/2021 5:00:00 PM 8.44 47.192 0.094 7.76 4.53 12.33
11/9/2021 5:15:00 PM 8.48 47.264 0.094 7.69 4.56 12.19
11/9/2021 5:30:00 PM 8.52 47.336 0.094 7.64 4.62 12.06
11/9/2021 5:45:00 PM 8.55 47.39 0.094 7.6 4.63 11.95
11/9/2021 6:00:00 PM 8.57 47.426 0.094 7.57 4.65 11.86
11/9/2021 6:15:00 PM 8.58 47.444 0.094 7.53 4.58 11.78
11/9/2021 6:30:00 PM 8.6 47.48 0.094 7.5 4.67 11.7
11/9/2021 6:45:00 PM 8.61 47.498 0.094 7.48 4.6 11.64
11/9/2021 7:00:00 PM 8.63 47.534 0.094 7.45 4.65 11.59
11/9/2021 7:15:00 PM 8.64 47.552 0.094 7.43 4.66 11.54
11/9/2021 7:30:00 PM 8.65 47.57 0.094 7.42 4.61 11.5
11/9/2021 7:45:00 PM 8.64 47.552 0.094 7.4 4.66 11.46
11/9/2021 8:00:00 PM 8.64 47.552 0.094 7.38 4.71 11.42
11/9/2021 8:15:00 PM 8.64 47.552 0.095 7.36 4.74 11.38
11/9/2021 8:30:00 PM 8.65 47.57 0.095 7.35 4.64 11.36
11/9/2021 8:45:00 PM 8.65 47.57 0.095 7.34 4.64 11.34
11/9/2021 9:00:00 PM 8.64 47.552 0.095 7.33 4.76 11.32
11/9/2021 9:15:00 PM 8.64 47.552 0.095 7.32 4.71 11.3
11/9/2021 9:30:00 PM 8.63 47.534 0.095 7.31 4.64 11.29
11/9/2021 9:45:00 PM 8.62 47.516 0.095 7.31 4.67 11.28
11/9/2021 10:00:00 PM 8.61 47.498 0.095 7.3 4.6 11.27
11/9/2021 10:15:00 PM 8.59 47.462 0.095 7.3 4.65 11.26
11/9/2021 10:30:00 PM 8.58 47.444 0.096 7.3 4.77 11.26
11/9/2021 10:45:00 PM 8.56 47.408 0.096 7.29 4.7 11.25
11/9/2021 11:00:00 PM 8.55 47.39 0.096 7.29 4.71 11.25
11/9/2021 11:15:00 PM 8.54 47.372 0.096 7.28 4.66 11.26
11/9/2021 11:30:00 PM 8.51 47.318 0.096 7.28 4.65 11.25
11/9/2021 11:45:00 PM 8.5 47.3 0.096 7.28 4.64 11.25
11/10/2021 12:00:00 AM 8.48 47.264 0.096 7.27 4.71 11.26
11/10/2021 12:15:00 AM 8.47 47.246 0.096 7.27 4.66 11.26
11/10/2021 12:30:00 AM 8.45 47.21 0.096 7.27 4.69 11.27
11/10/2021 12:45:00 AM 8.44 47.192 0.096 7.27 4.63 11.27
11/10/2021 1:00:00 AM 8.43 47.174 0.097 7.26 4.64 11.27
11/10/2021 1:15:00 AM 8.41 47.138 0.097 7.26 4.6 11.27
11/10/2021 1:30:00 AM 8.4 47.12 0.097 7.26 4.66 11.27
11/10/2021 1:45:00 AM 8.38 47.084 0.097 7.26 4.6 11.28
11/10/2021 2:00:00 AM 8.37 47.066 0.097 7.26 4.57 11.28
11/10/2021 2:15:00 AM 8.35 47.03 0.097 7.26 4.69 11.28
11/10/2021 2:30:00 AM 8.35 47.03 0.097 7.26 4.67 11.28
11/10/2021 2:45:00 AM 8.34 47.012 0.097 7.26 4.71 11.28
11/10/2021 3:00:00 AM 8.33 46.994 0.097 7.25 4.74 11.28
11/10/2021 3:15:00 AM 8.31 46.958 0.097 7.25 4.72 11.28
11/10/2021 3:30:00 AM 8.29 46.922 0.097 7.25 4.78 11.28
11/10/2021 3:45:00 AM 8.28 46.904 0.097 7.25 4.69 11.28
11/10/2021 4:00:00 AM 8.26 46.868 0.097 7.25 4.73 11.29
11/10/2021 4:15:00 AM 8.25 46.85 0.097 7.25 4.66 11.29
11/10/2021 4:30:00 AM 8.24 46.832 0.097 7.25 4.68 11.3
11/10/2021 4:45:00 AM 8.22 46.796 0.097 7.25 4.64 11.3
11/10/2021 5:00:00 AM 8.19 46.742 0.097 7.25 4.6 11.31
11/10/2021 5:15:00 AM 8.17 46.706 0.097 7.25 4.73 11.31
11/10/2021 5:30:00 AM 8.15 46.67 0.097 7.25 4.78 11.32
11/10/2021 5:45:00 AM 8.12 46.616 0.097 7.25 4.69 11.32
11/10/2021 6:00:00 AM 8.1 46.58 0.097 7.25 4.58 11.33
11/10/2021 6:15:00 AM 8.08 46.544 0.097 7.25 4.65 11.34
11/10/2021 6:30:00 AM 8.05 46.49 0.097 7.25 4.6 11.34
11/10/2021 6:45:00 AM 8.04 46.472 0.097 7.25 4.64 11.35
11/10/2021 7:00:00 AM 8.04 46.472 0.098 7.25 4.72 11.36
11/10/2021 7:15:00 AM 8.04 46.472 0.098 7.25 4.75 11.38
11/10/2021 7:30:00 AM 8.03 46.454 0.098 7.26 4.63 11.42
11/10/2021 7:45:00 AM 8.04 46.472 0.097 7.27 4.71 11.48
11/10/2021 8:00:00 AM 8.04 46.472 0.097 7.29 4.55 11.6
11/10/2021 8:15:00 AM 8.06 46.508 0.097 7.31 6.56 11.76
11/10/2021 8:30:00 AM 8.06 46.508 0.097 7.33 5.26 11.84
11/10/2021 8:45:00 AM 8.1 46.58 0.097 7.37 5.35 12.04
11/10/2021 9:00:00 AM 8.14 46.652 0.097 7.4 5.59 12.18
11/10/2021 9:15:00 AM 8.19 46.742 0.097 7.44 5.68 12.29
11/10/2021 9:30:00 AM 8.23 46.814 0.097 7.48 5.82 12.42
11/10/2021 9:45:00 AM 8.32 46.976 0.097 7.54 5.69 12.54
11/10/2021 10:00:00 AM 8.42 47.156 0.097 7.6 5.56 12.67
11/10/2021 10:15:00 AM 8.5 47.3 0.097 7.66 5.12 12.78
11/10/2021 10:30:00 AM 8.61 47.498 0.096 7.73 5.14 12.89
11/10/2021 10:45:00 AM 8.74 47.732 0.096 7.81 5.84 12.99
11/10/2021 11:00:00 AM 8.87 47.966 0.096 7.88 6.24 13.06
11/10/2021 11:15:00 AM 8.99 48.182 0.096 7.94 6.2 13.1
11/10/2021 11:30:00 AM 9.11 48.398 0.096 8.03 5.91 13.15
11/10/2021 11:45:00 AM 9.29 48.722 0.096 8.1 5.77 13.19
11/10/2021 12:00:00 PM 9.42 48.956 0.096 8.16 5.91 13.23
11/10/2021 12:15:00 PM 9.5 49.1 0.096 8.22 5.8 13.24
11/10/2021 12:30:00 PM 9.55 49.19 0.096 8.26 5.69 13.24
11/10/2021 12:45:00 PM 9.59 49.262 0.096 8.29 5.69 13.21
11/10/2021 1:00:00 PM 9.67 49.406 0.096 8.33 5.84 13.2
11/10/2021 1:15:00 PM 9.7 49.46 0.096 8.36 5.68 13.18
11/10/2021 1:30:00 PM 9.73 49.514 0.096 8.37 5.36 13.15
11/10/2021 1:45:00 PM 9.75 49.55 0.096 8.37 5.37 13.1
11/10/2021 2:00:00 PM 9.77 49.586 0.095 8.38 5.61 13.05
11/10/2021 2:15:00 PM 9.77 49.586 0.095 8.33 5.16 12.95
11/10/2021 2:30:00 PM 9.78 49.604 0.095 8.33 4.69 12.88
11/10/2021 2:45:00 PM 9.82 49.676 0.095 8.32 4.64 12.85
11/10/2021 3:00:00 PM 9.83 49.694 0.095 8.29 4.9 12.76
11/10/2021 3:15:00 PM 9.82 49.676 0.095 8.24 4.74 12.64
11/10/2021 3:30:00 PM 9.82 49.676 0.095 8.16 4.68 12.52
11/10/2021 3:45:00 PM 9.82 49.676 0.095 8.09 5.16 12.4
11/10/2021 4:00:00 PM 9.82 49.676 0.095 8.02 4.6 12.26
11/10/2021 4:15:00 PM 9.8 49.64 0.095 7.93 4.74 12.13
11/10/2021 4:30:00 PM 9.8 49.64 0.095 7.86 5.17 11.99
11/10/2021 4:45:00 PM 9.79 49.622 0.095 7.79 4.54 11.86
11/10/2021 5:00:00 PM 9.79 49.622 0.095 7.73 4.94 11.74
11/10/2021 5:15:00 PM 9.77 49.586 0.095 7.68 4.59 11.63
11/10/2021 5:30:00 PM 9.76 49.568 0.095 7.64 4.8 11.55
11/10/2021 5:45:00 PM 9.73 49.514 0.095 7.6 4.52 11.47
11/10/2021 6:00:00 PM 9.69 49.442 0.095 7.57 4.62 11.41
11/10/2021 6:15:00 PM 9.66 49.388 0.095 7.55 4.63 11.36
11/10/2021 6:30:00 PM 9.62 49.316 0.095 7.52 4.72 11.31
11/10/2021 6:45:00 PM 9.57 49.226 0.095 7.5 4.67 11.26
11/10/2021 7:00:00 PM 9.53 49.154 0.095 7.48 4.61 11.24
11/10/2021 7:15:00 PM 9.48 49.064 0.095 7.46 4.74 11.21
11/10/2021 7:30:00 PM 9.44 48.992 0.095 7.44 4.64 11.18
11/10/2021 7:45:00 PM 9.38 48.884 0.095 7.43 4.67 11.16
11/10/2021 8:00:00 PM 9.33 48.794 0.095 7.42 4.6 11.15
11/10/2021 8:15:00 PM 9.28 48.704 0.096 7.4 4.55 11.14
11/10/2021 8:30:00 PM 9.22 48.596 0.096 7.39 4.65 11.12
11/10/2021 8:45:00 PM 9.16 48.488 0.096 7.38 4.64 11.12
11/10/2021 9:00:00 PM 9.1 48.38 0.096 7.37 4.55 11.13
11/10/2021 9:15:00 PM 9.04 48.272 0.096 7.36 4.62 11.14
11/10/2021 9:30:00 PM 8.98 48.164 0.096 7.35 4.68 11.15
11/10/2021 9:45:00 PM 8.92 48.056 0.096 7.35 4.63 11.15
11/10/2021 10:00:00 PM 8.86 47.948 0.096 7.34 4.68 11.16
11/10/2021 10:15:00 PM 8.8 47.84 0.097 7.34 4.81 11.18
11/10/2021 10:30:00 PM 8.73 47.714 0.097 7.33 4.61 11.2
11/10/2021 10:45:00 PM 8.66 47.588 0.097 7.33 4.91 11.21
11/10/2021 11:00:00 PM 8.59 47.462 0.097 7.32 4.64 11.22
11/10/2021 11:15:00 PM 8.52 47.336 0.097 7.32 4.54 11.24
11/10/2021 11:30:00 PM 8.45 47.21 0.097 7.32 4.7 11.25
11/10/2021 11:45:00 PM 8.37 47.066 0.097 7.31 4.64 11.28
11/11/2021 12:00:00 AM 8.3 46.94 0.098 7.31 4.65 11.29
11/11/2021 12:15:00 AM 8.23 46.814 0.098 7.31 4.69 11.32
11/11/2021 12:30:00 AM 8.16 46.688 0.098 7.31 4.67 11.35
11/11/2021 12:45:00 AM 8.08 46.544 0.098 7.3 4.65 11.37
11/11/2021 1:00:00 AM 8.01 46.418 0.098 7.3 4.67 11.38
11/11/2021 1:15:00 AM 7.94 46.292 0.098 7.29 4.7 11.4
11/11/2021 1:30:00 AM 7.86 46.148 0.098 7.29 4.76 11.43
11/11/2021 1:45:00 AM 7.8 46.04 0.098 7.27 4.7 11.46
11/11/2021 2:00:00 AM 7.73 45.914 0.098 7.26 4.68 11.48
11/11/2021 2:15:00 AM 7.67 45.806 0.098 7.24 4.66 11.49
11/11/2021 2:30:00 AM 7.61 45.698 0.098 7.23 4.62 11.51
11/11/2021 2:45:00 AM 7.57 45.626 0.098 7.23 4.55 11.54
11/11/2021 3:00:00 AM 7.52 45.536 0.098 7.23 4.6 11.56
11/11/2021 3:15:00 AM 7.48 45.464 0.098 7.24 4.59 11.57
11/11/2021 3:30:00 AM 7.45 45.41 0.099 7.24 4.59 11.58
11/11/2021 3:45:00 AM 7.42 45.356 0.099 7.24 4.65 11.59
11/11/2021 4:00:00 AM 7.4 45.32 0.099 7.25 4.66 11.6
11/11/2021 4:15:00 AM 7.35 45.23 0.099 7.25 4.65 11.61
11/11/2021 4:30:00 AM 7.3 45.14 0.099 7.25 4.57 11.63
11/11/2021 4:45:00 AM 7.26 45.068 0.099 7.25 4.55 11.64
11/11/2021 5:00:00 AM 7.22 44.996 0.099 7.25 4.62 11.66
11/11/2021 5:15:00 AM 7.19 44.942 0.099 7.25 4.64 11.66
11/11/2021 5:30:00 AM 7.15 44.87 0.099 7.26 4.35 11.68
11/11/2021 5:45:00 AM 7.11 44.798 0.099 7.25 4.44 11.7
11/11/2021 6:00:00 AM 7.08 44.744 0.099 7.26 4.37 11.71
11/11/2021 6:15:00 AM 7.04 44.672 0.099 7.25 4.33 11.72
11/11/2021 6:30:00 AM 7 44.6 0.099 7.26 4.53 11.73
11/11/2021 6:45:00 AM 6.96 44.528 0.099 7.25 4.47 11.73
11/11/2021 7:00:00 AM 6.92 44.456 0.099 7.26 4.92 11.77
11/11/2021 7:15:00 AM 6.89 44.402 0.099 7.27 4.34 11.84
11/11/2021 7:30:00 AM 6.86 44.348 0.099 7.29 4.36 11.97
11/11/2021 7:45:00 AM 6.85 44.33 0.098 7.31 4.36 12.12
11/11/2021 8:00:00 AM 6.85 44.33 0.098 7.35 4.38 12.32
11/11/2021 8:15:00 AM 6.84 44.312 0.098 7.39 4.39 12.46
11/11/2021 8:30:00 AM 6.84 44.312 0.098 7.42 4.36 12.59
11/11/2021 8:45:00 AM 6.87 44.366 0.098 7.47 4.39 12.76
11/11/2021 9:00:00 AM 6.9 44.42 0.098 7.51 4.38 12.87
11/11/2021 9:15:00 AM 6.95 44.51 0.098 7.57 4.31 13.04
11/11/2021 9:30:00 AM 7.01 44.618 0.098 7.63 4.47 13.17
11/11/2021 9:45:00 AM 7.07 44.726 0.098 7.71 4.3 13.33
11/11/2021 10:00:00 AM 7.16 44.888 0.097 7.79 4.31 13.43
11/11/2021 10:15:00 AM 7.23 45.014 0.097 7.87 4.29 13.53
11/11/2021 10:30:00 AM 7.29 45.122 0.097 7.94 4.52 13.62
11/11/2021 10:45:00 AM 7.36 45.248 0.097 8.03 4.44 13.7
11/11/2021 11:00:00 AM 7.46 45.428 0.097 8.14 4.43 13.8
11/11/2021 11:15:00 AM 7.53 45.554 0.097 8.23 4.5 13.87
11/11/2021 11:30:00 AM 7.6 45.68 0.097 8.32 4.47 13.92
11/11/2021 11:45:00 AM 7.67 45.806 0.097 8.38 4.48 13.95
11/11/2021 12:00:00 PM 7.72 45.896 0.096 8.43 4.58 13.95
11/11/2021 12:15:00 PM 7.79 46.022 0.096 8.48 4.44 13.98
11/11/2021 12:30:00 PM 7.87 46.166 0.096 8.54 4.48 14
11/11/2021 12:45:00 PM 7.92 46.256 0.096 8.57 4.5 13.97
11/11/2021 1:00:00 PM 7.98 46.364 0.096 8.61 4.54 13.99
11/11/2021 1:15:00 PM 8.12 46.616 0.096 8.66 4.48 14.02
11/11/2021 1:30:00 PM 8.2 46.76 0.096 8.68 4.71 13.98
11/11/2021 1:45:00 PM 8.2 46.76 0.096 8.69 4.73 13.96
11/11/2021 2:00:00 PM 8.26 46.868 0.096 8.72 4.69 13.94
11/11/2021 2:15:00 PM 8.29 46.922 0.096 8.72 4.46 13.86
11/11/2021 2:30:00 PM 8.36 47.048 0.095 8.74 4.41 13.86
11/11/2021 2:45:00 PM 8.39 47.102 0.095 8.74 4.35 13.77
11/11/2021 3:00:00 PM 8.42 47.156 0.095 8.74 4.43 13.69
11/11/2021 3:15:00 PM 8.48 47.264 0.095 8.73 4.47 13.61
11/11/2021 3:30:00 PM 8.51 47.318 0.095 8.7 4.9 13.49
11/11/2021 3:45:00 PM 8.54 47.372 0.095 8.68 4.4 13.4
11/11/2021 4:00:00 PM 8.56 47.408 0.095 8.63 4.39 13.26
11/11/2021 4:15:00 PM 8.56 47.408 0.095 8.53 4.43 13.05
11/11/2021 4:30:00 PM 8.57 47.426 0.095 8.4 4.39 12.84
11/11/2021 4:45:00 PM 8.58 47.444 0.095 8.27 4.42 12.65
11/11/2021 5:00:00 PM 8.59 47.462 0.095 8.12 4.45 12.45
11/11/2021 5:15:00 PM 8.59 47.462 0.095 8.01 4.38 12.3
11/11/2021 5:30:00 PM 8.59 47.462 0.095 7.91 4.48 12.16
11/11/2021 5:45:00 PM 8.58 47.444 0.095 7.83 4.51 12.03
11/11/2021 6:00:00 PM 8.58 47.444 0.095 7.77 4.63 11.93
11/11/2021 6:15:00 PM 8.57 47.426 0.095 7.71 4.55 11.85
11/11/2021 6:30:00 PM 8.57 47.426 0.095 7.66 4.48 11.76
11/11/2021 6:45:00 PM 8.57 47.426 0.095 7.62 4.53 11.7
11/11/2021 7:00:00 PM 8.56 47.408 0.095 7.59 4.56 11.64
11/11/2021 7:15:00 PM 8.56 47.408 0.095 7.56 4.64 11.58
11/11/2021 7:30:00 PM 8.56 47.408 0.095 7.53 4.62 11.54
11/11/2021 7:45:00 PM 8.58 47.444 0.095 7.51 4.59 11.49
11/11/2021 8:00:00 PM 8.6 47.48 0.095 7.49 4.69 11.46
11/11/2021 8:15:00 PM 8.62 47.516 0.096 7.47 4.6 11.43
11/11/2021 8:30:00 PM 8.64 47.552 0.096 7.46 4.52 11.39
11/11/2021 8:45:00 PM 8.66 47.588 0.096 7.45 4.53 11.36
11/11/2021 9:00:00 PM 8.68 47.624 0.096 7.43 4.66 11.34
11/11/2021 9:15:00 PM 8.71 47.678 0.096 7.42 4.62 11.31
11/11/2021 9:30:00 PM 8.73 47.714 0.096 7.41 4.59 11.29
11/11/2021 9:45:00 PM 8.74 47.732 0.096 7.4 4.61 11.26
11/11/2021 10:00:00 PM 8.77 47.786 0.096 7.4 4.59 11.25
11/11/2021 10:15:00 PM 8.8 47.84 0.096 7.39 4.62 11.23
11/11/2021 10:30:00 PM 8.83 47.894 0.097 7.38 4.55 11.21
11/11/2021 10:45:00 PM 8.88 47.984 0.097 7.37 4.57 11.19
11/11/2021 11:00:00 PM 8.9 48.02 0.097 7.37 4.7 11.18
11/11/2021 11:15:00 PM 8.94 48.092 0.097 7.37 4.66 11.15
11/11/2021 11:30:00 PM 8.96 48.128 0.097 7.36 4.62 11.14
11/11/2021 11:45:00 PM 8.98 48.164 0.097 7.36 4.66 11.13
11/12/2021 12:00:00 AM 9 48.2 0.097 7.36 4.61 11.11
11/12/2021 12:15:00 AM 9.02 48.236 0.097 7.35 4.61 11.1
11/12/2021 12:30:00 AM 9.03 48.254 0.098 7.35 4.56 11.09
11/12/2021 12:45:00 AM 9.04 48.272 0.098 7.35 4.6 11.08
11/12/2021 1:00:00 AM 9.06 48.308 0.098 7.35 4.57 11.07
11/12/2021 1:15:00 AM 9.09 48.362 0.098 7.34 4.58 11.05
11/12/2021 1:30:00 AM 9.12 48.416 0.098 7.34 4.61 11.04
11/12/2021 1:45:00 AM 9.16 48.488 0.098 7.34 4.63 11.02
11/12/2021 2:00:00 AM 9.19 48.542 0.098 7.34 4.63 11.01
11/12/2021 2:15:00 AM 9.22 48.596 0.099 7.34 4.63 11
11/12/2021 2:30:00 AM 9.26 48.668 0.099 7.34 4.78 10.98
11/12/2021 2:45:00 AM 9.3 48.74 0.099 7.34 4.7 10.98
11/12/2021 3:00:00 AM 9.39 48.902 0.098 7.34 5.2 10.97
11/12/2021 3:15:00 AM 9.47 49.046 0.098 7.34 5.09 10.95
11/12/2021 3:30:00 AM 9.53 49.154 0.098 7.34 5.67 10.93
11/12/2021 3:45:00 AM 9.59 49.262 0.097 7.34 6.44 10.91
11/12/2021 4:00:00 AM 9.66 49.388 0.097 7.33 5.73 10.89
11/12/2021 4:15:00 AM 9.7 49.46 0.097 7.33 5.94 10.86
11/12/2021 4:30:00 AM 9.78 49.604 0.096 7.33 6.42 10.84
11/12/2021 4:45:00 AM 9.88 49.784 0.096 7.32 6.77 10.81
11/12/2021 5:00:00 AM 9.92 49.856 0.096 7.32 7.23 10.79
11/12/2021 5:15:00 AM 10.01 50.018 0.097 7.32 8.16 10.75
11/12/2021 5:30:00 AM 10.11 50.198 0.098 7.32 10.22 10.74
11/12/2021 5:45:00 AM 10.25 50.45 0.103 7.34 28.83 10.68
11/12/2021 6:00:00 AM 10.43 50.774 0.106 7.37 58.67 10.63
11/12/2021 6:15:00 AM 10.54 50.972 0.105 7.4 103.85 10.65
11/12/2021 6:30:00 AM 10.71 51.278 0.105 7.41 2529.03 10.63
11/12/2021 6:45:00 AM 10.82 51.476 0.104 7.43 12499.95 10.61
11/12/2021 7:00:00 AM 10.87 51.566 0.096 7.46 14307.07 10.57
11/12/2021 7:15:00 AM 10.89 51.602 0.101 7.4 11688.1 10.53
11/12/2021 7:30:00 AM 10.88 51.584 0.098 7.34 6912.71 10.53
11/12/2021 7:45:00 AM 10.86 51.548 0.098 7.31 1162.4 10.53
11/12/2021 8:00:00 AM 10.84 51.512 0.097 7.32 960.98 10.56
11/12/2021 8:15:00 AM 10.83 51.494 0.095 7.31 106.09 10.54
11/12/2021 8:30:00 AM 10.82 51.476 0.093 7.31 31765.24 10.54
11/12/2021 8:45:00 AM 10.81 51.458 0.092 7.28 90.34 10.59
11/12/2021 9:00:00 AM 10.79 51.422 0.091 7.23 74.84 10.61
11/12/2021 9:15:00 AM 10.77 51.386 0.089 7.21 76.25 10.63
11/12/2021 9:30:00 AM 10.77 51.386 0.089 7.21 67.55 10.64
11/12/2021 9:45:00 AM 10.79 51.422 0.089 7.18 49.23 10.66
11/12/2021 10:00:00 AM 10.8 51.44 0.089 7.18 59.99 10.67
11/12/2021 10:15:00 AM 10.81 51.458 0.089 7.18 51.64 10.68
11/12/2021 10:30:00 AM 10.85 51.53 0.089 7.19 61.24 10.7
11/12/2021 10:45:00 AM 10.9 51.62 0.089 7.27 51.75 10.71
11/12/2021 11:00:00 AM 10.94 51.692 0.089 7.26 53.17 10.71
11/12/2021 11:15:00 AM 11.01 51.818 0.089 7.26 53.36 10.71
11/12/2021 11:30:00 AM 11.05 51.89 0.088 7.28 62.66 10.72
11/12/2021 11:45:00 AM 11.08 51.944 0.088 7.27 44.54 10.71
11/12/2021 12:00:00 PM 11.11 51.998 0.088 7.27 55.47 10.72
11/12/2021 12:15:00 PM 11.16 52.088 0.087 7.27 50.11 10.73
11/12/2021 12:30:00 PM 11.2 52.16 0.087 7.27 50.1 10.73
11/12/2021 12:45:00 PM 11.25 52.25 0.086 7.27 46.89 10.74
11/12/2021 1:00:00 PM 11.29 52.322 0.085 7.28 43.22 10.75
11/12/2021 1:15:00 PM 11.33 52.394 0.085 7.3 39.46 10.76
11/12/2021 1:30:00 PM 11.36 52.448 0.085 7.29 34.93 10.77
11/12/2021 1:45:00 PM 11.39 52.502 0.085 7.29 28.81 10.78
11/12/2021 2:00:00 PM 11.4 52.52 0.084 7.29 32.02 10.78
11/12/2021 2:15:00 PM 11.4 52.52 0.084 7.29 28.11 10.77
11/12/2021 2:30:00 PM 11.4 52.52 0.084 7.3 25.62 10.78
11/12/2021 2:45:00 PM 11.4 52.52 0.084 7.3 25.21 10.77
11/12/2021 3:00:00 PM 11.37 52.466 0.084 7.29 23.93 10.77
11/12/2021 3:15:00 PM 11.34 52.412 0.084 7.29 22.42 10.76
11/12/2021 3:30:00 PM 11.3 52.34 0.084 7.29 22.61 10.76
11/12/2021 3:45:00 PM 11.25 52.25 0.084 7.29 20.43 10.76
11/12/2021 4:00:00 PM 11.21 52.178 0.084 7.28 19.95 10.75
11/12/2021 4:15:00 PM 11.16 52.088 0.085 7.28 18.4 10.74
11/12/2021 4:30:00 PM 11.1 51.98 0.085 7.27 18.16 10.74
11/12/2021 4:45:00 PM 11.04 51.872 0.085 7.26 17.17 10.73
11/12/2021 5:00:00 PM 10.97 51.746 0.085 7.26 16.71 10.73
11/12/2021 5:15:00 PM 10.9 51.62 0.085 7.25 16.88 10.73
11/12/2021 5:30:00 PM 10.83 51.494 0.085 7.24 15.65 10.73
11/12/2021 5:45:00 PM 10.76 51.368 0.085 7.24 14.09 10.72
11/12/2021 6:00:00 PM 10.68 51.224 0.086 7.23 14.64 10.73
11/12/2021 6:15:00 PM 10.6 51.08 0.086 7.22 14.33 10.74
11/12/2021 6:30:00 PM 10.53 50.954 0.086 7.22 13.16 10.75
11/12/2021 6:45:00 PM 10.45 50.81 0.086 7.21 13.14 10.76
11/12/2021 7:00:00 PM 10.38 50.684 0.086 7.21 12.74 10.78
11/12/2021 7:15:00 PM 10.3 50.54 0.087 7.2 12.91 10.8
11/12/2021 7:30:00 PM 10.23 50.414 0.087 7.2 12.45 10.82
11/12/2021 7:45:00 PM 10.16 50.288 0.087 7.2 12.59 10.84
11/12/2021 8:00:00 PM 10.09 50.162 0.087 7.2 11.83 10.86
11/12/2021 8:15:00 PM 10.01 50.018 0.088 7.2 11.46 10.88
11/12/2021 8:30:00 PM 9.94 49.892 0.088 7.19 11.38 10.9
11/12/2021 8:45:00 PM 9.87 49.766 0.088 7.19 10.71 10.91
11/12/2021 9:00:00 PM 9.8 49.64 0.088 7.19 10.58 10.93
11/12/2021 9:15:00 PM 9.72 49.496 0.088 7.19 10.96 10.95
11/12/2021 9:30:00 PM 9.65 49.37 0.088 7.19 11.64 10.98
11/12/2021 9:45:00 PM 9.58 49.244 0.089 7.19 9.68 11
11/12/2021 10:00:00 PM 9.51 49.118 0.089 7.18 10.9 11.02
11/12/2021 10:15:00 PM 9.44 48.992 0.089 7.19 9.66 11.04
11/12/2021 10:30:00 PM 9.37 48.866 0.089 7.18 9.55 11.06
11/12/2021 10:45:00 PM 9.31 48.758 0.089 7.18 9.59 11.08
11/12/2021 11:00:00 PM 9.24 48.632 0.089 7.18 9.21 11.09
11/12/2021 11:15:00 PM 9.17 48.506 0.089 7.18 9.24 11.11
11/12/2021 11:30:00 PM 9.11 48.398 0.09 7.17 9.4 11.13
11/12/2021 11:45:00 PM 9.04 48.272 0.09 7.15 8.94 11.15
11/13/2021 12:00:00 AM 8.98 48.164 0.09 7.11 9.54 11.18
11/13/2021 12:15:00 AM 8.92 48.056 0.09 7.1 10.13 11.19
11/13/2021 12:30:00 AM 8.86 47.948 0.09 7.09 9.39 11.21
11/13/2021 12:45:00 AM 8.81 47.858 0.09 7.09 8.66 11.22
11/13/2021 1:00:00 AM 8.77 47.786 0.09 7.08 8.18 11.25
11/13/2021 1:15:00 AM 8.72 47.696 0.09 7.08 8.01 11.26
11/13/2021 1:30:00 AM 8.68 47.624 0.09 7.1 8.76 11.27
11/13/2021 1:45:00 AM 8.64 47.552 0.09 7.11 9.5 11.28
11/13/2021 2:00:00 AM 8.61 47.498 0.09 7.12 8.52 11.28
11/13/2021 2:15:00 AM 8.57 47.426 0.091 7.13 8.68 11.29
11/13/2021 2:30:00 AM 8.54 47.372 0.091 7.13 8.23 11.3
11/13/2021 2:45:00 AM 8.51 47.318 0.091 7.14 8.28 11.31
11/13/2021 3:00:00 AM 8.49 47.282 0.091 7.15 8.39 11.32
11/13/2021 3:15:00 AM 8.47 47.246 0.091 7.14 8.38 11.33
11/13/2021 3:30:00 AM 8.44 47.192 0.091 7.15 7.72 11.33
11/13/2021 3:45:00 AM 8.42 47.156 0.091 7.15 7.72 11.34
11/13/2021 4:00:00 AM 8.4 47.12 0.091 7.16 7.8 11.34
11/13/2021 4:15:00 AM 8.38 47.084 0.091 7.16 7.63 11.35
11/13/2021 4:30:00 AM 8.37 47.066 0.091 7.16 7.67 11.36
11/13/2021 4:45:00 AM 8.35 47.03 0.091 7.16 7.34 11.36
11/13/2021 5:00:00 AM 8.34 47.012 0.091 7.17 7.64 11.36
11/13/2021 5:15:00 AM 8.33 46.994 0.091 7.17 7.66 11.37
11/13/2021 5:30:00 AM 8.33 46.994 0.091 7.17 7.32 11.37
11/13/2021 5:45:00 AM 8.33 46.994 0.091 7.17 7.29 11.37
11/13/2021 6:00:00 AM 8.32 46.976 0.091 7.17 7.47 11.36
11/13/2021 6:15:00 AM 8.31 46.958 0.091 7.17 7.33 11.37
11/13/2021 6:30:00 AM 8.31 46.958 0.091 7.18 7.16 11.37
11/13/2021 6:45:00 AM 8.31 46.958 0.091 7.18 7.24 11.37
11/13/2021 7:00:00 AM 8.3 46.94 0.091 7.18 7.31 11.37
11/13/2021 7:15:00 AM 8.31 46.958 0.091 7.18 7.93 11.38
11/13/2021 7:30:00 AM 8.31 46.958 0.09 7.19 7.02 11.4
11/13/2021 7:45:00 AM 8.32 46.976 0.09 7.19 6.87 11.42
11/13/2021 8:00:00 AM 8.33 46.994 0.09 7.2 6.85 11.46
11/13/2021 8:15:00 AM 8.35 47.03 0.09 7.22 6.47 11.5
11/13/2021 8:30:00 AM 8.38 47.084 0.09 7.23 6.42 11.54
11/13/2021 8:45:00 AM 8.41 47.138 0.09 7.24 6.26 11.6
11/13/2021 9:00:00 AM 8.44 47.192 0.09 7.27 6.25 11.65
11/13/2021 9:15:00 AM 8.47 47.246 0.09 7.27 6.24 11.66
11/13/2021 9:30:00 AM 8.5 47.3 0.09 7.29 6.19 11.72
11/13/2021 9:45:00 AM 8.53 47.354 0.09 7.31 6 11.73
11/13/2021 10:00:00 AM 8.56 47.408 0.09 7.32 6.05 11.75
11/13/2021 10:15:00 AM 8.59 47.462 0.09 7.32 6.14 11.75
11/13/2021 10:30:00 AM 8.62 47.516 0.09 7.33 5.91 11.77
11/13/2021 10:45:00 AM 8.64 47.552 0.09 7.35 5.94 11.79
11/13/2021 11:00:00 AM 8.66 47.588 0.09 7.35 5.88 11.76
11/13/2021 11:15:00 AM 8.67 47.606 0.089 7.35 5.96 11.75
11/13/2021 11:30:00 AM 8.67 47.606 0.089 7.35 5.84 11.73
11/13/2021 11:45:00 AM 8.67 47.606 0.089 7.35 5.85 11.71
11/13/2021 12:00:00 PM 8.66 47.588 0.089 7.34 5.95 11.7
11/13/2021 12:15:00 PM 8.66 47.588 0.089 7.34 6.15 11.69
11/13/2021 12:30:00 PM 8.66 47.588 0.089 7.34 5.81 11.7
11/13/2021 12:45:00 PM 8.66 47.588 0.089 7.34 5.89 11.7
11/13/2021 1:00:00 PM 8.65 47.57 0.089 7.34 6.28 11.69
11/13/2021 1:15:00 PM 8.64 47.552 0.089 7.34 6.65 11.68
11/13/2021 1:30:00 PM 8.64 47.552 0.089 7.35 6.51 11.72
11/13/2021 1:45:00 PM 8.64 47.552 0.089 7.36 6.68 11.77
11/13/2021 2:00:00 PM 8.67 47.606 0.089 7.39 7.28 11.85
11/13/2021 2:15:00 PM 8.69 47.642 0.09 7.39 8.44 11.86
11/13/2021 2:30:00 PM 8.68 47.624 0.09 7.38 8.47 11.83
11/13/2021 2:45:00 PM 8.69 47.642 0.09 7.38 8.43 11.82
11/13/2021 3:00:00 PM 8.68 47.624 0.09 7.38 8.83 11.8
11/13/2021 3:15:00 PM 8.67 47.606 0.09 7.39 8.46 11.83
11/13/2021 3:30:00 PM 8.64 47.552 0.09 7.38 8.41 11.81
11/13/2021 3:45:00 PM 8.61 47.498 0.089 7.37 8.74 11.78
11/13/2021 4:00:00 PM 8.59 47.462 0.089 7.36 8.58 11.77
11/13/2021 4:15:00 PM 8.56 47.408 0.089 7.35 8.28 11.74
11/13/2021 4:30:00 PM 8.53 47.354 0.089 7.34 8.47 11.7
11/13/2021 4:45:00 PM 8.51 47.318 0.088 7.32 8.26 11.66
11/13/2021 5:00:00 PM 8.48 47.264 0.088 7.3 8.07 11.63
11/13/2021 5:15:00 PM 8.45 47.21 0.088 7.29 7.76 11.59
11/13/2021 5:30:00 PM 8.41 47.138 0.088 7.27 7.78 11.55
11/13/2021 5:45:00 PM 8.39 47.102 0.088 7.26 7.82 11.52
11/13/2021 6:00:00 PM 8.36 47.048 0.088 7.25 8.41 11.5
11/13/2021 6:15:00 PM 8.33 46.994 0.088 7.24 8.15 11.48
11/13/2021 6:30:00 PM 8.3 46.94 0.088 7.23 7.94 11.47
11/13/2021 6:45:00 PM 8.27 46.886 0.088 7.23 8.01 11.46
11/13/2021 7:00:00 PM 8.23 46.814 0.087 7.22 7.9 11.46
11/13/2021 7:15:00 PM 8.2 46.76 0.087 7.21 7.87 11.46
11/13/2021 7:30:00 PM 8.18 46.724 0.087 7.2 7.57 11.46
11/13/2021 7:45:00 PM 8.15 46.67 0.088 7.2 7.79 11.46
11/13/2021 8:00:00 PM 8.13 46.634 0.088 7.19 7.75 11.46
11/13/2021 8:15:00 PM 8.1 46.58 0.088 7.19 8.06 11.47
11/13/2021 8:30:00 PM 8.08 46.544 0.088 7.18 7.5 11.47
11/13/2021 8:45:00 PM 8.05 46.49 0.088 7.18 7.46 11.47
11/13/2021 9:00:00 PM 8.03 46.454 0.088 7.19 7.4 11.48
11/13/2021 9:15:00 PM 8 46.4 0.088 7.19 7.71 11.48
11/13/2021 9:30:00 PM 7.98 46.364 0.088 7.19 7.03 11.48
11/13/2021 9:45:00 PM 7.96 46.328 0.088 7.19 7.46 11.49
11/13/2021 10:00:00 PM 7.93 46.274 0.088 7.19 7.3 11.5
11/13/2021 10:15:00 PM 7.91 46.238 0.089 7.19 7.24 11.51
11/13/2021 10:30:00 PM 7.89 46.202 0.089 7.19 7.29 11.51
11/13/2021 10:45:00 PM 7.86 46.148 0.089 7.2 7.21 11.53
11/13/2021 11:00:00 PM 7.84 46.112 0.089 7.2 7.32 11.54
11/13/2021 11:15:00 PM 7.82 46.076 0.089 7.19 7.15 11.55
11/13/2021 11:30:00 PM 7.79 46.022 0.089 7.19 7.23 11.56
11/13/2021 11:45:00 PM 7.76 45.968 0.089 7.19 7.21 11.56
11/14/2021 12:00:00 AM 7.73 45.914 0.089 7.18 7.52 11.57
11/14/2021 12:15:00 AM 7.71 45.878 0.089 7.18 7.26 11.58
11/14/2021 12:30:00 AM 7.68 45.824 0.089 7.18 6.73 11.59
11/14/2021 12:45:00 AM 7.65 45.77 0.089 7.18 6.83 11.59
11/14/2021 1:00:00 AM 7.62 45.716 0.089 7.18 6.61 11.6
11/14/2021 1:15:00 AM 7.59 45.662 0.089 7.18 6.53 11.61
11/14/2021 1:30:00 AM 7.57 45.626 0.088 7.18 6.48 11.62
11/14/2021 1:45:00 AM 7.54 45.572 0.088 7.18 6.37 11.63
11/14/2021 2:00:00 AM 7.51 45.518 0.088 7.18 6.22 11.64
11/14/2021 2:15:00 AM 7.49 45.482 0.088 7.19 6.21 11.65
11/14/2021 2:30:00 AM 7.48 45.464 0.088 7.18 6.11 11.65
11/14/2021 2:45:00 AM 7.46 45.428 0.088 7.19 6.22 11.66
11/14/2021 3:00:00 AM 7.44 45.392 0.088 7.19 6.27 11.66
11/14/2021 3:15:00 AM 7.42 45.356 0.088 7.19 5.36 11.66
11/14/2021 3:30:00 AM 7.4 45.32 0.088 7.18 6.09 11.66
11/14/2021 3:45:00 AM 7.37 45.266 0.088 7.18 6.06 11.67
11/14/2021 4:00:00 AM 7.35 45.23 0.088 7.18 6.2 11.67
11/14/2021 4:15:00 AM 7.32 45.176 0.088 7.17 5.97 11.68
11/14/2021 4:30:00 AM 7.29 45.122 0.088 7.17 6.03 11.69
11/14/2021 4:45:00 AM 7.26 45.068 0.088 7.17 5.89 11.7
11/14/2021 5:00:00 AM 7.23 45.014 0.088 7.17 5.98 11.71
11/14/2021 5:15:00 AM 7.2 44.96 0.088 7.17 6.05 11.73
11/14/2021 5:30:00 AM 7.17 44.906 0.088 7.16 5.81 11.74
11/14/2021 5:45:00 AM 7.14 44.852 0.088 7.17 5.95 11.74
11/14/2021 6:00:00 AM 7.11 44.798 0.088 7.17 5.86 11.75
11/14/2021 6:15:00 AM 7.08 44.744 0.088 7.17 5.94 11.76
11/14/2021 6:30:00 AM 7.06 44.708 0.088 7.17 5.92 11.77
11/14/2021 6:45:00 AM 7.04 44.672 0.088 7.17 6.01 11.78
11/14/2021 7:00:00 AM 7.02 44.636 0.088 7.17 6.01 11.8
11/14/2021 7:15:00 AM 7.01 44.618 0.088 7.18 6.23 11.81
11/14/2021 7:30:00 AM 6.99 44.582 0.088 7.18 6.06 11.85
11/14/2021 7:45:00 AM 6.99 44.582 0.088 7.2 6.18 11.89
11/14/2021 8:00:00 AM 6.99 44.582 0.088 7.21 6.08 11.96
11/14/2021 8:15:00 AM 7 44.6 0.088 7.23 5.79 12.05
11/14/2021 8:30:00 AM 7.02 44.636 0.088 7.26 5.87 12.16
11/14/2021 8:45:00 AM 7.06 44.708 0.088 7.29 5.79 12.26
11/14/2021 9:00:00 AM 7.08 44.744 0.088 7.32 6.05 12.35
11/14/2021 9:15:00 AM 7.12 44.816 0.088 7.35 4.96 12.44
11/14/2021 9:30:00 AM 7.16 44.888 0.088 7.38 5.61 12.5
11/14/2021 9:45:00 AM 7.19 44.942 0.088 7.4 5.41 12.55
11/14/2021 10:00:00 AM 7.26 45.068 0.088 7.43 5.38 12.61
11/14/2021 10:15:00 AM 7.32 45.176 0.088 7.47 5.49 12.67
11/14/2021 10:30:00 AM 7.38 45.284 0.088 7.5 5.47 12.73
11/14/2021 10:45:00 AM 7.45 45.41 0.088 7.54 5.64 12.78
11/14/2021 11:00:00 AM 7.52 45.536 0.087 7.57 5.48 12.81
11/14/2021 11:15:00 AM 7.58 45.644 0.087 7.6 5.49 12.83
11/14/2021 11:30:00 AM 7.66 45.788 0.087 7.63 5.71 12.85
11/14/2021 11:45:00 AM 7.77 45.986 0.087 7.66 5.7 12.86
11/14/2021 12:00:00 PM 7.87 46.166 0.087 7.69 5.38 12.85
11/14/2021 12:15:00 PM 7.91 46.238 0.087 7.71 5.19 12.84
11/14/2021 12:30:00 PM 7.95 46.31 0.087 7.73 5.15 12.82
11/14/2021 12:45:00 PM 8.01 46.418 0.087 7.73 5.35 12.79
11/14/2021 1:00:00 PM 8.04 46.472 0.087 7.71 5.34 12.74
11/14/2021 1:15:00 PM 8.06 46.508 0.087 7.71 5.47 12.7
11/14/2021 1:30:00 PM 8.08 46.544 0.087 7.7 5.33 12.67
11/14/2021 1:45:00 PM 8.1 46.58 0.087 7.71 5.51 12.64
11/14/2021 2:00:00 PM 8.12 46.616 0.087 7.7 5.43 12.61
11/14/2021 2:15:00 PM 8.13 46.634 0.087 7.68 5.41 12.55
11/14/2021 2:30:00 PM 8.14 46.652 0.087 7.68 5.3 12.53
11/14/2021 2:45:00 PM 8.14 46.652 0.087 7.66 5.53 12.48
11/14/2021 3:00:00 PM 8.13 46.634 0.087 7.63 5.96 12.44
11/14/2021 3:15:00 PM 8.12 46.616 0.087 7.6 5.65 12.37
11/14/2021 3:30:00 PM 8.11 46.598 0.087 7.56 5.56 12.29
11/14/2021 3:45:00 PM 8.1 46.58 0.087 7.52 5.72 12.19
11/14/2021 4:00:00 PM 8.09 46.562 0.087 7.48 5.51 12.09
11/14/2021 4:15:00 PM 8.08 46.544 0.087 7.44 5.25 11.99
11/14/2021 4:30:00 PM 8.07 46.526 0.087 7.41 5.17 11.91
11/14/2021 4:45:00 PM 8.05 46.49 0.088 7.38 5.24 11.84
11/14/2021 5:00:00 PM 8.03 46.454 0.088 7.36 6.28 11.77
11/14/2021 5:15:00 PM 8.01 46.418 0.088 7.34 5.73 11.72
11/14/2021 5:30:00 PM 7.99 46.382 0.088 7.32 5.66 11.67
11/14/2021 5:45:00 PM 7.97 46.346 0.088 7.31 5.73 11.63
11/14/2021 6:00:00 PM 7.96 46.328 0.088 7.29 5.59 11.6
11/14/2021 6:15:00 PM 7.94 46.292 0.088 7.28 5.46 11.58
11/14/2021 6:30:00 PM 7.93 46.274 0.088 7.27 5.5 11.56
11/14/2021 6:45:00 PM 7.91 46.238 0.088 7.26 5.13 11.53
11/14/2021 7:00:00 PM 7.89 46.202 0.088 7.25 5.26 11.53
11/14/2021 7:15:00 PM 7.88 46.184 0.088 7.25 5.25 11.52
11/14/2021 7:30:00 PM 7.86 46.148 0.088 7.23 5.19 11.51
11/14/2021 7:45:00 PM 7.84 46.112 0.088 7.23 5.61 11.52
11/14/2021 8:00:00 PM 7.81 46.058 0.088 7.22 5.71 11.51
11/14/2021 8:15:00 PM 7.78 46.004 0.088 7.23 5.62 11.51
11/14/2021 8:30:00 PM 7.76 45.968 0.088 7.22 5.28 11.52
11/14/2021 8:45:00 PM 7.74 45.932 0.088 7.22 5.44 11.52
11/14/2021 9:00:00 PM 7.71 45.878 0.088 7.22 5.19 11.52
11/14/2021 9:15:00 PM 7.69 45.842 0.088 7.21 5.3 11.53
11/14/2021 9:30:00 PM 7.67 45.806 0.089 7.21 5.36 11.53
11/14/2021 9:45:00 PM 7.65 45.77 0.089 7.21 5.36 11.54
11/14/2021 10:00:00 PM 7.63 45.734 0.089 7.21 5.59 11.54
11/14/2021 10:15:00 PM 7.61 45.698 0.089 7.21 5.45 11.55
11/14/2021 10:30:00 PM 7.59 45.662 0.089 7.21 5.53 11.55
11/14/2021 10:45:00 PM 7.57 45.626 0.089 7.21 5.48 11.56
11/14/2021 11:00:00 PM 7.55 45.59 0.089 7.2 5.53 11.57
11/14/2021 11:15:00 PM 7.53 45.554 0.089 7.2 5.65 11.57
11/14/2021 11:30:00 PM 7.51 45.518 0.089 7.21 5.6 11.58
11/14/2021 11:45:00 PM 7.49 45.482 0.089 7.2 5.61 11.59
11/15/2021 12:00:00 AM 7.47 45.446 0.089 7.2 5.63 11.59
11/15/2021 12:15:00 AM 7.45 45.41 0.089 7.21 5.61 11.59
11/15/2021 12:30:00 AM 7.43 45.374 0.089 7.2 5.5 11.6
11/15/2021 12:45:00 AM 7.4 45.32 0.089 7.2 5.54 11.6
11/15/2021 1:00:00 AM 7.38 45.284 0.089 7.2 5.57 11.61
11/15/2021 1:15:00 AM 7.36 45.248 0.088 7.2 5.6 11.61
11/15/2021 1:30:00 AM 7.34 45.212 0.088 7.2 5.53 11.62
11/15/2021 1:45:00 AM 7.31 45.158 0.088 7.2 5.53 11.62
11/15/2021 2:00:00 AM 7.3 45.14 0.088 7.2 5.45 11.63
11/15/2021 2:15:00 AM 7.28 45.104 0.088 7.19 5.5 11.63
11/15/2021 2:30:00 AM 7.27 45.086 0.088 7.19 5.55 11.64
11/15/2021 2:45:00 AM 7.26 45.068 0.088 7.2 5.5 11.64
11/15/2021 3:00:00 AM 7.25 45.05 0.088 7.2 5.54 11.64
11/15/2021 3:15:00 AM 7.25 45.05 0.088 7.19 5.38 11.65
11/15/2021 3:30:00 AM 7.24 45.032 0.088 7.2 5.6 11.65
11/15/2021 3:45:00 AM 7.23 45.014 0.088 7.2 5.35 11.65
11/15/2021 4:00:00 AM 7.22 44.996 0.088 7.2 5.82 11.66
11/15/2021 4:15:00 AM 7.21 44.978 0.088 7.19 5.54 11.65
11/15/2021 4:30:00 AM 7.19 44.942 0.088 7.19 5.32 11.66
11/15/2021 4:45:00 AM 7.17 44.906 0.088 7.19 5.47 11.67
11/15/2021 5:00:00 AM 7.15 44.87 0.088 7.19 5.37 11.67
11/15/2021 5:15:00 AM 7.13 44.834 0.088 7.19 5.37 11.69
11/15/2021 5:30:00 AM 7.12 44.816 0.088 7.19 5.28 11.68
11/15/2021 5:45:00 AM 7.11 44.798 0.088 7.19 5.24 11.69
11/15/2021 6:00:00 AM 7.09 44.762 0.088 7.19 5.5 11.69
11/15/2021 6:15:00 AM 7.08 44.744 0.088 7.19 5.35 11.7
11/15/2021 6:30:00 AM 7.07 44.726 0.088 7.19 5.38 11.7
11/15/2021 6:45:00 AM 7.06 44.708 0.088 7.2 5.3 11.71
11/15/2021 7:00:00 AM 7.06 44.708 0.088 7.19 5.72 11.72
11/15/2021 7:15:00 AM 7.05 44.69 0.088 7.19 5.4 11.73
11/15/2021 7:30:00 AM 7.04 44.672 0.088 7.2 5.37 11.74
11/15/2021 7:45:00 AM 7.04 44.672 0.088 7.21 5.4 11.79
11/15/2021 8:00:00 AM 7.04 44.672 0.088 7.22 5.14 11.88
11/15/2021 8:15:00 AM 7.05 44.69 0.088 7.24 5.05 11.96
11/15/2021 8:30:00 AM 7.06 44.708 0.088 7.28 5.35 12.07
11/15/2021 8:45:00 AM 7.08 44.744 0.088